Provisional Data: Starrucca Creek near Stevens Point, PA


Please select a monitoring station.
Please select start date.
Please select start date.

Toggle Unit: C/F Toggle Unit: C/F
Sample Time Temperature (C) Temperature (F) Specific Conductivity (mS/cm) pH   Turbidity (NTU+) DO (mg/L)
12/23/2021 12:00:00 AM 0.97 33.746 0.075 7.32 1.45 13.43
12/23/2021 12:15:00 AM 0.92 33.656 0.075 7.32 1.43 13.45
12/23/2021 12:30:00 AM 0.87 33.566 0.075 7.31 1.42 13.47
12/23/2021 12:45:00 AM 0.83 33.494 0.075 7.31 1.42 13.48
12/23/2021 1:00:00 AM 0.81 33.458 0.075 7.31 1.46 13.49
12/23/2021 1:15:00 AM 0.79 33.422 0.075 7.31 1.44 13.5
12/23/2021 1:30:00 AM 0.74 33.332 0.075 7.31 1.45 13.53
12/23/2021 1:45:00 AM 0.71 33.278 0.075 7.3 1.43 13.53
12/23/2021 2:00:00 AM 0.68 33.224 0.075 7.31 1.46 13.55
12/23/2021 2:15:00 AM 0.66 33.188 0.076 7.3 1.45 13.55
12/23/2021 2:30:00 AM 0.61 33.098 0.076 7.29 1.4 13.59
12/23/2021 2:45:00 AM 0.6 33.08 0.076 7.3 1.45 13.6
12/23/2021 3:00:00 AM 0.58 33.044 0.076 7.31 1.43 13.61
12/23/2021 3:15:00 AM 0.55 32.99 0.076 7.3 1.41 13.62
12/23/2021 3:30:00 AM 0.54 32.972 0.076 7.3 1.39 13.64
12/23/2021 3:45:00 AM 0.51 32.918 0.076 7.29 1.43 13.64
12/23/2021 4:00:00 AM 0.49 32.882 0.076 7.3 1.44 13.66
12/23/2021 4:15:00 AM 0.43 32.774 0.076 7.31 1.42 13.67
12/23/2021 4:30:00 AM 0.41 32.738 0.076 7.3 1.44 13.67
12/23/2021 4:45:00 AM 0.41 32.738 0.076 7.3 1.47 13.7
12/23/2021 5:00:00 AM 0.39 32.702 0.076 7.3 1.41 13.71
12/23/2021 5:15:00 AM 0.38 32.684 0.076 7.3 1.41 13.7
12/23/2021 5:30:00 AM 0.37 32.666 0.076 7.3 1.42 13.72
12/23/2021 5:45:00 AM 0.35 32.63 0.076 7.3 1.45 13.72
12/23/2021 6:00:00 AM 0.34 32.612 0.076 7.3 1.51 13.73
12/23/2021 6:15:00 AM 0.34 32.612 0.076 7.3 1.44 13.74
12/23/2021 6:30:00 AM 0.34 32.612 0.076 7.31 1.36 13.75
12/23/2021 6:45:00 AM 0.34 32.612 0.076 7.28 1.4 13.75
12/23/2021 7:00:00 AM 0.33 32.594 0.076 7.31 1.43 13.75
12/23/2021 7:15:00 AM 0.32 32.576 0.076 7.29 1.41 13.75
12/23/2021 7:30:00 AM 0.34 32.612 0.076 7.29 1.39 13.76
12/23/2021 7:45:00 AM 0.34 32.612 0.076 7.3 1.44 13.79
12/23/2021 8:00:00 AM 0.33 32.594 0.076 7.31 1.36 13.83
12/23/2021 8:15:00 AM 0.32 32.576 0.076 7.33 1.42 13.92
12/23/2021 8:30:00 AM 0.33 32.594 0.075 7.36 1.41 14.05
12/23/2021 8:45:00 AM 0.34 32.612 0.075 7.4 1.42 14.2
12/23/2021 9:00:00 AM 0.34 32.612 0.075 7.48 1.43 14.41
12/23/2021 9:15:00 AM 0.36 32.648 0.075 7.55 1.36 14.59
12/23/2021 9:30:00 AM 0.37 32.666 0.075 7.63 1.41 14.73
12/23/2021 9:45:00 AM 0.4 32.72 0.074 7.72 1.42 14.87
12/23/2021 10:00:00 AM 0.44 32.792 0.074 7.84 1.39 15
12/23/2021 10:15:00 AM 0.48 32.864 0.074 7.97 1.4 15.08
12/23/2021 10:30:00 AM 0.54 32.972 0.074 8.09 1.44 15.14
12/23/2021 10:45:00 AM 0.57 33.026 0.074 8.29 1.43 15.21
12/23/2021 11:00:00 AM 0.64 33.152 0.073 8.44 1.39 15.26
12/23/2021 11:15:00 AM 0.69 33.242 0.073 8.54 1.45 15.27
12/23/2021 11:30:00 AM 0.73 33.314 0.073 8.6 1.42 15.24
12/23/2021 11:45:00 AM 0.77 33.386 0.073 8.63 1.43 15.21
12/23/2021 12:00:00 PM 0.81 33.458 0.073 8.7 1.41 15.19
12/23/2021 12:15:00 PM 0.9 33.62 0.073 8.76 1.36 15.19
12/23/2021 12:30:00 PM 0.97 33.746 0.072 8.82 1.35 15.18
12/23/2021 12:45:00 PM 0.99 33.782 0.072 8.84 1.4 15.15
12/23/2021 1:00:00 PM 1.01 33.818 0.072 8.87 1.38 15.12
12/23/2021 1:15:00 PM 1.02 33.836 0.072 8.91 1.41 15.12
12/23/2021 1:30:00 PM 1.05 33.89 0.072 8.93 1.42 15.1
12/23/2021 1:45:00 PM 1.13 34.034 0.072 8.95 1.39 15.09
12/23/2021 2:00:00 PM 1.16 34.088 0.072 8.96 1.42 15.04
12/23/2021 2:15:00 PM 1.19 34.142 0.072 9 1.41 15.04
12/23/2021 2:30:00 PM 1.19 34.142 0.072 8.99 1.4 14.99
12/23/2021 2:45:00 PM 1.2 34.16 0.072 8.98 1.37 14.92
12/23/2021 3:00:00 PM 1.17 34.106 0.072 8.89 1.36 14.8
12/23/2021 3:15:00 PM 1.12 34.016 0.072 8.77 1.35 14.66
12/23/2021 3:30:00 PM 1.1 33.98 0.072 8.56 1.4 14.5
12/23/2021 3:45:00 PM 1.08 33.944 0.072 8.41 1.39 14.45
12/23/2021 4:00:00 PM 1.06 33.908 0.072 8.17 1.37 14.33
12/23/2021 4:15:00 PM 1.02 33.836 0.072 7.98 1.42 14.23
12/23/2021 4:30:00 PM 0.99 33.782 0.073 7.8 1.43 14.13
12/23/2021 4:45:00 PM 0.95 33.71 0.073 7.68 1.43 14.01
12/23/2021 5:00:00 PM 0.92 33.656 0.073 7.59 1.41 13.89
12/23/2021 5:15:00 PM 0.9 33.62 0.073 7.53 1.43 13.8
12/23/2021 5:30:00 PM 0.88 33.584 0.073 7.47 1.43 13.73
12/23/2021 5:45:00 PM 0.83 33.494 0.074 7.45 1.44 13.69
12/23/2021 6:00:00 PM 0.82 33.476 0.074 7.42 1.45 13.66
12/23/2021 6:15:00 PM 0.79 33.422 0.074 7.41 1.51 13.64
12/23/2021 6:30:00 PM 0.8 33.44 0.074 7.38 1.53 13.61
12/23/2021 6:45:00 PM 0.77 33.386 0.074 7.34 1.53 13.61
12/23/2021 7:00:00 PM 0.78 33.404 0.074 7.35 1.52 13.59
12/23/2021 7:15:00 PM 0.76 33.368 0.074 7.35 1.51 13.6
12/23/2021 7:30:00 PM 0.77 33.386 0.074 7.35 1.51 13.6
12/23/2021 7:45:00 PM 0.78 33.404 0.075 7.33 1.58 13.59
12/23/2021 8:00:00 PM 0.75 33.35 0.075 7.33 1.53 13.62
12/23/2021 8:15:00 PM 0.75 33.35 0.075 7.35 1.58 13.62
12/23/2021 8:30:00 PM 0.76 33.368 0.075 7.33 1.59 13.59
12/23/2021 8:45:00 PM 0.76 33.368 0.075 7.32 1.58 13.6
12/23/2021 9:00:00 PM 0.74 33.332 0.075 7.33 1.65 13.61
12/23/2021 9:15:00 PM 0.74 33.332 0.075 7.32 1.62 13.61
12/23/2021 9:30:00 PM 0.7 33.26 0.075 7.32 1.62 13.6
12/23/2021 9:45:00 PM 0.65 33.17 0.075 7.33 1.59 13.62
12/23/2021 10:00:00 PM 0.64 33.152 0.075 7.3 1.56 13.63
12/23/2021 10:15:00 PM 0.64 33.152 0.075 7.32 1.62 13.63
12/23/2021 10:30:00 PM 0.62 33.116 0.075 7.32 1.59 13.65
12/23/2021 10:45:00 PM 0.61 33.098 0.075 7.32 1.64 13.64
12/23/2021 11:00:00 PM 0.61 33.098 0.076 7.32 1.61 13.65
12/23/2021 11:15:00 PM 0.62 33.116 0.076 7.31 1.64 13.64
12/23/2021 11:30:00 PM 0.61 33.098 0.076 7.32 1.63 13.65
12/23/2021 11:45:00 PM 0.61 33.098 0.076 7.32 1.57 13.64
12/24/2021 12:00:00 AM 0.6 33.08 0.076 7.31 1.54 13.64
12/24/2021 12:15:00 AM 0.6 33.08 0.076 7.32 1.59 13.65
12/24/2021 12:30:00 AM 0.6 33.08 0.076 7.32 1.61 13.65
12/24/2021 12:45:00 AM 0.59 33.062 0.076 7.32 1.59 13.65
12/24/2021 1:00:00 AM 0.6 33.08 0.076 7.31 1.64 13.64
12/24/2021 1:15:00 AM 0.57 33.026 0.076 7.31 1.64 13.65
12/24/2021 1:30:00 AM 0.52 32.936 0.076 7.31 1.66 13.65
12/24/2021 1:45:00 AM 0.47 32.846 0.076 7.31 1.63 13.64
12/24/2021 2:00:00 AM 0.46 32.828 0.076 7.32 1.59 13.66
12/24/2021 2:15:00 AM 0.38 32.684 0.076 7.31 1.57 13.67
12/24/2021 2:30:00 AM 0.33 32.594 0.077 7.32 1.52 13.69
12/24/2021 2:45:00 AM 0.22 32.396 0.076 7.31 1.5 13.7
12/24/2021 3:00:00 AM 0.2 32.36 0.076 7.29 1.49 13.72
12/24/2021 3:15:00 AM 0.2 32.36 0.076 7.3 1.49 13.72
12/24/2021 3:30:00 AM 0.17 32.306 0.076 7.3 1.52 13.74
12/24/2021 3:45:00 AM 0.14 32.252 0.076 7.3 1.47 13.75
12/24/2021 4:00:00 AM 0.11 32.198 0.076 7.3 1.55 13.77
12/24/2021 4:15:00 AM 0.1 32.18 0.076 7.3 1.46 13.78
12/24/2021 4:30:00 AM 0.08 32.144 0.076 7.31 1.47 13.8
12/24/2021 4:45:00 AM 0.09 32.162 0.076 7.31 1.48 13.81
12/24/2021 5:00:00 AM 0.09 32.162 0.076 7.31 1.46 13.81
12/24/2021 5:15:00 AM 0.11 32.198 0.076 7.3 1.49 13.81
12/24/2021 5:30:00 AM 0.12 32.216 0.076 7.3 1.46 13.82
12/24/2021 5:45:00 AM 0.13 32.234 0.076 7.3 1.46 13.82
12/24/2021 6:00:00 AM 0.14 32.252 0.076 7.3 1.44 13.82
12/24/2021 6:15:00 AM 0.15 32.27 0.076 7.3 1.47 13.82
12/24/2021 6:30:00 AM 0.17 32.306 0.076 7.3 1.4 13.81
12/24/2021 6:45:00 AM 0.18 32.324 0.076 7.29 1.46 13.81
12/24/2021 7:00:00 AM 0.19 32.342 0.076 7.3 1.41 13.81
12/24/2021 7:15:00 AM 0.21 32.378 0.076 7.29 1.46 13.8
12/24/2021 7:30:00 AM 0.21 32.378 0.076 7.3 1.5 13.81
12/24/2021 7:45:00 AM 0.21 32.378 0.076 7.3 1.49 13.83
12/24/2021 8:00:00 AM 0.23 32.414 0.076 7.32 1.48 13.88
12/24/2021 8:15:00 AM 0.24 32.432 0.076 7.35 1.45 13.99
12/24/2021 8:30:00 AM 0.28 32.504 0.075 7.38 1.39 14.12
12/24/2021 8:45:00 AM 0.32 32.576 0.075 7.42 1.45 14.27
12/24/2021 9:00:00 AM 0.35 32.63 0.075 7.46 1.41 14.39
12/24/2021 9:15:00 AM 0.4 32.72 0.075 7.52 1.46 14.5
12/24/2021 9:30:00 AM 0.43 32.774 0.075 7.59 1.41 14.62
12/24/2021 9:45:00 AM 0.49 32.882 0.074 7.67 1.41 14.77
12/24/2021 10:00:00 AM 0.55 32.99 0.074 7.81 1.43 14.89
12/24/2021 10:15:00 AM 0.62 33.116 0.074 7.92 1.43 14.96
12/24/2021 10:30:00 AM 0.7 33.26 0.074 8.06 1.42 15.02
12/24/2021 10:45:00 AM 0.76 33.368 0.074 8.22 1.42 15.08
12/24/2021 11:00:00 AM 0.83 33.494 0.074 8.36 1.42 15.09
12/24/2021 11:15:00 AM 0.91 33.638 0.074 8.45 1.41 15.11
12/24/2021 11:30:00 AM 0.96 33.728 0.073 8.54 1.43 15.09
12/24/2021 11:45:00 AM 1.03 33.854 0.073 8.61 1.44 15.07
12/24/2021 12:00:00 PM 1.09 33.962 0.073 8.66 1.45 15.04
12/24/2021 12:15:00 PM 1.15 34.07 0.073 8.71 1.4 15
12/24/2021 12:30:00 PM 1.2 34.16 0.073 8.73 1.41 14.95
12/24/2021 12:45:00 PM 1.26 34.268 0.073 8.76 1.41 14.91
12/24/2021 1:00:00 PM 1.31 34.358 0.073 8.75 1.42 14.83
12/24/2021 1:15:00 PM 1.37 34.466 0.072 8.75 1.4 14.78
12/24/2021 1:30:00 PM 1.41 34.538 0.072 8.78 1.45 14.74
12/24/2021 1:45:00 PM 1.47 34.646 0.072 8.78 1.39 14.71
12/24/2021 2:00:00 PM 1.54 34.772 0.072 8.84 1.42 14.72
12/24/2021 2:15:00 PM 1.62 34.916 0.072 8.86 1.4 14.72
12/24/2021 2:30:00 PM 1.69 35.042 0.072 8.92 1.4 14.72
12/24/2021 2:45:00 PM 1.76 35.168 0.072 8.96 1.42 14.71
12/24/2021 3:00:00 PM 1.78 35.204 0.072 8.92 1.4 14.59
12/24/2021 3:15:00 PM 1.79 35.222 0.072 8.86 1.39 14.49
12/24/2021 3:30:00 PM 1.79 35.222 0.072 8.78 1.43 14.37
12/24/2021 3:45:00 PM 1.79 35.222 0.072 8.66 1.4 14.24
12/24/2021 4:00:00 PM 1.81 35.258 0.072 8.5 1.43 14.14
12/24/2021 4:15:00 PM 1.8 35.24 0.072 8.24 1.43 13.99
12/24/2021 4:30:00 PM 1.78 35.204 0.072 7.96 1.46 13.82
12/24/2021 4:45:00 PM 1.78 35.204 0.073 7.75 1.46 13.65
12/24/2021 5:00:00 PM 1.76 35.168 0.073 7.65 1.44 13.54
12/24/2021 5:15:00 PM 1.76 35.168 0.073 7.56 1.46 13.41
12/24/2021 5:30:00 PM 1.74 35.132 0.073 7.51 1.45 13.35
12/24/2021 5:45:00 PM 1.72 35.096 0.074 7.47 1.54 13.27
12/24/2021 6:00:00 PM 1.71 35.078 0.074 7.43 1.48 13.24
12/24/2021 6:15:00 PM 1.69 35.042 0.074 7.42 1.44 13.21
12/24/2021 6:30:00 PM 1.68 35.024 0.074 7.4 1.48 13.18
12/24/2021 6:45:00 PM 1.69 35.042 0.074 7.38 1.43 13.16
12/24/2021 7:00:00 PM 1.68 35.024 0.074 7.37 1.47 13.16
12/24/2021 7:15:00 PM 1.68 35.024 0.074 7.36 1.46 13.16
12/24/2021 7:30:00 PM 1.67 35.006 0.074 7.35 1.46 13.14
12/24/2021 7:45:00 PM 1.67 35.006 0.074 7.34 1.48 13.14
12/24/2021 8:00:00 PM 1.65 34.97 0.075 7.35 1.42 13.16
12/24/2021 8:15:00 PM 1.65 34.97 0.075 7.34 1.47 13.15
12/24/2021 8:30:00 PM 1.66 34.988 0.075 7.33 1.47 13.13
12/24/2021 8:45:00 PM 1.67 35.006 0.075 7.32 1.45 13.14
12/24/2021 9:00:00 PM 1.67 35.006 0.075 7.33 1.48 13.13
12/24/2021 9:15:00 PM 1.68 35.024 0.075 7.33 1.47 13.14
12/24/2021 9:30:00 PM 1.68 35.024 0.075 7.32 1.47 13.14
12/24/2021 9:45:00 PM 1.7 35.06 0.075 7.32 1.46 13.12
12/24/2021 10:00:00 PM 1.71 35.078 0.075 7.32 1.47 13.1
12/24/2021 10:15:00 PM 1.72 35.096 0.075 7.33 1.48 13.11
12/24/2021 10:30:00 PM 1.73 35.114 0.075 7.33 1.49 13.1
12/24/2021 10:45:00 PM 1.75 35.15 0.075 7.32 1.46 13.08
12/24/2021 11:00:00 PM 1.75 35.15 0.075 7.32 1.45 13.1
12/24/2021 11:15:00 PM 1.76 35.168 0.076 7.32 1.49 13.09
12/24/2021 11:30:00 PM 1.75 35.15 0.076 7.33 1.46 13.09
12/24/2021 11:45:00 PM 1.75 35.15 0.076 7.31 1.46 13.08
12/25/2021 12:00:00 AM 1.76 35.168 0.076 7.33 1.46 13.07
12/25/2021 12:15:00 AM 1.77 35.186 0.076 7.32 1.49 13.07
12/25/2021 12:30:00 AM 1.78 35.204 0.076 7.32 1.47 13.06
12/25/2021 12:45:00 AM 1.8 35.24 0.076 7.32 1.48 13.07
12/25/2021 1:00:00 AM 1.8 35.24 0.076 7.32 1.45 13.07
12/25/2021 1:15:00 AM 1.81 35.258 0.076 7.32 1.42 13.05
12/25/2021 1:30:00 AM 1.84 35.312 0.076 7.31 1.43 13.03
12/25/2021 1:45:00 AM 1.83 35.294 0.076 7.33 1.45 13.03
12/25/2021 2:00:00 AM 1.87 35.366 0.076 7.3 1.46 13
12/25/2021 2:15:00 AM 1.88 35.384 0.076 7.31 1.43 13
12/25/2021 2:30:00 AM 1.88 35.384 0.076 7.32 1.45 13
12/25/2021 2:45:00 AM 1.89 35.402 0.076 7.31 1.48 12.99
12/25/2021 3:00:00 AM 1.89 35.402 0.076 7.32 1.5 13
12/25/2021 3:15:00 AM 1.92 35.456 0.076 7.32 1.43 12.98
12/25/2021 3:30:00 AM 1.94 35.492 0.076 7.31 1.42 12.96
12/25/2021 3:45:00 AM 1.93 35.474 0.076 7.32 1.47 12.97
12/25/2021 4:00:00 AM 1.94 35.492 0.076 7.32 1.45 12.96
12/25/2021 4:15:00 AM 1.95 35.51 0.076 7.32 1.4 12.94
12/25/2021 4:30:00 AM 1.96 35.528 0.076 7.32 1.51 12.95
12/25/2021 4:45:00 AM 1.97 35.546 0.076 7.32 1.46 12.94
12/25/2021 5:00:00 AM 1.98 35.564 0.076 7.31 1.46 12.92
12/25/2021 5:15:00 AM 1.99 35.582 0.076 7.32 1.48 12.92
12/25/2021 5:30:00 AM 2.01 35.618 0.076 7.31 1.5 12.9
12/25/2021 5:45:00 AM 2.01 35.618 0.076 7.31 1.54 12.9
12/25/2021 6:00:00 AM 2.01 35.618 0.076 7.31 1.46 12.9
12/25/2021 6:15:00 AM 2.03 35.654 0.076 7.31 1.44 12.89
12/25/2021 6:30:00 AM 2.05 35.69 0.076 7.3 1.5 12.89
12/25/2021 6:45:00 AM 2.06 35.708 0.076 7.31 1.49 12.88
12/25/2021 7:00:00 AM 2.08 35.744 0.076 7.3 1.49 12.86
12/25/2021 7:15:00 AM 2.08 35.744 0.075 7.3 1.56 12.86
12/25/2021 7:30:00 AM 2.1 35.78 0.075 7.31 1.54 12.85
12/25/2021 7:45:00 AM 2.1 35.78 0.076 7.3 1.59 12.87
12/25/2021 8:00:00 AM 2.12 35.816 0.076 7.31 1.6 12.88
12/25/2021 8:15:00 AM 2.13 35.834 0.076 7.31 1.67 12.9
12/25/2021 8:30:00 AM 2.15 35.87 0.075 7.34 1.65 12.96
12/25/2021 8:45:00 AM 2.17 35.906 0.075 7.34 1.66 12.98
12/25/2021 9:00:00 AM 2.19 35.942 0.075 7.37 1.71 13.06
12/25/2021 9:15:00 AM 2.21 35.978 0.075 7.4 1.72 13.15
12/25/2021 9:30:00 AM 2.23 36.014 0.075 7.4 1.72 13.15
12/25/2021 9:45:00 AM 2.26 36.068 0.075 7.42 1.77 13.19
12/25/2021 10:00:00 AM 2.28 36.104 0.075 7.45 1.83 13.26
12/25/2021 10:15:00 AM 2.3 36.14 0.074 7.46 1.92 13.3
12/25/2021 10:30:00 AM 2.32 36.176 0.074 7.48 2.11 13.3
12/25/2021 10:45:00 AM 2.33 36.194 0.074 7.48 2.15 13.26
12/25/2021 11:00:00 AM 2.37 36.266 0.074 7.49 2.25 13.3
12/25/2021 11:15:00 AM 2.39 36.302 0.074 7.52 2.41 13.37
12/25/2021 11:30:00 AM 2.41 36.338 0.074 7.54 2.51 13.42
12/25/2021 11:45:00 AM 2.44 36.392 0.074 7.57 2.51 13.49
12/25/2021 12:00:00 PM 2.48 36.464 0.076 7.64 2.61 13.59
12/25/2021 12:15:00 PM 2.5 36.5 0.077 7.67 2.62 13.58
12/25/2021 12:30:00 PM 2.52 36.536 0.078 7.73 2.65 13.6
12/25/2021 12:45:00 PM 2.55 36.59 0.078 7.75 2.64 13.59
12/25/2021 1:00:00 PM 2.58 36.644 0.077 7.74 2.85 13.55
12/25/2021 1:15:00 PM 2.6 36.68 0.077 7.72 3.14 13.49
12/25/2021 1:30:00 PM 2.62 36.716 0.076 7.73 3.35 13.47
12/25/2021 1:45:00 PM 2.64 36.752 0.075 7.72 3.67 13.44
12/25/2021 2:00:00 PM 2.65 36.77 0.075 7.71 4.09 13.42
12/25/2021 2:15:00 PM 2.68 36.824 0.075 7.73 4.35 13.44
12/25/2021 2:30:00 PM 2.7 36.86 0.075 7.75 4.36 13.44
12/25/2021 2:45:00 PM 2.72 36.896 0.076 7.71 4.35 13.38
12/25/2021 3:00:00 PM 2.73 36.914 0.076 7.64 4.41 13.26
12/25/2021 3:15:00 PM 2.74 36.932 0.077 7.6 4.33 13.19
12/25/2021 3:30:00 PM 2.75 36.95 0.077 7.58 4.48 13.15
12/25/2021 3:45:00 PM 2.76 36.968 0.077 7.55 4.33 13.08
12/25/2021 4:00:00 PM 2.77 36.986 0.077 7.52 4.37 13.03
12/25/2021 4:15:00 PM 2.78 37.004 0.077 7.49 4.38 12.97
12/25/2021 4:30:00 PM 2.79 37.022 0.077 7.46 4.51 12.89
12/25/2021 4:45:00 PM 2.8 37.04 0.077 7.43 4.55 12.81
12/25/2021 5:00:00 PM 2.81 37.058 0.077 7.4 4.88 12.76
12/25/2021 5:15:00 PM 2.82 37.076 0.077 7.38 4.64 12.73
12/25/2021 5:30:00 PM 2.83 37.094 0.076 7.36 4.63 12.69
12/25/2021 5:45:00 PM 2.83 37.094 0.076 7.34 4.58 12.67
12/25/2021 6:00:00 PM 2.84 37.112 0.076 7.33 4.44 12.65
12/25/2021 6:15:00 PM 2.85 37.13 0.076 7.32 4.51 12.65
12/25/2021 6:30:00 PM 2.86 37.148 0.076 7.32 4.46 12.64
12/25/2021 6:45:00 PM 2.86 37.148 0.075 7.31 4.25 12.64
12/25/2021 7:00:00 PM 2.87 37.166 0.075 7.3 4.24 12.64
12/25/2021 7:15:00 PM 2.87 37.166 0.076 7.3 4.27 12.62
12/25/2021 7:30:00 PM 2.88 37.184 0.076 7.3 4.32 12.62
12/25/2021 7:45:00 PM 2.88 37.184 0.076 7.29 4.19 12.64
12/25/2021 8:00:00 PM 2.89 37.202 0.076 7.29 4.27 12.62
12/25/2021 8:15:00 PM 2.9 37.22 0.077 7.29 4.13 12.62
12/25/2021 8:30:00 PM 2.9 37.22 0.077 7.29 4.1 12.62
12/25/2021 8:45:00 PM 2.91 37.238 0.077 7.28 4.03 12.63
12/25/2021 9:00:00 PM 2.92 37.256 0.078 7.28 4.01 12.63
12/25/2021 9:15:00 PM 2.92 37.256 0.078 7.28 4 12.62
12/25/2021 9:30:00 PM 2.93 37.274 0.078 7.28 4.16 12.62
12/25/2021 9:45:00 PM 2.93 37.274 0.078 7.28 4.03 12.63
12/25/2021 10:00:00 PM 2.95 37.31 0.078 7.28 4.08 12.62
12/25/2021 10:15:00 PM 2.96 37.328 0.078 7.29 4.11 12.63
12/25/2021 10:30:00 PM 2.98 37.364 0.078 7.29 4.07 12.62
12/25/2021 10:45:00 PM 2.99 37.382 0.078 7.29 4.14 12.62
12/25/2021 11:00:00 PM 3.01 37.418 0.078 7.29 4.2 12.62
12/25/2021 11:15:00 PM 3.03 37.454 0.078 7.29 4.13 12.63
12/25/2021 11:30:00 PM 3.06 37.508 0.078 7.29 4.21 12.62
12/25/2021 11:45:00 PM 3.08 37.544 0.077 7.29 4.19 12.61
12/26/2021 12:00:00 AM 3.1 37.58 0.077 7.29 4.33 12.6
12/26/2021 12:15:00 AM 3.12 37.616 0.077 7.29 4.43 12.61
12/26/2021 12:30:00 AM 3.13 37.634 0.076 7.29 4.74 12.6
12/26/2021 12:45:00 AM 3.14 37.652 0.076 7.29 4.8 12.6
12/26/2021 1:00:00 AM 3.15 37.67 0.076 7.29 4.78 12.6
12/26/2021 1:15:00 AM 3.16 37.688 0.076 7.29 4.8 12.6
12/26/2021 1:30:00 AM 3.17 37.706 0.075 7.29 4.78 12.59
12/26/2021 1:45:00 AM 3.19 37.742 0.075 7.29 4.65 12.59
12/26/2021 2:00:00 AM 3.2 37.76 0.075 7.29 4.64 12.59
12/26/2021 2:15:00 AM 3.21 37.778 0.075 7.29 4.47 12.59
12/26/2021 2:30:00 AM 3.21 37.778 0.075 7.29 4.38 12.59
12/26/2021 2:45:00 AM 3.21 37.778 0.075 7.29 4.43 12.59
12/26/2021 3:00:00 AM 3.21 37.778 0.075 7.29 4.53 12.59
12/26/2021 3:15:00 AM 3.21 37.778 0.075 7.29 4.44 12.59
12/26/2021 3:30:00 AM 3.22 37.796 0.075 7.29 4.32 12.59
12/26/2021 3:45:00 AM 3.22 37.796 0.075 7.29 4.01 12.58
12/26/2021 4:00:00 AM 3.22 37.796 0.075 7.29 4.07 12.59
12/26/2021 4:15:00 AM 3.22 37.796 0.075 7.29 3.99 12.59
12/26/2021 4:30:00 AM 3.21 37.778 0.075 7.29 441.79 12.59
12/26/2021 4:45:00 AM 3.21 37.778 0.075 7.27 3.77 12.6
12/26/2021 5:00:00 AM 3.2 37.76 0.075 7.29 3.77 12.6
12/26/2021 5:15:00 AM 3.2 37.76 0.075 7.28 3.78 12.61
12/26/2021 5:30:00 AM 3.19 37.742 0.075 7.29 3.67 12.61
12/26/2021 5:45:00 AM 3.18 37.724 0.075 7.28 3.56 12.62
12/26/2021 6:00:00 AM 3.17 37.706 0.075 7.28 3.63 12.63
12/26/2021 6:15:00 AM 3.17 37.706 0.075 7.29 3.5 12.63
12/26/2021 6:30:00 AM 3.15 37.67 0.075 7.28 3.38 12.64
12/26/2021 6:45:00 AM 3.14 37.652 0.075 7.28 3.42 12.65
12/26/2021 7:00:00 AM 3.11 37.598 0.075 7.28 3.48 12.66
12/26/2021 7:15:00 AM 3.07 37.526 0.075 7.28 3.3 12.67
12/26/2021 7:30:00 AM 3.04 37.472 0.075 7.28 3.3 12.68
12/26/2021 7:45:00 AM 3.01 37.418 0.075 7.29 3.27 12.73
12/26/2021 8:00:00 AM 2.98 37.364 0.075 7.3 3.1 12.81
12/26/2021 8:15:00 AM 2.95 37.31 0.075 7.33 2.99 12.9
12/26/2021 8:30:00 AM 2.93 37.274 0.075 7.36 3 13
12/26/2021 8:45:00 AM 2.93 37.274 0.074 7.41 2.95 13.15
12/26/2021 9:00:00 AM 2.93 37.274 0.074 7.46 2.91 13.27
12/26/2021 9:15:00 AM 2.93 37.274 0.074 7.51 2.73 13.39
12/26/2021 9:30:00 AM 2.95 37.31 0.074 7.59 2.64 13.53
12/26/2021 9:45:00 AM 2.98 37.364 0.074 7.67 2.6 13.66
12/26/2021 10:00:00 AM 3.01 37.418 0.074 7.77 2.65 13.74
12/26/2021 10:15:00 AM 3.04 37.472 0.073 7.86 2.57 13.82
12/26/2021 10:30:00 AM 3.09 37.562 0.073 7.95 2.56 13.86
12/26/2021 10:45:00 AM 3.12 37.616 0.073 8.04 2.5 13.88
12/26/2021 11:00:00 AM 3.15 37.67 0.073 8.11 2.49 13.89
12/26/2021 11:15:00 AM 3.17 37.706 0.073 8.15 2.42 13.88
12/26/2021 11:30:00 AM 3.19 37.742 0.073 8.2 2.42 13.88
12/26/2021 11:45:00 AM 3.23 37.814 0.073 8.29 2.4 13.9
12/26/2021 12:00:00 PM 3.25 37.85 0.073 8.27 2.48 13.85
12/26/2021 12:15:00 PM 3.26 37.868 0.072 8.18 2.45 13.75
12/26/2021 12:30:00 PM 3.27 37.886 0.072 8.11 2.51 13.68
12/26/2021 12:45:00 PM 3.3 37.94 0.072 8.08 2.45 13.64
12/26/2021 1:00:00 PM 3.3 37.94 0.072 7.98 2.48 13.56
12/26/2021 1:15:00 PM 3.3 37.94 0.072 7.9 2.37 13.49
12/26/2021 1:30:00 PM 3.31 37.958 0.072 7.9 2.38 13.5
12/26/2021 1:45:00 PM 3.31 37.958 0.072 7.92 2.4 13.52
12/26/2021 2:00:00 PM 3.31 37.958 0.072 7.89 2.35 13.5
12/26/2021 2:15:00 PM 3.31 37.958 0.072 7.88 2.46 13.5
12/26/2021 2:30:00 PM 3.31 37.958 0.072 7.86 2.41 13.47
12/26/2021 2:45:00 PM 3.31 37.958 0.072 7.81 2.34 13.43
12/26/2021 3:00:00 PM 3.3 37.94 0.072 7.77 2.32 13.37
12/26/2021 3:15:00 PM 3.29 37.922 0.072 7.74 2.25 13.36
12/26/2021 3:30:00 PM 3.28 37.904 0.072 7.7 2.18 13.31
12/26/2021 3:45:00 PM 3.28 37.904 0.072 7.65 2.2 13.23
12/26/2021 4:00:00 PM 3.26 37.868 0.072 7.59 2.32 13.15
12/26/2021 4:15:00 PM 3.25 37.85 0.073 7.54 2.32 13.07
12/26/2021 4:30:00 PM 3.23 37.814 0.073 7.49 2.34 12.98
12/26/2021 4:45:00 PM 3.21 37.778 0.073 7.45 2.25 12.9
12/26/2021 5:00:00 PM 3.18 37.724 0.073 7.41 2.32 12.84
12/26/2021 5:15:00 PM 3.16 37.688 0.073 7.39 2.27 12.8
12/26/2021 5:30:00 PM 3.13 37.634 0.073 7.36 2.28 12.76
12/26/2021 5:45:00 PM 3.11 37.598 0.073 7.35 2.31 12.75
12/26/2021 6:00:00 PM 3.09 37.562 0.073 7.33 2.21 12.74
12/26/2021 6:15:00 PM 3.06 37.508 0.073 7.33 2.23 12.74
12/26/2021 6:30:00 PM 3.04 37.472 0.073 7.32 2.28 12.75
12/26/2021 6:45:00 PM 3.02 37.436 0.073 7.31 2.28 12.74
12/26/2021 7:00:00 PM 3 37.4 0.074 7.3 2.27 12.74
12/26/2021 7:15:00 PM 2.99 37.382 0.074 7.3 2.32 12.75
12/26/2021 7:30:00 PM 2.98 37.364 0.074 7.3 2.26 12.76
12/26/2021 7:45:00 PM 2.96 37.328 0.074 7.29 2.2 12.77
12/26/2021 8:00:00 PM 2.94 37.292 0.074 7.29 2.15 12.78
12/26/2021 8:15:00 PM 2.92 37.256 0.074 7.29 2.11 12.78
12/26/2021 8:30:00 PM 2.9 37.22 0.074 7.29 2.12 12.79
12/26/2021 8:45:00 PM 2.88 37.184 0.074 7.29 2.19 12.79
12/26/2021 9:00:00 PM 2.86 37.148 0.074 7.29 2.16 12.8
12/26/2021 9:15:00 PM 2.84 37.112 0.074 7.29 2.21 12.82
12/26/2021 9:30:00 PM 2.82 37.076 0.074 7.28 2.16 12.82
12/26/2021 9:45:00 PM 2.79 37.022 0.074 7.28 2.16 12.84
12/26/2021 10:00:00 PM 2.78 37.004 0.074 7.28 2.17 12.84
12/26/2021 10:15:00 PM 2.76 36.968 0.074 7.29 2.14 12.85
12/26/2021 10:30:00 PM 2.74 36.932 0.074 7.29 2.14 12.87
12/26/2021 10:45:00 PM 2.72 36.896 0.074 7.29 2.13 12.87
12/26/2021 11:00:00 PM 2.7 36.86 0.074 7.28 2.18 12.88
12/26/2021 11:15:00 PM 2.67 36.806 0.074 7.28 2.11 12.89
12/26/2021 11:30:00 PM 2.66 36.788 0.074 7.28 2.1 12.89
12/26/2021 11:45:00 PM 2.64 36.752 0.074 7.28 2.15 12.9
12/27/2021 12:00:00 AM 2.61 36.698 0.074 7.28 2.05 12.91
12/27/2021 12:15:00 AM 2.59 36.662 0.074 7.28 2.07 12.91
12/27/2021 12:30:00 AM 2.56 36.608 0.074 7.28 2.08 12.93
12/27/2021 12:45:00 AM 2.52 36.536 0.074 7.28 2.12 12.94
12/27/2021 1:00:00 AM 2.48 36.464 0.074 7.28 2.12 12.96
12/27/2021 1:15:00 AM 2.43 36.374 0.074 7.28 2.11 12.97
12/27/2021 1:30:00 AM 2.38 36.284 0.074 7.28 2.06 12.99
12/27/2021 1:45:00 AM 2.34 36.212 0.074 7.28 2.11 13.01
12/27/2021 2:00:00 AM 2.3 36.14 0.074 7.27 2.07 13.02
12/27/2021 2:15:00 AM 2.27 36.086 0.074 7.28 2.1 13.03
12/27/2021 2:30:00 AM 2.24 36.032 0.074 7.28 2 13.04
12/27/2021 2:45:00 AM 2.22 35.996 0.074 7.27 2.01 13.04
12/27/2021 3:00:00 AM 2.19 35.942 0.074 7.27 2.01 13.05
12/27/2021 3:15:00 AM 2.15 35.87 0.074 7.27 1.94 13.07
12/27/2021 3:30:00 AM 2.11 35.798 0.074 7.27 1.93 13.08
12/27/2021 3:45:00 AM 2.07 35.726 0.074 7.27 1.96 13.09
12/27/2021 4:00:00 AM 2.04 35.672 0.073 7.27 1.85 13.1
12/27/2021 4:15:00 AM 2.01 35.618 0.073 7.27 1.91 13.12
12/27/2021 4:30:00 AM 1.98 35.564 0.073 7.27 1.87 13.13
12/27/2021 4:45:00 AM 1.95 35.51 0.073 7.27 1.89 13.14
12/27/2021 5:00:00 AM 1.93 35.474 0.073 7.27 1.84 13.15
12/27/2021 5:15:00 AM 1.92 35.456 0.073 7.27 1.86 13.15
12/27/2021 5:30:00 AM 1.9 35.42 0.073 7.27 1.83 13.17
12/27/2021 5:45:00 AM 1.88 35.384 0.073 7.26 1.83 13.17
12/27/2021 6:00:00 AM 1.87 35.366 0.073 7.27 1.82 13.17
12/27/2021 6:15:00 AM 1.86 35.348 0.073 7.26 1.76 13.18
12/27/2021 6:30:00 AM 1.84 35.312 0.073 7.26 1.83 13.18
12/27/2021 6:45:00 AM 1.82 35.276 0.073 7.26 1.84 13.2
12/27/2021 7:00:00 AM 1.8 35.24 0.073 7.26 1.77 13.21
12/27/2021 7:15:00 AM 1.78 35.204 0.073 7.26 1.8 13.2
12/27/2021 7:30:00 AM 1.77 35.186 0.073 7.26 1.87 13.22
12/27/2021 7:45:00 AM 1.76 35.168 0.073 7.26 1.8 13.23
12/27/2021 8:00:00 AM 1.75 35.15 0.073 7.26 1.8 13.26
12/27/2021 8:15:00 AM 1.74 35.132 0.073 7.27 1.83 13.3
12/27/2021 8:30:00 AM 1.74 35.132 0.073 7.28 1.76 13.35
12/27/2021 8:45:00 AM 1.73 35.114 0.073 7.3 1.83 13.42
12/27/2021 9:00:00 AM 1.73 35.114 0.073 7.32 1.8 13.47
12/27/2021 9:15:00 AM 1.73 35.114 0.073 7.33 1.79 13.53
12/27/2021 9:30:00 AM 1.73 35.114 0.073 7.35 1.74 13.57
12/27/2021 9:45:00 AM 1.73 35.114 0.073 7.36 1.81 13.6
12/27/2021 10:00:00 AM 1.74 35.132 0.073 7.36 1.69 13.6
12/27/2021 10:15:00 AM 1.75 35.15 0.073 7.39 1.74 13.67
12/27/2021 10:30:00 AM 1.78 35.204 0.072 7.46 1.75 13.87
12/27/2021 10:45:00 AM 1.79 35.222 0.072 7.51 1.72 13.93
12/27/2021 11:00:00 AM 1.81 35.258 0.072 7.56 1.75 14.03
12/27/2021 11:15:00 AM 1.83 35.294 0.072 7.6 1.72 14.09
12/27/2021 11:30:00 AM 1.86 35.348 0.072 7.7 1.67 14.18
12/27/2021 11:45:00 AM 1.88 35.384 0.072 7.73 1.72 14.17
12/27/2021 12:00:00 PM 1.9 35.42 0.072 7.75 1.72 14.19
12/27/2021 12:15:00 PM 1.93 35.474 0.072 7.8 1.64 14.2
12/27/2021 12:30:00 PM 1.96 35.528 0.072 7.86 1.67 14.22
12/27/2021 12:45:00 PM 1.98 35.564 0.072 7.85 1.66 14.17
12/27/2021 1:00:00 PM 1.99 35.582 0.072 7.79 1.62 14.09
12/27/2021 1:15:00 PM 2 35.6 0.072 7.86 1.58 14.13
12/27/2021 1:30:00 PM 2.03 35.654 0.071 7.92 1.61 14.17
12/27/2021 1:45:00 PM 2.07 35.726 0.071 8.02 1.59 14.22
12/27/2021 2:00:00 PM 2.08 35.744 0.071 8.03 1.56 14.2
12/27/2021 2:15:00 PM 2.1 35.78 0.071 8 1.62 14.15
12/27/2021 2:30:00 PM 2.12 35.816 0.071 7.96 1.58 14.09
12/27/2021 2:45:00 PM 2.14 35.852 0.071 7.87 1.62 13.99
12/27/2021 3:00:00 PM 2.14 35.852 0.071 7.78 1.62 13.9
12/27/2021 3:15:00 PM 2.14 35.852 0.071 7.7 1.6 13.79
12/27/2021 3:30:00 PM 2.14 35.852 0.071 7.62 1.58 13.67
12/27/2021 3:45:00 PM 2.13 35.834 0.071 7.56 1.63 13.58
12/27/2021 4:00:00 PM 2.13 35.834 0.072 7.54 1.63 13.52
12/27/2021 4:15:00 PM 2.13 35.834 0.072 7.48 1.59 13.42
12/27/2021 4:30:00 PM 2.13 35.834 0.072 7.44 1.59 13.33
12/27/2021 4:45:00 PM 2.12 35.816 0.072 7.4 1.58 13.24
12/27/2021 5:00:00 PM 2.12 35.816 0.072 7.36 1.6 13.18
12/27/2021 5:15:00 PM 2.11 35.798 0.072 7.35 1.65 13.13
12/27/2021 5:30:00 PM 2.1 35.78 0.072 7.33 1.64 13.1
12/27/2021 5:45:00 PM 2.1 35.78 0.072 7.31 1.65 13.06
12/27/2021 6:00:00 PM 2.05 35.69 0.072 7.29 1.7 13.04
12/27/2021 6:15:00 PM 2.05 35.69 0.072 7.3 1.71 13.03
12/27/2021 6:30:00 PM 2.06 35.708 0.072 7.29 1.69 13.03
12/27/2021 6:45:00 PM 2.04 35.672 0.072 7.27 1.71 13.02
12/27/2021 7:00:00 PM 2.04 35.672 0.072 7.27 1.64 13.02
12/27/2021 7:15:00 PM 2.02 35.636 0.072 7.27 1.64 13.02
12/27/2021 7:30:00 PM 2.02 35.636 0.072 7.27 1.63 13.02
12/27/2021 7:45:00 PM 2.02 35.636 0.072 7.27 1.62 13.02
12/27/2021 8:00:00 PM 2.02 35.636 0.072 7.26 1.66 13.01
12/27/2021 8:15:00 PM 1.87 35.366 0.072 7.26 1.68 13.02
12/27/2021 8:30:00 PM 1.91 35.438 0.072 7.26 1.7 13.03
12/27/2021 8:45:00 PM 1.93 35.474 0.072 7.26 1.66 13.03
12/27/2021 9:00:00 PM 1.94 35.492 0.072 7.25 1.63 13.02
12/27/2021 9:15:00 PM 1.94 35.492 0.072 7.26 1.65 13.03
12/27/2021 9:30:00 PM 1.94 35.492 0.072 7.26 1.63 13.03
12/27/2021 9:45:00 PM 1.93 35.474 0.072 7.26 1.68 13.03
12/27/2021 10:00:00 PM 1.92 35.456 0.072 7.25 1.71 13.03
12/27/2021 10:15:00 PM 1.91 35.438 0.072 7.25 1.69 13.04
12/27/2021 10:30:00 PM 1.91 35.438 0.072 7.26 1.7 13.05
12/27/2021 10:45:00 PM 1.9 35.42 0.072 7.26 1.66 13.05
12/27/2021 11:00:00 PM 1.91 35.438 0.072 7.25 1.62 13.04
12/27/2021 11:15:00 PM 1.91 35.438 0.073 7.26 1.63 13.04
12/27/2021 11:30:00 PM 1.91 35.438 0.073 7.25 1.66 13.04
12/27/2021 11:45:00 PM 1.92 35.456 0.073 7.26 1.69 13.03
12/28/2021 12:00:00 AM 1.92 35.456 0.073 7.25 1.68 13.03
12/28/2021 12:15:00 AM 1.92 35.456 0.073 7.26 1.64 13.04
12/28/2021 12:30:00 AM 1.92 35.456 0.073 7.25 1.63 13.03
12/28/2021 12:45:00 AM 1.92 35.456 0.073 7.25 1.65 13.04
12/28/2021 1:00:00 AM 1.92 35.456 0.073 7.25 1.65 13.04
12/28/2021 1:15:00 AM 1.92 35.456 0.073 7.25 1.63 13.04
12/28/2021 1:30:00 AM 1.93 35.474 0.073 7.25 1.63 13.03
12/28/2021 1:45:00 AM 1.93 35.474 0.073 7.25 1.64 13.03
12/28/2021 2:00:00 AM 1.95 35.51 0.073 7.25 1.65 13.02
12/28/2021 2:15:00 AM 1.96 35.528 0.073 7.25 1.69 13.01
12/28/2021 2:30:00 AM 1.98 35.564 0.073 7.25 1.65 13.01
12/28/2021 2:45:00 AM 2 35.6 0.073 7.24 1.61 13
12/28/2021 3:00:00 AM 2.01 35.618 0.073 7.25 1.63 13
12/28/2021 3:15:00 AM 2.03 35.654 0.073 7.25 1.56 12.99
12/28/2021 3:30:00 AM 2.05 35.69 0.073 7.25 1.66 12.98
12/28/2021 3:45:00 AM 2.07 35.726 0.073 7.25 1.66 12.98
12/28/2021 4:00:00 AM 2.09 35.762 0.073 7.24 1.6 12.97
12/28/2021 4:15:00 AM 2.1 35.78 0.073 7.24 1.57 12.97
12/28/2021 4:30:00 AM 2.12 35.816 0.073 7.24 1.6 12.96
12/28/2021 4:45:00 AM 2.13 35.834 0.073 7.25 1.6 12.95
12/28/2021 5:00:00 AM 2.15 35.87 0.073 7.25 1.61 12.95
12/28/2021 5:15:00 AM 2.17 35.906 0.073 7.25 1.57 12.94
12/28/2021 5:30:00 AM 2.19 35.942 0.073 7.23 1.63 12.93
12/28/2021 5:45:00 AM 2.21 35.978 0.073 7.24 1.6 12.92
12/28/2021 6:00:00 AM 2.22 35.996 0.073 7.25 1.53 12.91
12/28/2021 6:15:00 AM 2.21 35.978 0.073 7.24 1.63 12.91
12/28/2021 6:30:00 AM 2.21 35.978 0.073 7.24 1.59 12.91
12/28/2021 6:45:00 AM 2.21 35.978 0.073 7.23 1.6 12.91
12/28/2021 7:00:00 AM 2.21 35.978 0.073 7.24 1.62 12.91
12/28/2021 7:15:00 AM 2.2 35.96 0.073 7.24 1.6 12.93
12/28/2021 7:30:00 AM 2.18 35.924 0.073 7.24 1.55 12.95
12/28/2021 7:45:00 AM 2.18 35.924 0.073 7.26 1.59 12.99
12/28/2021 8:00:00 AM 2.17 35.906 0.073 7.27 1.57 13.07
12/28/2021 8:15:00 AM 2.16 35.888 0.073 7.3 1.59 13.17
12/28/2021 8:30:00 AM 2.16 35.888 0.073 7.34 1.6 13.3
12/28/2021 8:45:00 AM 2.18 35.924 0.072 7.38 1.57 13.43
12/28/2021 9:00:00 AM 2.19 35.942 0.072 7.44 1.58 13.58
12/28/2021 9:15:00 AM 2.25 36.05 0.072 7.51 1.58 13.74
12/28/2021 9:30:00 AM 2.3 36.14 0.072 7.59 1.56 13.87
12/28/2021 9:45:00 AM 2.35 36.23 0.072 7.69 1.58 13.97
12/28/2021 10:00:00 AM 2.44 36.392 0.071 7.79 1.53 14.05
12/28/2021 10:15:00 AM 2.55 36.59 0.071 7.94 1.58 14.13
12/28/2021 10:30:00 AM 2.68 36.824 0.071 8.12 1.52 14.19
12/28/2021 10:45:00 AM 2.81 37.058 0.071 8.27 1.51 14.19
12/28/2021 11:00:00 AM 2.94 37.292 0.071 8.38 1.56 14.19
12/28/2021 11:15:00 AM 3.06 37.508 0.071 8.48 1.6 14.17
12/28/2021 11:30:00 AM 3.19 37.742 0.07 8.53 1.59 14.11
12/28/2021 11:45:00 AM 3.31 37.958 0.07 8.57 1.68 14.04
12/28/2021 12:00:00 PM 3.39 38.102 0.07 8.56 1.74 13.97
12/28/2021 12:15:00 PM 3.44 38.192 0.07 8.56 1.85 13.91
12/28/2021 12:30:00 PM 3.45 38.21 0.07 8.55 1.9 13.86
12/28/2021 12:45:00 PM 3.49 38.282 0.07 8.6 1.8 13.85
12/28/2021 1:00:00 PM 3.54 38.372 0.07 8.63 1.74 13.83
12/28/2021 1:15:00 PM 3.58 38.444 0.07 8.62 1.71 13.81
12/28/2021 1:30:00 PM 3.59 38.462 0.07 8.66 1.85 13.79
12/28/2021 1:45:00 PM 3.6 38.48 0.07 8.63 1.87 13.74
12/28/2021 2:00:00 PM 3.64 38.552 0.07 8.6 1.97 13.67
12/28/2021 2:15:00 PM 3.66 38.588 0.07 8.53 2.02 13.57
12/28/2021 2:30:00 PM 3.68 38.624 0.07 8.39 1.99 13.45
12/28/2021 2:45:00 PM 3.7 38.66 0.07 8.21 1.94 13.35
12/28/2021 3:00:00 PM 3.72 38.696 0.07 8.16 1.94 13.33
12/28/2021 3:15:00 PM 3.74 38.732 0.07 8.09 1.89 13.3
12/28/2021 3:30:00 PM 3.75 38.75 0.07 7.94 1.82 13.2
12/28/2021 3:45:00 PM 3.75 38.75 0.07 7.77 1.86 13.06
12/28/2021 4:00:00 PM 3.74 38.732 0.07 7.66 1.85 12.93
12/28/2021 4:15:00 PM 3.73 38.714 0.071 7.59 1.73 12.83
12/28/2021 4:30:00 PM 3.71 38.678 0.071 7.52 1.75 12.72
12/28/2021 4:45:00 PM 3.69 38.642 0.071 7.46 1.69 12.64
12/28/2021 5:00:00 PM 3.67 38.606 0.071 7.42 1.72 12.57
12/28/2021 5:15:00 PM 3.65 38.57 0.071 7.39 1.67 12.53
12/28/2021 5:30:00 PM 3.64 38.552 0.071 7.36 1.72 12.49
12/28/2021 5:45:00 PM 3.62 38.516 0.071 7.35 1.73 12.47
12/28/2021 6:00:00 PM 3.61 38.498 0.072 7.33 1.74 12.46
12/28/2021 6:15:00 PM 3.6 38.48 0.072 7.32 1.78 12.45
12/28/2021 6:30:00 PM 3.59 38.462 0.072 7.31 1.78 12.45
12/28/2021 6:45:00 PM 3.57 38.426 0.072 7.3 1.78 12.44
12/28/2021 7:00:00 PM 3.5 38.3 0.072 7.3 1.78 12.45
12/28/2021 7:15:00 PM 3.42 38.156 0.072 7.3 1.86 12.46
12/28/2021 7:30:00 PM 3.28 37.904 0.072 7.29 1.85 12.47
12/28/2021 7:45:00 PM 3.16 37.688 0.072 7.28 1.82 12.5
12/28/2021 8:00:00 PM 3.07 37.526 0.072 7.28 1.9 12.53
12/28/2021 8:15:00 PM 3.01 37.418 0.072 7.27 1.86 12.56
12/28/2021 8:30:00 PM 2.95 37.31 0.072 7.28 1.82 12.6
12/28/2021 8:45:00 PM 2.89 37.202 0.072 7.27 1.86 12.62
12/28/2021 9:00:00 PM 2.85 37.13 0.072 7.27 1.8 12.65
12/28/2021 9:15:00 PM 2.77 36.986 0.072 7.27 1.83 12.66
12/28/2021 9:30:00 PM 2.72 36.896 0.072 7.27 1.82 12.68
12/28/2021 9:45:00 PM 2.72 36.896 0.072 7.27 1.84 12.69
12/28/2021 10:00:00 PM 2.73 36.914 0.072 7.27 1.86 12.71
12/28/2021 10:15:00 PM 2.71 36.878 0.072 7.27 1.83 12.72
12/28/2021 10:30:00 PM 2.7 36.86 0.072 7.27 1.84 12.73
12/28/2021 10:45:00 PM 2.69 36.842 0.072 7.27 1.82 12.73
12/28/2021 11:00:00 PM 2.69 36.842 0.072 7.27 1.83 12.75
12/28/2021 11:15:00 PM 2.68 36.824 0.072 7.27 1.9 12.75
12/28/2021 11:30:00 PM 2.67 36.806 0.072 7.27 1.88 12.76
12/28/2021 11:45:00 PM 2.67 36.806 0.072 7.26 1.81 12.76
12/29/2021 12:00:00 AM 2.67 36.806 0.072 7.27 1.85 12.75
12/29/2021 12:15:00 AM 2.66 36.788 0.072 7.26 1.86 12.76
12/29/2021 12:30:00 AM 2.66 36.788 0.072 7.26 1.83 12.74
12/29/2021 12:45:00 AM 2.66 36.788 0.072 7.26 1.8 12.75
12/29/2021 1:00:00 AM 2.66 36.788 0.072 7.26 1.79 12.76
12/29/2021 1:15:00 AM 2.66 36.788 0.072 7.27 1.81 12.76
12/29/2021 1:30:00 AM 2.66 36.788 0.072 7.26 1.78 12.75
12/29/2021 1:45:00 AM 2.66 36.788 0.072 7.26 1.82 12.74
12/29/2021 2:00:00 AM 2.67 36.806 0.072 7.26 1.82 12.75
12/29/2021 2:15:00 AM 2.67 36.806 0.072 7.27 1.79 12.74
12/29/2021 2:30:00 AM 2.68 36.824 0.072 7.26 1.8 12.74
12/29/2021 2:45:00 AM 2.68 36.824 0.072 7.26 1.85 12.73
12/29/2021 3:00:00 AM 2.69 36.842 0.072 7.26 1.88 12.74
12/29/2021 3:15:00 AM 2.69 36.842 0.072 7.26 1.86 12.73
12/29/2021 3:30:00 AM 2.69 36.842 0.072 7.26 1.84 12.74
12/29/2021 3:45:00 AM 2.7 36.86 0.072 7.26 1.82 12.72
12/29/2021 4:00:00 AM 2.71 36.878 0.073 7.26 1.83 12.73
12/29/2021 4:15:00 AM 2.71 36.878 0.073 7.25 1.85 12.73
12/29/2021 4:30:00 AM 2.71 36.878 0.073 7.25 1.82 12.73
12/29/2021 4:45:00 AM 2.72 36.896 0.073 7.26 1.84 12.72
12/29/2021 5:00:00 AM 2.72 36.896 0.073 7.25 1.92 12.73
12/29/2021 5:15:00 AM 2.73 36.914 0.073 7.25 1.91 12.72
12/29/2021 5:30:00 AM 2.74 36.932 0.074 7.25 1.91 12.71
12/29/2021 5:45:00 AM 2.75 36.95 0.074 7.25 2.01 12.7
12/29/2021 6:00:00 AM 2.75 36.95 0.074 7.26 1.91 12.71
12/29/2021 6:15:00 AM 2.77 36.986 0.074 7.25 1.89 12.71
12/29/2021 6:30:00 AM 2.78 37.004 0.074 7.25 1.88 12.7
12/29/2021 6:45:00 AM 2.79 37.022 0.074 7.25 1.98 12.69
12/29/2021 7:00:00 AM 2.8 37.04 0.074 7.26 1.99 12.69
12/29/2021 7:15:00 AM 2.81 37.058 0.074 7.25 1.98 12.7
12/29/2021 7:30:00 AM 2.82 37.076 0.074 7.25 1.95 12.69
12/29/2021 7:45:00 AM 2.83 37.094 0.074 7.26 1.93 12.71
12/29/2021 8:00:00 AM 2.85 37.13 0.074 7.26 1.91 12.71
12/29/2021 8:15:00 AM 2.86 37.148 0.074 7.27 1.95 12.77
12/29/2021 8:30:00 AM 2.88 37.184 0.074 7.28 1.95 12.8
12/29/2021 8:45:00 AM 2.9 37.22 0.074 7.31 2 12.88
12/29/2021 9:00:00 AM 2.92 37.256 0.074 7.34 2 12.98
12/29/2021 9:15:00 AM 2.95 37.31 0.074 7.39 1.95 13.13
12/29/2021 9:30:00 AM 2.97 37.346 0.074 7.43 1.94 13.23
12/29/2021 9:45:00 AM 3 37.4 0.074 7.48 1.88 13.33
12/29/2021 10:00:00 AM 3.04 37.472 0.073 7.53 1.88 13.44
12/29/2021 10:15:00 AM 3.07 37.526 0.073 7.58 1.88 13.49
12/29/2021 10:30:00 AM 3.1 37.58 0.073 7.63 1.86 13.54
12/29/2021 10:45:00 AM 3.14 37.652 0.073 7.71 1.86 13.63
12/29/2021 11:00:00 AM 3.18 37.724 0.073 7.76 1.87 13.66
12/29/2021 11:15:00 AM 3.21 37.778 0.073 7.82 1.8 13.68
12/29/2021 11:30:00 AM 3.25 37.85 0.073 7.88 1.84 13.69
12/29/2021 11:45:00 AM 3.28 37.904 0.073 7.93 1.88 13.7
12/29/2021 12:00:00 PM 3.32 37.976 0.073 7.98 1.83 13.71
12/29/2021 12:15:00 PM 3.36 38.048 0.073 8.05 1.78 13.72
12/29/2021 12:30:00 PM 3.4 38.12 0.073 8.09 1.82 13.72
12/29/2021 12:45:00 PM 3.43 38.174 0.074 8.14 1.82 13.7
12/29/2021 1:00:00 PM 3.47 38.246 0.074 8.17 1.82 13.69
12/29/2021 1:15:00 PM 3.5 38.3 0.074 8.18 1.83 13.66
12/29/2021 1:30:00 PM 3.54 38.372 0.074 8.22 1.83 13.66
12/29/2021 1:45:00 PM 3.57 38.426 0.074 8.23 1.87 13.62
12/29/2021 2:00:00 PM 3.6 38.48 0.074 8.23 1.85 13.6
12/29/2021 2:15:00 PM 3.63 38.534 0.074 8.2 1.93 13.55
12/29/2021 2:30:00 PM 3.65 38.57 0.074 8.1 2 13.48
12/29/2021 2:45:00 PM 3.66 38.588 0.074 8.02 1.99 13.41
12/29/2021 3:00:00 PM 3.69 38.642 0.074 8.02 2 13.41
12/29/2021 3:15:00 PM 3.71 38.678 0.074 7.96 2 13.36
12/29/2021 3:30:00 PM 3.72 38.696 0.074 7.84 2 13.24
12/29/2021 3:45:00 PM 3.73 38.714 0.074 7.76 2.43 13.15
12/29/2021 4:00:00 PM 3.74 38.732 0.074 7.67 1.99 13.04
12/29/2021 4:15:00 PM 3.74 38.732 0.074 7.6 2.08 12.93
12/29/2021 4:30:00 PM 3.74 38.732 0.074 7.55 2.06 12.83
12/29/2021 4:45:00 PM 3.74 38.732 0.074 7.49 2.12 12.72
12/29/2021 5:00:00 PM 3.74 38.732 0.074 7.44 2.13 12.63
12/29/2021 5:15:00 PM 3.75 38.75 0.075 7.4 2.17 12.57
12/29/2021 5:30:00 PM 3.75 38.75 0.075 7.38 2.17 12.52
12/29/2021 5:45:00 PM 3.75 38.75 0.075 7.36 2.28 12.49
12/29/2021 6:00:00 PM 3.75 38.75 0.075 7.35 2.29 12.46
12/29/2021 6:15:00 PM 3.75 38.75 0.075 7.34 2.37 12.44
12/29/2021 6:30:00 PM 3.75 38.75 0.075 7.33 2.48 12.44
12/29/2021 6:45:00 PM 3.75 38.75 0.076 7.32 2.54 12.43
12/29/2021 7:00:00 PM 3.75 38.75 0.076 7.31 2.59 12.43
12/29/2021 7:15:00 PM 3.75 38.75 0.076 7.31 2.54 12.43
12/29/2021 7:30:00 PM 3.74 38.732 0.076 7.31 2.45 12.44
12/29/2021 7:45:00 PM 3.74 38.732 0.076 7.3 2.49 12.44
12/29/2021 8:00:00 PM 3.74 38.732 0.076 7.3 2.5 12.44
12/29/2021 8:15:00 PM 3.74 38.732 0.076 7.29 2.51 12.44
12/29/2021 8:30:00 PM 3.73 38.714 0.076 7.29 2.47 12.44
12/29/2021 8:45:00 PM 3.73 38.714 0.076 7.29 2.43 12.45
12/29/2021 9:00:00 PM 3.73 38.714 0.076 7.29 2.4 12.45
12/29/2021 9:15:00 PM 3.73 38.714 0.076 7.29 2.48 12.45
12/29/2021 9:30:00 PM 3.72 38.696 0.076 7.28 2.46 12.45
12/29/2021 9:45:00 PM 3.72 38.696 0.076 7.29 2.31 12.45
12/29/2021 10:00:00 PM 3.72 38.696 0.076 7.28 2.34 12.45
12/29/2021 10:15:00 PM 3.71 38.678 0.076 7.28 2.57 12.45
12/29/2021 10:30:00 PM 3.71 38.678 0.076 7.28 2.3 12.45
12/29/2021 10:45:00 PM 3.71 38.678 0.076 7.28 2.26 12.46
12/29/2021 11:00:00 PM 3.71 38.678 0.077 7.28 2.26 12.45
12/29/2021 11:15:00 PM 3.71 38.678 0.077 7.28 2.29 12.45
12/29/2021 11:30:00 PM 3.7 38.66 0.077 7.28 2.23 12.45
12/29/2021 11:45:00 PM 3.7 38.66 0.077 7.28 2.21 12.45
12/30/2021 12:00:00 AM 3.7 38.66 0.077 7.27 2.17 12.45
12/30/2021 12:15:00 AM 3.69 38.642 0.077 7.28 2.2 12.45
12/30/2021 12:30:00 AM 3.69 38.642 0.077 7.28 2.16 12.45
12/30/2021 12:45:00 AM 3.69 38.642 0.077 7.28 2.15 12.45
12/30/2021 1:00:00 AM 3.69 38.642 0.077 7.28 2.09 12.45
12/30/2021 1:15:00 AM 3.69 38.642 0.077 7.28 2.12 12.45
12/30/2021 1:30:00 AM 3.69 38.642 0.077 7.28 2.13 12.45
12/30/2021 1:45:00 AM 3.69 38.642 0.077 7.28 2.07 12.45
12/30/2021 2:00:00 AM 3.69 38.642 0.077 7.27 2.05 12.45
12/30/2021 2:15:00 AM 3.69 38.642 0.077 7.27 2.09 12.45
12/30/2021 2:30:00 AM 3.69 38.642 0.077 7.27 2.11 12.45
12/30/2021 2:45:00 AM 3.69 38.642 0.077 7.27 2.06 12.45
12/30/2021 3:00:00 AM 3.69 38.642 0.077 7.27 2.07 12.44
12/30/2021 3:15:00 AM 3.69 38.642 0.077 7.27 2.06 12.45
12/30/2021 3:30:00 AM 3.68 38.624 0.077 7.27 2.04 12.45
12/30/2021 3:45:00 AM 3.68 38.624 0.077 7.27 2.01 12.44
12/30/2021 4:00:00 AM 3.69 38.642 0.077 7.27 2.09 12.44
12/30/2021 4:15:00 AM 3.69 38.642 0.077 7.27 2.02 12.44
12/30/2021 4:30:00 AM 3.69 38.642 0.077 7.27 1.95 12.44
12/30/2021 4:45:00 AM 3.69 38.642 0.077 7.27 1.95 12.44
12/30/2021 5:00:00 AM 3.69 38.642 0.077 7.26 1.96 12.44
12/30/2021 5:15:00 AM 3.69 38.642 0.077 7.27 1.9 12.44
12/30/2021 5:30:00 AM 3.69 38.642 0.077 7.26 1.93 12.44
12/30/2021 5:45:00 AM 3.7 38.66 0.077 7.26 1.89 12.44
12/30/2021 6:00:00 AM 3.7 38.66 0.077 7.26 1.95 12.44
12/30/2021 6:15:00 AM 3.7 38.66 0.077 7.26 1.94 12.43
12/30/2021 6:30:00 AM 3.71 38.678 0.077 7.26 1.89 12.44
12/30/2021 6:45:00 AM 3.71 38.678 0.077 7.26 1.86 12.44
12/30/2021 7:00:00 AM 3.71 38.678 0.077 7.26 1.82 12.43
12/30/2021 7:15:00 AM 3.71 38.678 0.076 7.26 1.91 12.44
12/30/2021 7:30:00 AM 3.72 38.696 0.076 7.26 1.88 12.44
12/30/2021 7:45:00 AM 3.72 38.696 0.076 7.26 1.82 12.44
12/30/2021 8:00:00 AM 3.72 38.696 0.076 7.26 1.82 12.46
12/30/2021 8:15:00 AM 3.73 38.714 0.076 7.27 1.9 12.48
12/30/2021 8:30:00 AM 3.74 38.732 0.076 7.28 1.88 12.53
12/30/2021 8:45:00 AM 3.75 38.75 0.076 7.31 1.85 12.6
12/30/2021 9:00:00 AM 3.76 38.768 0.076 7.33 1.84 12.66
12/30/2021 9:15:00 AM 3.77 38.786 0.076 7.35 1.86 12.72
12/30/2021 9:30:00 AM 3.79 38.822 0.076 7.39 1.83 12.82
12/30/2021 9:45:00 AM 3.81 38.858 0.075 7.43 1.85 12.91
12/30/2021 10:00:00 AM 3.83 38.894 0.075 7.47 1.86 12.99
12/30/2021 10:15:00 AM 3.86 38.948 0.075 7.52 1.82 13.08
12/30/2021 10:30:00 AM 3.89 39.002 0.075 7.57 1.82 13.15
12/30/2021 10:45:00 AM 3.91 39.038 0.075 7.62 1.88 13.23
12/30/2021 11:00:00 AM 3.94 39.092 0.075 7.68 1.86 13.28
12/30/2021 11:15:00 AM 3.97 39.146 0.075 7.75 1.88 13.34
12/30/2021 11:30:00 AM 4.01 39.218 0.074 7.81 1.89 13.38
12/30/2021 11:45:00 AM 4.05 39.29 0.074 7.88 1.91 13.42
12/30/2021 12:00:00 PM 4.09 39.362 0.074 8 1.87 13.47
12/30/2021 12:15:00 PM 4.14 39.452 0.074 8.12 1.92 13.52
12/30/2021 12:30:00 PM 4.22 39.596 0.074 8.31 1.87 13.61
12/30/2021 12:45:00 PM 4.27 39.686 0.074 8.39 1.9 13.6
12/30/2021 1:00:00 PM 4.3 39.74 0.073 8.41 1.87 13.56
12/30/2021 1:15:00 PM 4.34 39.812 0.073 8.42 1.88 13.51
12/30/2021 1:30:00 PM 4.38 39.884 0.073 8.43 1.88 13.47
12/30/2021 1:45:00 PM 4.41 39.938 0.073 8.37 1.87 13.38
12/30/2021 2:00:00 PM 4.42 39.956 0.073 8.19 1.84 13.24
12/30/2021 2:15:00 PM 4.43 39.974 0.073 8.05 1.88 13.13
12/30/2021 2:30:00 PM 4.46 40.028 0.073 8 1.88 13.09
12/30/2021 2:45:00 PM 4.48 40.064 0.073 7.93 1.87 13.03
12/30/2021 3:00:00 PM 4.5 40.1 0.073 7.84 1.99 12.94
12/30/2021 3:15:00 PM 4.53 40.154 0.073 7.84 2.11 12.94
12/30/2021 3:30:00 PM 4.56 40.208 0.074 7.76 2.29 12.84
12/30/2021 3:45:00 PM 4.58 40.244 0.074 7.69 2.25 12.75
12/30/2021 4:00:00 PM 4.59 40.262 0.074 7.62 2.15 12.64
12/30/2021 4:15:00 PM 4.6 40.28 0.074 7.55 2.09 12.54
12/30/2021 4:30:00 PM 4.6 40.28 0.074 7.51 2.17 12.44
12/30/2021 4:45:00 PM 4.61 40.298 0.074 7.45 2.04 12.35
12/30/2021 5:00:00 PM 4.61 40.298 0.074 7.41 2 12.28
12/30/2021 5:15:00 PM 4.62 40.316 0.074 7.38 2.02 12.22
12/30/2021 5:30:00 PM 4.62 40.316 0.074 7.35 1.97 12.18
12/30/2021 5:45:00 PM 4.63 40.334 0.074 7.34 1.98 12.16
12/30/2021 6:00:00 PM 4.63 40.334 0.074 7.33 1.99 12.14
12/30/2021 6:15:00 PM 4.63 40.334 0.074 7.32 2.01 12.13
12/30/2021 6:30:00 PM 4.63 40.334 0.074 7.31 2.05 12.12
12/30/2021 6:45:00 PM 4.63 40.334 0.075 7.3 2.02 12.12
12/30/2021 7:00:00 PM 4.63 40.334 0.075 7.3 2.11 12.11
12/30/2021 7:15:00 PM 4.63 40.334 0.075 7.29 2.04 12.11
12/30/2021 7:30:00 PM 4.63 40.334 0.075 7.29 2.03 12.11
12/30/2021 7:45:00 PM 4.63 40.334 0.075 7.29 2.06 12.11
12/30/2021 8:00:00 PM 4.63 40.334 0.075 7.29 2.05 12.11
12/30/2021 8:15:00 PM 4.63 40.334 0.075 7.29 2.11 12.11
12/30/2021 8:30:00 PM 4.63 40.334 0.075 7.28 2.12 12.11
12/30/2021 8:45:00 PM 4.63 40.334 0.075 7.28 2.08 12.11
12/30/2021 9:00:00 PM 4.63 40.334 0.075 7.28 2.01 12.1
12/30/2021 9:15:00 PM 4.63 40.334 0.075 7.28 2.04 12.11
12/30/2021 9:30:00 PM 4.63 40.334 0.075 7.28 2.01 12.11
12/30/2021 9:45:00 PM 4.63 40.334 0.075 7.27 1.97 12.11
12/30/2021 10:00:00 PM 4.63 40.334 0.075 7.27 1.99 12.1
12/30/2021 10:15:00 PM 4.63 40.334 0.075 7.27 2.05 12.1
12/30/2021 10:30:00 PM 4.63 40.334 0.075 7.27 2.03 12.11
12/30/2021 10:45:00 PM 4.63 40.334 0.075 7.27 2.09 12.11
12/30/2021 11:00:00 PM 4.63 40.334 0.075 7.27 2.12 12.11
12/30/2021 11:15:00 PM 4.62 40.316 0.075 7.27 1.99 12.11
12/30/2021 11:30:00 PM 4.62 40.316 0.075 7.27 1.99 12.11
12/30/2021 11:45:00 PM 4.6 40.28 0.075 7.26 1.99 12.11
12/31/2021 12:00:00 AM 4.58 40.244 0.075 7.26 2.01 12.12
12/31/2021 12:15:00 AM 4.57 40.226 0.075 7.26 1.99 12.12
12/31/2021 12:30:00 AM 4.55 40.19 0.075 7.26 1.96 12.13
12/31/2021 12:45:00 AM 4.54 40.172 0.075 7.26 2.03 12.13
12/31/2021 1:00:00 AM 4.53 40.154 0.075 7.26 1.99 12.14
12/31/2021 1:15:00 AM 4.52 40.136 0.075 7.26 1.98 12.14
12/31/2021 1:30:00 AM 4.51 40.118 0.075 7.26 2.09 12.15
12/31/2021 1:45:00 AM 4.51 40.118 0.075 7.26 2.06 12.15
12/31/2021 2:00:00 AM 4.51 40.118 0.075 7.26 2.07 12.15
12/31/2021 2:15:00 AM 4.5 40.1 0.075 7.26 2.03 12.16
12/31/2021 2:30:00 AM 4.49 40.082 0.075 7.26 1.97 12.16
12/31/2021 2:45:00 AM 4.47 40.046 0.075 7.25 2 12.16
12/31/2021 3:00:00 AM 4.46 40.028 0.075 7.25 1.97 12.17
12/31/2021 3:15:00 AM 4.46 40.028 0.075 7.25 1.94 12.17
12/31/2021 3:30:00 AM 4.45 40.01 0.075 7.25 1.95 12.17
12/31/2021 3:45:00 AM 4.45 40.01 0.075 7.25 1.93 12.18
12/31/2021 4:00:00 AM 4.45 40.01 0.075 7.25 1.97 12.17
12/31/2021 4:15:00 AM 4.45 40.01 0.075 7.25 1.98 12.17
12/31/2021 4:30:00 AM 4.45 40.01 0.075 7.24 1.92 12.17
12/31/2021 4:45:00 AM 4.44 39.992 0.075 7.24 2 12.17
12/31/2021 5:00:00 AM 4.45 40.01 0.075 7.24 1.97 12.16
12/31/2021 5:15:00 AM 4.45 40.01 0.075 7.24 1.97 12.17
12/31/2021 5:30:00 AM 4.45 40.01 0.075 7.24 1.96 12.17
12/31/2021 5:45:00 AM 4.45 40.01 0.075 7.24 1.94 12.16
12/31/2021 6:00:00 AM 4.45 40.01 0.075 7.24 1.97 12.16
12/31/2021 6:15:00 AM 4.45 40.01 0.075 7.24 1.94 12.16
12/31/2021 6:30:00 AM 4.45 40.01 0.075 7.24 1.88 12.16
12/31/2021 6:45:00 AM 4.45 40.01 0.075 7.24 1.92 12.16
12/31/2021 7:00:00 AM 4.45 40.01 0.075 7.24 1.9 12.16
12/31/2021 7:15:00 AM 4.45 40.01 0.075 7.24 1.9 12.16
12/31/2021 7:30:00 AM 4.46 40.028 0.075 7.24 1.83 12.17
12/31/2021 7:45:00 AM 4.46 40.028 0.075 7.24 1.83 12.17
12/31/2021 8:00:00 AM 4.47 40.046 0.075 7.26 1.86 12.21
12/31/2021 8:15:00 AM 4.48 40.064 0.075 7.28 1.83 12.29
12/31/2021 8:30:00 AM 4.51 40.118 0.075 7.32 1.86 12.44
12/31/2021 8:45:00 AM 4.53 40.154 0.075 7.38 1.81 12.61
12/31/2021 9:00:00 AM 4.57 40.226 0.074 7.45 1.83 12.78
12/31/2021 9:15:00 AM 4.62 40.316 0.074 7.56 1.81 12.98
12/31/2021 9:30:00 AM 4.67 40.406 0.074 7.64 1.77 13.07
12/31/2021 9:45:00 AM 4.73 40.514 0.074 7.72 1.77 13.14
12/31/2021 10:00:00 AM 4.79 40.622 0.074 7.87 1.76 13.25
12/31/2021 10:15:00 AM 4.89 40.802 0.073 8.13 1.78 13.4
12/31/2021 10:30:00 AM 4.99 40.982 0.073 8.36 1.75 13.48
12/31/2021 10:45:00 AM 5.08 41.144 0.073 8.47 1.76 13.46
12/31/2021 11:00:00 AM 5.16 41.288 0.073 8.5 1.74 13.38
12/31/2021 11:15:00 AM 5.24 41.432 0.073 8.61 1.72 13.37
12/31/2021 11:30:00 AM 5.31 41.558 0.073 8.67 1.74 13.35
12/31/2021 11:45:00 AM 5.38 41.684 0.072 8.76 1.73 13.37
12/31/2021 12:00:00 PM 5.43 41.774 0.072 8.82 1.73 13.34
12/31/2021 12:15:00 PM 5.47 41.846 0.072 8.76 1.65 13.22
12/31/2021 12:30:00 PM 5.5 41.9 0.072 8.67 1.73 13.06
12/31/2021 12:45:00 PM 5.53 41.954 0.072 8.62 1.74 12.98
12/31/2021 1:00:00 PM 5.58 42.044 0.072 8.64 1.67 13
12/31/2021 1:15:00 PM 5.69 42.242 0.072 8.74 1.7 13.08
12/31/2021 1:30:00 PM 5.82 42.476 0.072 8.82 1.63 13.15
12/31/2021 1:45:00 PM 5.89 42.602 0.072 8.89 1.64 13.19
12/31/2021 2:00:00 PM 5.87 42.566 0.072 8.86 1.7 13.1
12/31/2021 2:15:00 PM 5.85 42.53 0.072 8.82 1.64 13.01
12/31/2021 2:30:00 PM 5.86 42.548 0.072 8.74 1.66 12.88
12/31/2021 2:45:00 PM 5.9 42.62 0.072 8.73 1.63 12.87
12/31/2021 3:00:00 PM 5.92 42.656 0.072 8.73 1.67 12.86
12/31/2021 3:15:00 PM 5.9 42.62 0.072 8.65 1.64 12.8
12/31/2021 3:30:00 PM 5.86 42.548 0.072 8.54 1.6 12.73
12/31/2021 3:45:00 PM 5.86 42.548 0.072 8.41 1.62 12.65
12/31/2021 4:00:00 PM 5.85 42.53 0.072 8.19 1.61 12.52
12/31/2021 4:15:00 PM 5.84 42.512 0.072 7.95 1.67 12.38
12/31/2021 4:30:00 PM 5.82 42.476 0.072 7.77 1.59 12.24
12/31/2021 4:45:00 PM 5.79 42.422 0.072 7.65 1.65 12.1
12/31/2021 5:00:00 PM 5.77 42.386 0.072 7.56 1.68 11.99
12/31/2021 5:15:00 PM 5.75 42.35 0.072 7.49 1.62 11.89
12/31/2021 5:30:00 PM 5.75 42.35 0.073 7.44 1.62 11.82
12/31/2021 5:45:00 PM 5.74 42.332 0.073 7.41 1.61 11.78
12/31/2021 6:00:00 PM 5.74 42.332 0.073 7.38 1.69 11.75
12/31/2021 6:15:00 PM 5.73 42.314 0.073 7.36 1.65 11.72
12/31/2021 6:30:00 PM 5.72 42.296 0.073 7.34 1.74 11.71
12/31/2021 6:45:00 PM 5.71 42.278 0.073 7.33 1.66 11.72
12/31/2021 7:00:00 PM 5.7 42.26 0.073 7.32 1.69 11.72
12/31/2021 7:15:00 PM 5.67 42.206 0.073 7.31 1.74 11.73
12/31/2021 7:30:00 PM 5.65 42.17 0.073 7.31 1.75 11.73
12/31/2021 7:45:00 PM 5.62 42.116 0.074 7.3 1.73 11.73
12/31/2021 8:00:00 PM 5.6 42.08 0.074 7.3 1.75 11.75
12/31/2021 8:15:00 PM 5.57 42.026 0.074 7.29 1.75 11.74
12/31/2021 8:30:00 PM 5.54 41.972 0.074 7.29 1.8 11.76
12/31/2021 8:45:00 PM 5.5 41.9 0.074 7.29 1.8 11.77
12/31/2021 9:00:00 PM 5.47 41.846 0.074 7.28 1.78 11.76
12/31/2021 9:15:00 PM 5.45 41.81 0.074 7.28 1.76 11.78
12/31/2021 9:30:00 PM 5.44 41.792 0.074 7.27 1.76 11.78
12/31/2021 9:45:00 PM 5.42 41.756 0.074 7.27 1.79 11.79
12/31/2021 10:00:00 PM 5.41 41.738 0.074 7.28 1.8 11.81
12/31/2021 10:15:00 PM 5.4 41.72 0.074 7.27 1.8 11.8
12/31/2021 10:30:00 PM 5.39 41.702 0.074 7.27 1.8 11.8
12/31/2021 10:45:00 PM 5.38 41.684 0.074 7.27 1.83 11.82
12/31/2021 11:00:00 PM 5.37 41.666 0.074 7.27 1.82 11.81
12/31/2021 11:15:00 PM 5.36 41.648 0.074 7.27 1.8 11.81
12/31/2021 11:30:00 PM 5.35 41.63 0.074 7.26 1.74 11.82
12/31/2021 11:45:00 PM 5.34 41.612 0.074 7.27 1.76 11.82
1/1/2022 12:00:00 AM 5.33 41.594 0.074 7.26 1.73 11.83
1/1/2022 12:15:00 AM 5.32 41.576 0.074 7.26 1.77 11.83
1/1/2022 12:30:00 AM 5.32 41.576 0.074 7.26 1.77 11.84
1/1/2022 12:45:00 AM 5.31 41.558 0.074 7.26 1.73 11.82
1/1/2022 1:00:00 AM 5.31 41.558 0.074 7.26 1.76 11.82
1/1/2022 1:15:00 AM 5.31 41.558 0.074 7.25 1.73 11.82
1/1/2022 1:30:00 AM 5.31 41.558 0.074 7.25 1.78 11.83
1/1/2022 1:45:00 AM 5.31 41.558 0.074 7.25 1.77 11.83
1/1/2022 2:00:00 AM 5.31 41.558 0.074 7.25 1.74 11.82
1/1/2022 2:15:00 AM 5.32 41.576 0.074 7.25 1.74 11.82
1/1/2022 2:30:00 AM 5.33 41.594 0.074 7.25 1.78 11.81
1/1/2022 2:45:00 AM 5.34 41.612 0.074 7.25 1.67 11.81
1/1/2022 3:00:00 AM 5.36 41.648 0.074 7.25 1.76 11.79
1/1/2022 3:15:00 AM 5.38 41.684 0.074 7.25 1.74 11.78
1/1/2022 3:30:00 AM 5.39 41.702 0.074 7.26 1.73 11.78
1/1/2022 3:45:00 AM 5.4 41.72 0.074 7.25 1.69 11.77
1/1/2022 4:00:00 AM 5.42 41.756 0.074 7.26 1.69 11.76
1/1/2022 4:15:00 AM 5.43 41.774 0.074 7.25 1.67 11.76
1/1/2022 4:30:00 AM 5.45 41.81 0.074 7.25 1.7 11.74
1/1/2022 4:45:00 AM 5.46 41.828 0.074 7.25 1.7 11.75
1/1/2022 5:00:00 AM 5.47 41.846 0.074 7.25 1.73 11.75
1/1/2022 5:15:00 AM 5.49 41.882 0.074 7.25 1.67 11.72
1/1/2022 5:30:00 AM 5.5 41.9 0.074 7.24 1.8 11.72
1/1/2022 5:45:00 AM 5.51 41.918 0.074 7.25 1.73 11.74
1/1/2022 6:00:00 AM 5.52 41.936 0.074 7.24 1.7 11.71
1/1/2022 6:15:00 AM 5.53 41.954 0.074 7.24 1.65 11.7
1/1/2022 6:30:00 AM 5.54 41.972 0.074 7.24 1.73 11.71
1/1/2022 6:45:00 AM 5.54 41.972 0.074 7.24 1.72 11.7
1/1/2022 7:00:00 AM 5.55 41.99 0.074 7.24 1.67 11.7
1/1/2022 7:15:00 AM 5.55 41.99 0.074 7.24 1.65 11.71
1/1/2022 7:30:00 AM 5.56 42.008 0.074 7.25 1.66 11.72
1/1/2022 7:45:00 AM 5.57 42.026 0.074 7.24 1.65 11.71
1/1/2022 8:00:00 AM 5.58 42.044 0.074 7.25 1.71 11.73
1/1/2022 8:15:00 AM 5.59 42.062 0.074 7.26 1.71 11.76
1/1/2022 8:30:00 AM 5.61 42.098 0.074 7.28 1.7 11.86
1/1/2022 8:45:00 AM 5.63 42.134 0.074 7.32 1.67 11.97
1/1/2022 9:00:00 AM 5.66 42.188 0.073 7.37 1.64 12.09
1/1/2022 9:15:00 AM 5.7 42.26 0.073 7.41 1.6 12.16
1/1/2022 9:30:00 AM 5.73 42.314 0.073 7.44 1.65 12.23
1/1/2022 9:45:00 AM 5.77 42.386 0.073 7.48 1.7 12.3
1/1/2022 10:00:00 AM 5.8 42.44 0.073 7.51 1.63 12.36
1/1/2022 10:15:00 AM 5.82 42.476 0.073 7.57 1.67 12.44
1/1/2022 10:30:00 AM 5.86 42.548 0.073 7.64 1.65 12.52
1/1/2022 10:45:00 AM 5.9 42.62 0.073 7.71 1.63 12.6
1/1/2022 11:00:00 AM 5.95 42.71 0.072 7.84 1.61 12.72
1/1/2022 11:15:00 AM 6.01 42.818 0.072 7.97 1.61 12.79
1/1/2022 11:30:00 AM 6.08 42.944 0.072 8.14 1.63 12.85
1/1/2022 11:45:00 AM 6.14 43.052 0.072 8.18 1.67 12.8
1/1/2022 12:00:00 PM 6.19 43.142 0.072 8.19 1.57 12.75
1/1/2022 12:15:00 PM 6.23 43.214 0.072 8.24 1.62 12.73
1/1/2022 12:30:00 PM 6.28 43.304 0.072 8.37 1.57 12.77
1/1/2022 12:45:00 PM 6.31 43.358 0.072 8.35 1.58 12.7
1/1/2022 1:00:00 PM 6.35 43.43 0.072 8.41 1.56 12.71
1/1/2022 1:15:00 PM 6.4 43.52 0.072 8.54 1.55 12.8
1/1/2022 1:30:00 PM 6.45 43.61 0.072 8.61 1.55 12.81
1/1/2022 1:45:00 PM 6.5 43.7 0.071 8.72 1.61 12.86
1/1/2022 2:00:00 PM 6.55 43.79 0.071 8.78 1.58 12.87
1/1/2022 2:15:00 PM 6.58 43.844 0.071 8.78 1.57 12.79
1/1/2022 2:30:00 PM 6.6 43.88 0.071 8.75 1.57 12.69
1/1/2022 2:45:00 PM 6.63 43.934 0.071 8.69 1.54 12.61
1/1/2022 3:00:00 PM 6.66 43.988 0.071 8.6 1.57 12.47
1/1/2022 3:15:00 PM 6.67 44.006 0.071 8.44 1.55 12.34
1/1/2022 3:30:00 PM 6.68 44.024 0.071 8.22 1.55 12.21
1/1/2022 3:45:00 PM 6.68 44.024 0.071 7.99 1.57 12.07
1/1/2022 4:00:00 PM 6.68 44.024 0.072 7.81 1.55 11.94
1/1/2022 4:15:00 PM 6.67 44.006 0.072 7.67 1.54 11.82
1/1/2022 4:30:00 PM 6.66 43.988 0.072 7.58 1.6 11.71
1/1/2022 4:45:00 PM 6.65 43.97 0.072 7.51 1.59 11.6
1/1/2022 5:00:00 PM 6.64 43.952 0.072 7.45 1.58 11.53
1/1/2022 5:15:00 PM 6.62 43.916 0.072 7.41 1.53 11.47
1/1/2022 5:30:00 PM 6.61 43.898 0.072 7.37 1.6 11.43
1/1/2022 5:45:00 PM 6.61 43.898 0.073 7.35 1.57 11.41
1/1/2022 6:00:00 PM 6.6 43.88 0.073 7.33 1.61 11.38
1/1/2022 6:15:00 PM 6.6 43.88 0.073 7.31 1.59 11.37
1/1/2022 6:30:00 PM 6.59 43.862 0.073 7.3 1.62 11.36
1/1/2022 6:45:00 PM 6.59 43.862 0.073 7.29 1.58 11.35
1/1/2022 7:00:00 PM 6.58 43.844 0.073 7.27 1.59 11.36
1/1/2022 7:15:00 PM 6.57 43.826 0.073 7.27 1.64 11.35
1/1/2022 7:30:00 PM 6.56 43.808 0.073 7.26 1.55 11.34
1/1/2022 7:45:00 PM 6.56 43.808 0.073 7.26 1.58 11.35
1/1/2022 8:00:00 PM 6.55 43.79 0.073 7.25 1.62 11.34
1/1/2022 8:15:00 PM 6.54 43.772 0.073 7.25 1.65 11.36
1/1/2022 8:30:00 PM 6.53 43.754 0.073 7.25 1.61 11.35
1/1/2022 8:45:00 PM 6.53 43.754 0.073 7.24 1.7 11.35
1/1/2022 9:00:00 PM 6.53 43.754 0.073 7.24 1.68 11.35
1/1/2022 9:15:00 PM 6.52 43.736 0.073 7.24 1.68 11.34
1/1/2022 9:30:00 PM 6.51 43.718 0.073 7.23 1.69 11.35
1/1/2022 9:45:00 PM 6.51 43.718 0.073 7.23 1.72 11.34
1/1/2022 10:00:00 PM 6.5 43.7 0.073 7.24 1.69 11.35
1/1/2022 10:15:00 PM 6.49 43.682 0.073 7.23 1.75 11.35
1/1/2022 10:30:00 PM 6.47 43.646 0.073 7.23 1.71 11.35
1/1/2022 10:45:00 PM 6.47 43.646 0.073 7.24 1.76 11.35
1/1/2022 11:00:00 PM 6.47 43.646 0.073 7.26 1.79 11.35
1/1/2022 11:15:00 PM 6.47 43.646 0.073 7.25 1.86 11.35
1/1/2022 11:30:00 PM 6.46 43.628 0.073 7.25 1.96 11.35
1/1/2022 11:45:00 PM 6.45 43.61 0.073 7.26 2.02 11.35
1/2/2022 12:00:00 AM 6.46 43.628 0.073 7.27 2.13 11.36
1/2/2022 12:15:00 AM 6.46 43.628 0.073 7.27 2.25 11.37
1/2/2022 12:30:00 AM 6.46 43.628 0.073 7.28 2.22 11.37
1/2/2022 12:45:00 AM 6.45 43.61 0.073 7.28 2.49 11.37
1/2/2022 1:00:00 AM 6.45 43.61 0.073 7.28 2.66 11.38
1/2/2022 1:15:00 AM 6.45 43.61 0.073 7.28 2.66 11.38
1/2/2022 1:30:00 AM 6.45 43.61 0.073 7.28 2.63 11.38
1/2/2022 1:45:00 AM 6.44 43.592 0.073 7.29 2.59 11.38
1/2/2022 2:00:00 AM 6.44 43.592 0.073 7.29 2.37 11.39
1/2/2022 2:15:00 AM 6.44 43.592 0.073 7.29 2.31 11.39
1/2/2022 2:30:00 AM 6.44 43.592 0.073 7.29 2.21 11.39
1/2/2022 2:45:00 AM 6.43 43.574 0.073 7.29 2.28 11.39
1/2/2022 3:00:00 AM 6.43 43.574 0.073 7.3 2.26 11.39
1/2/2022 3:15:00 AM 6.42 43.556 0.073 7.3 2.48 11.39
1/2/2022 3:30:00 AM 6.42 43.556 0.073 7.3 2.61 11.39
1/2/2022 3:45:00 AM 6.41 43.538 0.073 7.3 2.76 11.4
1/2/2022 4:00:00 AM 6.4 43.52 0.073 7.3 2.92 11.4
1/2/2022 4:15:00 AM 6.39 43.502 0.073 7.3 3.18 11.41
1/2/2022 4:30:00 AM 6.38 43.484 0.073 7.3 3.38 11.41
1/2/2022 4:45:00 AM 6.37 43.466 0.073 7.3 3.5 11.41
1/2/2022 5:00:00 AM 6.36 43.448 0.073 7.3 3.32 11.42
1/2/2022 5:15:00 AM 6.35 43.43 0.073 7.3 3.09 11.42
1/2/2022 5:30:00 AM 6.33 43.394 0.073 7.3 2.9 11.43
1/2/2022 5:45:00 AM 6.32 43.376 0.073 7.3 2.96 11.43
1/2/2022 6:00:00 AM 6.3 43.34 0.073 7.3 2.87 11.44
1/2/2022 6:15:00 AM 6.28 43.304 0.073 7.31 2.82 11.44
1/2/2022 6:30:00 AM 6.26 43.268 0.073 7.3 2.88 11.45
1/2/2022 6:45:00 AM 6.23 43.214 0.073 7.3 2.83 11.45
1/2/2022 7:00:00 AM 6.21 43.178 0.073 7.3 2.86 11.46
1/2/2022 7:15:00 AM 6.18 43.124 0.073 7.3 2.87 11.47
1/2/2022 7:30:00 AM 6.16 43.088 0.073 7.3 2.99 11.48
1/2/2022 7:45:00 AM 6.13 43.034 0.073 7.31 3.02 11.5
1/2/2022 8:00:00 AM 6.1 42.98 0.073 7.31 2.98 11.53
1/2/2022 8:15:00 AM 6.07 42.926 0.073 7.32 2.82 11.57
1/2/2022 8:30:00 AM 6.05 42.89 0.073 7.34 2.74 11.65
1/2/2022 8:45:00 AM 6.02 42.836 0.073 7.36 2.64 11.71
1/2/2022 9:00:00 AM 6 42.8 0.073 7.4 2.54 11.86
1/2/2022 9:15:00 AM 5.98 42.764 0.073 7.44 2.44 11.98
1/2/2022 9:30:00 AM 5.96 42.728 0.072 7.48 2.51 12.1
1/2/2022 9:45:00 AM 5.94 42.692 0.072 7.52 2.43 12.17
1/2/2022 10:00:00 AM 5.92 42.656 0.072 7.58 2.29 12.28
1/2/2022 10:15:00 AM 5.9 42.62 0.072 7.65 2.29 12.4
1/2/2022 10:30:00 AM 5.9 42.62 0.072 7.77 2.2 12.57
1/2/2022 10:45:00 AM 5.9 42.62 0.072 7.85 2.21 12.64
1/2/2022 11:00:00 AM 5.87 42.566 0.072 7.93 2.13 12.7
1/2/2022 11:15:00 AM 5.85 42.53 0.072 7.97 2.11 12.71
1/2/2022 11:30:00 AM 5.82 42.476 0.072 7.89 2.16 12.61
1/2/2022 11:45:00 AM 5.78 42.404 0.072 7.85 2.02 12.55
1/2/2022 12:00:00 PM 5.73 42.314 0.072 7.83 2.05 12.53
1/2/2022 12:15:00 PM 5.7 42.26 0.072 7.89 2.07 12.61
1/2/2022 12:30:00 PM 5.68 42.224 0.071 7.93 1.97 12.65
1/2/2022 12:45:00 PM 5.64 42.152 0.071 8 2.01 12.71
1/2/2022 1:00:00 PM 5.6 42.08 0.071 8.07 1.99 12.76
1/2/2022 1:15:00 PM 5.57 42.026 0.071 8.07 1.98 12.74
1/2/2022 1:30:00 PM 5.53 41.954 0.071 8.07 1.89 12.75
1/2/2022 1:45:00 PM 5.48 41.864 0.071 8.02 1.92 12.71
1/2/2022 2:00:00 PM 5.43 41.774 0.071 7.92 1.92 12.62
1/2/2022 2:15:00 PM 5.37 41.666 0.072 7.84 1.93 12.57
1/2/2022 2:30:00 PM 5.32 41.576 0.072 7.78 1.88 12.53
1/2/2022 2:45:00 PM 5.27 41.486 0.072 7.75 1.92 12.51
1/2/2022 3:00:00 PM 5.21 41.378 0.072 7.7 1.87 12.47
1/2/2022 3:15:00 PM 5.14 41.252 0.072 7.64 1.96 12.43
1/2/2022 3:30:00 PM 5.06 41.108 0.072 7.6 1.93 12.39
1/2/2022 3:45:00 PM 5 41 0.072 7.56 1.95 12.35
1/2/2022 4:00:00 PM 4.93 40.874 0.072 7.51 1.92 12.29
1/2/2022 4:15:00 PM 4.86 40.748 0.072 7.48 1.94 12.26
1/2/2022 4:30:00 PM 4.79 40.622 0.073 7.45 1.92 12.22
1/2/2022 4:45:00 PM 4.71 40.478 0.073 7.42 1.88 12.19
1/2/2022 5:00:00 PM 4.63 40.334 0.073 7.39 1.91 12.19
1/2/2022 5:15:00 PM 4.55 40.19 0.073 7.37 1.87 12.18
1/2/2022 5:30:00 PM 4.48 40.064 0.073 7.35 1.95 12.19
1/2/2022 5:45:00 PM 4.4 39.92 0.073 7.34 1.92 12.2
1/2/2022 6:00:00 PM 4.31 39.758 0.073 7.33 1.92 12.22
1/2/2022 6:15:00 PM 4.23 39.614 0.074 7.33 2.12 12.24
1/2/2022 6:30:00 PM 4.16 39.488 0.074 7.33 2.25 12.27
1/2/2022 6:45:00 PM 4.1 39.38 0.074 7.32 2.3 12.29
1/2/2022 7:00:00 PM 4.03 39.254 0.074 7.32 2.18 12.31
1/2/2022 7:15:00 PM 3.96 39.128 0.074 7.32 2.08 12.34
1/2/2022 7:30:00 PM 3.89 39.002 0.074 7.31 2.13 12.37
1/2/2022 7:45:00 PM 3.81 38.858 0.074 7.3 2 12.4
1/2/2022 8:00:00 PM 3.75 38.75 0.074 7.31 1.93 12.43
1/2/2022 8:15:00 PM 3.67 38.606 0.074 7.3 1.96 12.46
1/2/2022 8:30:00 PM 3.61 38.498 0.074 7.3 1.94 12.48
1/2/2022 8:45:00 PM 3.56 38.408 0.074 7.3 1.89 12.51
1/2/2022 9:00:00 PM 3.5 38.3 0.074 7.3 1.91 12.53
1/2/2022 9:15:00 PM 3.44 38.192 0.074 7.29 1.92 12.55
1/2/2022 9:30:00 PM 3.38 38.084 0.074 7.3 1.94 12.58
1/2/2022 9:45:00 PM 3.32 37.976 0.074 7.29 1.99 12.6
1/2/2022 10:00:00 PM 3.28 37.904 0.074 7.29 1.96 12.62
1/2/2022 10:15:00 PM 3.22 37.796 0.074 7.29 1.95 12.64
1/2/2022 10:30:00 PM 3.18 37.724 0.074 7.29 1.95 12.66
1/2/2022 10:45:00 PM 3.13 37.634 0.074 7.29 1.91 12.69
1/2/2022 11:00:00 PM 3.07 37.526 0.074 7.29 1.93 12.7
1/2/2022 11:15:00 PM 3.02 37.436 0.074 7.29 1.91 12.73
1/2/2022 11:30:00 PM 2.97 37.346 0.074 7.29 1.91 12.74
1/2/2022 11:45:00 PM 2.93 37.274 0.074 7.29 4.19 12.75
1/3/2022 12:00:00 AM 2.89 37.202 0.074 7.29 1.86 12.77
1/3/2022 12:15:00 AM 2.84 37.112 0.074 7.29 1.79 12.79
1/3/2022 12:30:00 AM 2.79 37.022 0.074 7.28 1.79 12.81
1/3/2022 12:45:00 AM 2.76 36.968 0.074 7.28 1.78 12.84
1/3/2022 1:00:00 AM 2.71 36.878 0.074 7.28 1.78 12.85
1/3/2022 1:15:00 AM 2.66 36.788 0.074 7.28 1.78 12.87
1/3/2022 1:30:00 AM 2.62 36.716 0.074 7.28 1.79 12.88
1/3/2022 1:45:00 AM 2.58 36.644 0.074 7.27 1.74 12.89
1/3/2022 2:00:00 AM 2.53 36.554 0.074 7.28 1.87 12.92
1/3/2022 2:15:00 AM 2.49 36.482 0.074 7.28 1.81 12.94
1/3/2022 2:30:00 AM 2.45 36.41 0.074 7.27 1.83 12.96
1/3/2022 2:45:00 AM 2.41 36.338 0.074 7.27 1.8 12.98
1/3/2022 3:00:00 AM 2.38 36.284 0.074 7.27 1.78 12.99
1/3/2022 3:15:00 AM 2.34 36.212 0.074 7.27 1.8 13
1/3/2022 3:30:00 AM 2.32 36.176 0.074 7.27 1.7 13.02
1/3/2022 3:45:00 AM 2.28 36.104 0.074 7.26 1.74 13.04
1/3/2022 4:00:00 AM 2.23 36.014 0.074 7.26 1.84 13.06
1/3/2022 4:15:00 AM 2.19 35.942 0.074 7.26 1.82 13.07
1/3/2022 4:30:00 AM 2.14 35.852 0.074 7.25 1.76 13.09
1/3/2022 4:45:00 AM 2.1 35.78 0.074 7.25 1.8 13.1
1/3/2022 5:00:00 AM 2.07 35.726 0.074 7.25 1.74 13.11
1/3/2022 5:15:00 AM 2.03 35.654 0.074 7.25 1.76 13.12
1/3/2022 5:30:00 AM 1.99 35.582 0.074 7.25 1.72 13.14
1/3/2022 5:45:00 AM 1.96 35.528 0.074 7.24 1.7 13.15
1/3/2022 6:00:00 AM 1.93 35.474 0.074 7.25 1.68 13.17
1/3/2022 6:15:00 AM 1.9 35.42 0.074 7.24 1.68 13.18
1/3/2022 6:30:00 AM 1.87 35.366 0.074 7.24 1.8 13.18
1/3/2022 6:45:00 AM 1.84 35.312 0.074 7.25 1.7 13.19
1/3/2022 7:00:00 AM 1.81 35.258 0.074 7.24 1.72 13.21
1/3/2022 7:15:00 AM 1.77 35.186 0.074 7.24 1.77 13.23
1/3/2022 7:30:00 AM 1.74 35.132 0.074 7.24 1.71 13.24
1/3/2022 7:45:00 AM 1.7 35.06 0.074 7.25 1.73 13.27
1/3/2022 8:00:00 AM 1.66 34.988 0.074 7.25 1.74 13.32
1/3/2022 8:15:00 AM 1.62 34.916 0.074 7.26 1.69 13.37
1/3/2022 8:30:00 AM 1.58 34.844 0.074 7.28 1.7 13.45
1/3/2022 8:45:00 AM 1.53 34.754 0.074 7.3 1.68 13.55
1/3/2022 9:00:00 AM 1.5 34.7 0.074 7.34 1.73 13.66
1/3/2022 9:15:00 AM 1.47 34.646 0.074 7.38 1.67 13.83
1/3/2022 9:30:00 AM 1.44 34.592 0.074 7.43 1.7 13.98
1/3/2022 9:45:00 AM 1.42 34.556 0.074 7.48 1.67 14.1
1/3/2022 10:00:00 AM 1.41 34.538 0.073 7.54 1.66 14.21
1/3/2022 10:15:00 AM 1.38 34.484 0.073 7.6 1.62 14.32
1/3/2022 10:30:00 AM 1.37 34.466 0.073 7.65 1.61 14.4
1/3/2022 10:45:00 AM 1.34 34.412 0.073 7.72 1.68 14.46
1/3/2022 11:00:00 AM 1.33 34.394 0.073 7.76 1.67 14.51
1/3/2022 11:15:00 AM 1.31 34.358 0.073 7.83 1.66 14.57
1/3/2022 11:30:00 AM 1.31 34.358 0.073 7.94 1.65 14.65
1/3/2022 11:45:00 AM 1.29 34.322 0.073 8.05 1.62 14.71
1/3/2022 12:00:00 PM 1.3 34.34 0.073 8.12 1.59 14.74
1/3/2022 12:15:00 PM 1.3 34.34 0.073 8.17 1.6 14.75
1/3/2022 12:30:00 PM 1.28 34.304 0.073 8.29 1.57 14.79
1/3/2022 12:45:00 PM 1.29 34.322 0.072 8.34 1.63 14.81
1/3/2022 1:00:00 PM 1.31 34.358 0.072 8.41 1.62 14.83
1/3/2022 1:15:00 PM 1.3 34.34 0.072 8.45 1.62 14.82
1/3/2022 1:30:00 PM 1.29 34.322 0.072 8.46 1.55 14.8
1/3/2022 1:45:00 PM 1.28 34.304 0.072 8.48 1.56 14.79
1/3/2022 2:00:00 PM 1.25 34.25 0.072 8.48 1.56 14.77
1/3/2022 2:15:00 PM 1.24 34.232 0.072 8.49 1.58 14.77
1/3/2022 2:30:00 PM 1.24 34.232 0.072 8.49 1.6 14.74
1/3/2022 2:45:00 PM 1.22 34.196 0.072 8.51 1.57 14.75
1/3/2022 3:00:00 PM 1.2 34.16 0.072 8.47 1.71 14.71
1/3/2022 3:15:00 PM 1.17 34.106 0.072 8.42 1.69 14.68
1/3/2022 3:30:00 PM 1.14 34.052 0.072 8.34 1.63 14.63
1/3/2022 3:45:00 PM 1.11 33.998 0.072 8.24 1.58 14.58
1/3/2022 4:00:00 PM 1.08 33.944 0.072 8.06 1.55 14.5
1/3/2022 4:15:00 PM 1.03 33.854 0.072 7.9 1.55 14.39
1/3/2022 4:30:00 PM 0.99 33.782 0.072 7.75 1.58 14.26
1/3/2022 4:45:00 PM 0.92 33.656 0.072 7.64 1.77 14.14
1/3/2022 5:00:00 PM 0.87 33.566 0.073 7.56 1.56 14.03
1/3/2022 5:15:00 PM 0.81 33.458 0.073 7.49 1.61 13.93
1/3/2022 5:30:00 PM 0.73 33.314 0.073 7.43 1.59 13.87
1/3/2022 5:45:00 PM 0.68 33.224 0.073 7.4 1.63 13.83
1/3/2022 6:00:00 PM 0.59 33.062 0.073 7.38 1.64 13.81
1/3/2022 6:15:00 PM 0.53 32.954 0.073 7.35 1.61 13.79
1/3/2022 6:30:00 PM -99999.99 -179968 -99999.99 -99999.99 -99999.99 -99999.99
1/3/2022 6:45:00 PM -99999.99 -179968 -99999.99 -99999.99 -99999.99 -99999.99
1/3/2022 7:00:00 PM -99999.99 -179968 -99999.99 -99999.99 -99999.99 -99999.99
1/3/2022 7:15:00 PM -99999.99 -179968 -99999.99 -99999.99 -99999.99 -99999.99
1/3/2022 7:30:00 PM -99999.99 -179968 -99999.99 -99999.99 -99999.99 -99999.99
1/3/2022 7:45:00 PM -99999.99 -179968 -99999.99 -99999.99 -99999.99 -99999.99
1/3/2022 8:00:00 PM -99999.99 -179968 -99999.99 -99999.99 -99999.99 -99999.99
1/3/2022 8:15:00 PM -99999.99 -179968 -99999.99 -99999.99 -99999.99 -99999.99
1/3/2022 8:30:00 PM -99999.99 -179968 -99999.99 -99999.99 -99999.99 -99999.99
1/3/2022 8:45:00 PM -99999.99 -179968 -99999.99 -99999.99 -99999.99 -99999.99
1/3/2022 9:00:00 PM -99999.99 -179968 -99999.99 -99999.99 -99999.99 -99999.99
1/3/2022 9:15:00 PM -99999.99 -179968 -99999.99 -99999.99 -99999.99 -99999.99
1/3/2022 9:30:00 PM -99999.99 -179968 -99999.99 -99999.99 -99999.99 -99999.99
1/3/2022 9:45:00 PM -99999.99 -179968 -99999.99 -99999.99 -99999.99 -99999.99
1/3/2022 10:00:00 PM -99999.99 -179968 -99999.99 -99999.99 -99999.99 -99999.99
1/3/2022 10:15:00 PM -99999.99 -179968 -99999.99 -99999.99 -99999.99 -99999.99
1/3/2022 10:30:00 PM -99999.99 -179968 -99999.99 -99999.99 -99999.99 -99999.99
1/3/2022 10:45:00 PM -99999.99 -179968 -99999.99 -99999.99 -99999.99 -99999.99
1/5/2022 7:45:00 AM -99999.99 -179968 -99999.99 -99999.99 -99999.99 -99999.99
1/5/2022 8:00:00 AM -99999.99 -179968 -99999.99 -99999.99 -99999.99 -99999.99
1/5/2022 8:15:00 AM -99999.99 -179968 -99999.99 -99999.99 -99999.99 -99999.99
1/5/2022 8:30:00 AM -99999.99 -179968 -99999.99 -99999.99 -99999.99 -99999.99
1/5/2022 8:45:00 AM -99999.99 -179968 -99999.99 -99999.99 -99999.99 -99999.99
1/5/2022 9:00:00 AM -99999.99 -179968 -99999.99 -99999.99 -99999.99 -99999.99
1/5/2022 9:15:00 AM -99999.99 -179968 -99999.99 -99999.99 -99999.99 -99999.99
1/5/2022 9:30:00 AM -99999.99 -179968 -99999.99 -99999.99 -99999.99 -99999.99
1/5/2022 9:45:00 AM -99999.99 -179968 -99999.99 -99999.99 -99999.99 -99999.99
1/5/2022 10:00:00 AM -99999.99 -179968 -99999.99 -99999.99 -99999.99 -99999.99
1/5/2022 10:15:00 AM -99999.99 -179968 -99999.99 -99999.99 -99999.99 -99999.99
1/5/2022 10:30:00 AM -99999.99 -179968 -99999.99 -99999.99 -99999.99 -99999.99
1/5/2022 10:45:00 AM -99999.99 -179968 -99999.99 -99999.99 -99999.99 -99999.99
1/5/2022 11:00:00 AM -99999.99 -179968 -99999.99 -99999.99 -99999.99 -99999.99
1/5/2022 11:15:00 AM -99999.99 -179968 -99999.99 -99999.99 -99999.99 -99999.99
1/5/2022 11:30:00 AM -99999.99 -179968 -99999.99 -99999.99 -99999.99 -99999.99
1/5/2022 11:45:00 AM -99999.99 -179968 -99999.99 -99999.99 -99999.99 -99999.99
1/5/2022 12:00:00 PM 0.87 33.566 0.074 8.06 1.69 14.71
1/5/2022 12:15:00 PM -99999.99 -179968 -99999.99 -99999.99 -99999.99 -99999.99
1/5/2022 12:30:00 PM -99999.99 -179968 -99999.99 -99999.99 -99999.99 -99999.99
1/5/2022 12:45:00 PM 1.19 34.142 0.074 8.11 1.71 14.61
1/5/2022 1:00:00 PM 1.28 34.304 0.073 8.13 1.67 14.58
1/5/2022 1:15:00 PM 1.37 34.466 0.073 8.16 1.62 14.52
1/5/2022 1:30:00 PM 1.44 34.592 0.073 8.17 1.64 14.49
1/5/2022 1:45:00 PM 1.51 34.718 0.073 8.2 1.68 14.43
1/5/2022 2:00:00 PM 1.57 34.826 0.073 8.19 1.68 14.39
1/5/2022 2:15:00 PM -99999.99 -179968 -99999.99 -99999.99 -99999.99 -99999.99
1/5/2022 2:30:00 PM 1.69 35.042 0.073 8.2 1.72 14.28
1/5/2022 2:45:00 PM -99999.99 -179968 -99999.99 -99999.99 -99999.99 -99999.99
1/5/2022 3:00:00 PM -99999.99 -179968 -99999.99 -99999.99 -99999.99 -99999.99
1/5/2022 3:15:00 PM -99999.99 -179968 -99999.99 -99999.99 -99999.99 -99999.99
1/5/2022 3:30:00 PM -99999.99 -179968 -99999.99 -99999.99 -99999.99 -99999.99
1/5/2022 3:45:00 PM -99999.99 -179968 -99999.99 -99999.99 -99999.99 -99999.99
1/5/2022 4:00:00 PM -99999.99 -179968 -99999.99 -99999.99 -99999.99 -99999.99
1/5/2022 4:15:00 PM -99999.99 -179968 -99999.99 -99999.99 -99999.99 -99999.99
1/5/2022 4:30:00 PM -99999.99 -179968 -99999.99 -99999.99 -99999.99 -99999.99
1/5/2022 4:45:00 PM -99999.99 -179968 -99999.99 -99999.99 -99999.99 -99999.99
1/5/2022 5:00:00 PM -99999.99 -179968 -99999.99 -99999.99 -99999.99 -99999.99
1/5/2022 5:15:00 PM -99999.99 -179968 -99999.99 -99999.99 -99999.99 -99999.99
1/5/2022 5:30:00 PM -99999.99 -179968 -99999.99 -99999.99 -99999.99 -99999.99
1/5/2022 5:45:00 PM -99999.99 -179968 -99999.99 -99999.99 -99999.99 -99999.99
1/5/2022 6:00:00 PM -99999.99 -179968 -99999.99 -99999.99 -99999.99 -99999.99
1/5/2022 6:15:00 PM -99999.99 -179968 -99999.99 -99999.99 -99999.99 -99999.99
1/5/2022 6:30:00 PM -99999.99 -179968 -99999.99 -99999.99 -99999.99 -99999.99
1/5/2022 6:45:00 PM -99999.99 -179968 -99999.99 -99999.99 -99999.99 -99999.99
1/5/2022 7:00:00 PM -99999.99 -179968 -99999.99 -99999.99 -99999.99 -99999.99
1/5/2022 7:15:00 PM -99999.99 -179968 -99999.99 -99999.99 -99999.99 -99999.99
1/5/2022 7:30:00 PM -99999.99 -179968 -99999.99 -99999.99 -99999.99 -99999.99
1/5/2022 7:45:00 PM -99999.99 -179968 -99999.99 -99999.99 -99999.99 -99999.99
1/5/2022 8:00:00 PM -99999.99 -179968 -99999.99 -99999.99 -99999.99 -99999.99
1/5/2022 8:15:00 PM -99999.99 -179968 -99999.99 -99999.99 -99999.99 -99999.99
1/5/2022 8:30:00 PM -99999.99 -179968 -99999.99 -99999.99 -99999.99 -99999.99
1/5/2022 8:45:00 PM -99999.99 -179968 -99999.99 -99999.99 -99999.99 -99999.99
1/5/2022 9:00:00 PM -99999.99 -179968 -99999.99 -99999.99 -99999.99 -99999.99
1/5/2022 9:15:00 PM -99999.99 -179968 -99999.99 -99999.99 -99999.99 -99999.99
1/5/2022 9:30:00 PM -99999.99 -179968 -99999.99 -99999.99 -99999.99 -99999.99
1/5/2022 9:45:00 PM -99999.99 -179968 -99999.99 -99999.99 -99999.99 -99999.99
1/5/2022 10:00:00 PM -99999.99 -179968 -99999.99 -99999.99 -99999.99 -99999.99
1/5/2022 10:15:00 PM -99999.99 -179968 -99999.99 -99999.99 -99999.99 -99999.99
1/5/2022 10:30:00 PM -99999.99 -179968 -99999.99 -99999.99 -99999.99 -99999.99
1/5/2022 10:45:00 PM -99999.99 -179968 -99999.99 -99999.99 -99999.99 -99999.99
1/5/2022 11:00:00 PM -99999.99 -179968 -99999.99 -99999.99 -99999.99 -99999.99
1/5/2022 11:15:00 PM -99999.99 -179968 -99999.99 -99999.99 -99999.99 -99999.99
1/5/2022 11:30:00 PM -99999.99 -179968 -99999.99 -99999.99 -99999.99 -99999.99
1/5/2022 11:45:00 PM -99999.99 -179968 -99999.99 -99999.99 -99999.99 -99999.99
1/6/2022 12:00:00 AM -99999.99 -179968 -99999.99 -99999.99 -99999.99 -99999.99
1/6/2022 12:15:00 AM -99999.99 -179968 -99999.99 -99999.99 -99999.99 -99999.99
1/6/2022 12:30:00 AM -99999.99 -179968 -99999.99 -99999.99 -99999.99 -99999.99
1/6/2022 12:45:00 AM -99999.99 -179968 -99999.99 -99999.99 -99999.99 -99999.99
1/6/2022 1:00:00 AM -99999.99 -179968 -99999.99 -99999.99 -99999.99 -99999.99
1/6/2022 1:15:00 AM -99999.99 -179968 -99999.99 -99999.99 -99999.99 -99999.99
1/6/2022 1:30:00 AM -99999.99 -179968 -99999.99 -99999.99 -99999.99 -99999.99
1/6/2022 1:45:00 AM -99999.99 -179968 -99999.99 -99999.99 -99999.99 -99999.99
1/6/2022 2:00:00 AM -99999.99 -179968 -99999.99 -99999.99 -99999.99 -99999.99
1/6/2022 2:15:00 AM -99999.99 -179968 -99999.99 -99999.99 -99999.99 -99999.99
1/6/2022 2:30:00 AM -99999.99 -179968 -99999.99 -99999.99 -99999.99 -99999.99
1/6/2022 2:45:00 AM -99999.99 -179968 -99999.99 -99999.99 -99999.99 -99999.99
1/6/2022 3:00:00 AM -99999.99 -179968 -99999.99 -99999.99 -99999.99 -99999.99
1/6/2022 3:15:00 AM -99999.99 -179968 -99999.99 -99999.99 -99999.99 -99999.99
1/6/2022 3:30:00 AM -99999.99 -179968 -99999.99 -99999.99 -99999.99 -99999.99
1/6/2022 3:45:00 AM -99999.99 -179968 -99999.99 -99999.99 -99999.99 -99999.99
1/6/2022 4:00:00 AM -99999.99 -179968 -99999.99 -99999.99 -99999.99 -99999.99
1/6/2022 4:15:00 AM -99999.99 -179968 -99999.99 -99999.99 -99999.99 -99999.99
1/6/2022 4:30:00 AM -99999.99 -179968 -99999.99 -99999.99 -99999.99 -99999.99
1/6/2022 4:45:00 AM -99999.99 -179968 -99999.99 -99999.99 -99999.99 -99999.99
1/6/2022 5:00:00 AM -99999.99 -179968 -99999.99 -99999.99 -99999.99 -99999.99
1/6/2022 5:15:00 AM -99999.99 -179968 -99999.99 -99999.99 -99999.99 -99999.99
1/6/2022 5:30:00 AM -99999.99 -179968 -99999.99 -99999.99 -99999.99 -99999.99
1/6/2022 5:45:00 AM -99999.99 -179968 -99999.99 -99999.99 -99999.99 -99999.99
1/6/2022 6:00:00 AM -99999.99 -179968 -99999.99 -99999.99 -99999.99 -99999.99
1/6/2022 6:15:00 AM -99999.99 -179968 -99999.99 -99999.99 -99999.99 -99999.99
1/6/2022 6:30:00 AM -99999.99 -179968 -99999.99 -99999.99 -99999.99 -99999.99
1/6/2022 6:45:00 AM -99999.99 -179968 -99999.99 -99999.99 -99999.99 -99999.99
1/6/2022 7:00:00 AM -99999.99 -179968 -99999.99 -99999.99 -99999.99 -99999.99
1/6/2022 7:15:00 AM -99999.99 -179968 -99999.99 -99999.99 -99999.99 -99999.99
1/6/2022 7:30:00 AM -99999.99 -179968 -99999.99 -99999.99 -99999.99 -99999.99
1/6/2022 7:45:00 AM -99999.99 -179968 -99999.99 -99999.99 -99999.99 -99999.99
1/6/2022 8:00:00 AM -99999.99 -179968 -99999.99 -99999.99 -99999.99 -99999.99
1/6/2022 8:15:00 AM -99999.99 -179968 -99999.99 -99999.99 -99999.99 -99999.99
1/6/2022 8:30:00 AM -99999.99 -179968 -99999.99 -99999.99 -99999.99 -99999.99
1/6/2022 8:45:00 AM -99999.99 -179968 -99999.99 -99999.99 -99999.99 -99999.99
1/6/2022 9:00:00 AM -99999.99 -179968 -99999.99 -99999.99 -99999.99 -99999.99
1/6/2022 9:15:00 AM -99999.99 -179968 -99999.99 -99999.99 -99999.99 -99999.99
1/6/2022 9:30:00 AM -99999.99 -179968 -99999.99 -99999.99 -99999.99 -99999.99
1/6/2022 9:45:00 AM -99999.99 -179968 -99999.99 -99999.99 -99999.99 -99999.99
1/6/2022 10:00:00 AM -99999.99 -179968 -99999.99 -99999.99 -99999.99 -99999.99
1/6/2022 10:15:00 AM -99999.99 -179968 -99999.99 -99999.99 -99999.99 -99999.99
1/6/2022 10:30:00 AM -99999.99 -179968 -99999.99 -99999.99 -99999.99 -99999.99
1/6/2022 10:45:00 AM -99999.99 -179968 -99999.99 -99999.99 -99999.99 -99999.99
1/6/2022 11:00:00 AM -99999.99 -179968 -99999.99 -99999.99 -99999.99 -99999.99
1/6/2022 11:15:00 AM -99999.99 -179968 -99999.99 -99999.99 -99999.99 -99999.99
1/6/2022 11:30:00 AM -99999.99 -179968 -99999.99 -99999.99 -99999.99 -99999.99
1/6/2022 11:45:00 AM -99999.99 -179968 -99999.99 -99999.99 -99999.99 -99999.99
1/6/2022 12:00:00 PM -99999.99 -179968 -99999.99 -99999.99 -99999.99 -99999.99
1/6/2022 12:15:00 PM -99999.99 -179968 -99999.99 -99999.99 -99999.99 -99999.99
1/6/2022 12:30:00 PM 1.32 34.376 0.073 8.08 1.7 14.58
1/6/2022 12:45:00 PM 1.38 34.484 0.073 8.14 1.76 14.6
1/6/2022 1:00:00 PM 1.42 34.556 0.073 8.17 1.67 14.58
1/6/2022 1:15:00 PM 1.45 34.61 0.073 8.19 1.71 14.56
1/6/2022 1:30:00 PM 1.47 34.646 0.073 8.19 1.68 14.53
1/6/2022 1:45:00 PM 1.47 34.646 0.073 8.19 1.64 14.49
1/6/2022 2:00:00 PM -99999.99 -179968 -99999.99 -99999.99 -99999.99 -99999.99
1/6/2022 2:15:00 PM -99999.99 -179968 -99999.99 -99999.99 -99999.99 -99999.99
1/6/2022 2:30:00 PM -99999.99 -179968 -99999.99 -99999.99 -99999.99 -99999.99
1/6/2022 2:45:00 PM -99999.99 -179968 -99999.99 -99999.99 -99999.99 -99999.99
1/6/2022 3:00:00 PM -99999.99 -179968 -99999.99 -99999.99 -99999.99 -99999.99
1/6/2022 3:15:00 PM -99999.99 -179968 -99999.99 -99999.99 -99999.99 -99999.99
1/6/2022 3:30:00 PM -99999.99 -179968 -99999.99 -99999.99 -99999.99 -99999.99
1/6/2022 3:45:00 PM -99999.99 -179968 -99999.99 -99999.99 -99999.99 -99999.99
1/6/2022 4:00:00 PM -99999.99 -179968 -99999.99 -99999.99 -99999.99 -99999.99
1/6/2022 4:15:00 PM -99999.99 -179968 -99999.99 -99999.99 -99999.99 -99999.99
1/6/2022 4:30:00 PM -99999.99 -179968 -99999.99 -99999.99 -99999.99 -99999.99
1/6/2022 4:45:00 PM -99999.99 -179968 -99999.99 -99999.99 -99999.99 -99999.99
1/6/2022 5:00:00 PM -99999.99 -179968 -99999.99 -99999.99 -99999.99 -99999.99
1/6/2022 5:15:00 PM -99999.99 -179968 -99999.99 -99999.99 -99999.99 -99999.99
1/6/2022 5:30:00 PM -99999.99 -179968 -99999.99 -99999.99 -99999.99 -99999.99
1/6/2022 5:45:00 PM -99999.99 -179968 -99999.99 -99999.99 -99999.99 -99999.99
1/6/2022 6:00:00 PM -99999.99 -179968 -99999.99 -99999.99 -99999.99 -99999.99
1/6/2022 6:15:00 PM -99999.99 -179968 -99999.99 -99999.99 -99999.99 -99999.99
1/6/2022 6:30:00 PM -99999.99 -179968 -99999.99 -99999.99 -99999.99 -99999.99
1/6/2022 6:45:00 PM -99999.99 -179968 -99999.99 -99999.99 -99999.99 -99999.99
1/6/2022 7:00:00 PM -99999.99 -179968 -99999.99 -99999.99 -99999.99 -99999.99
1/6/2022 7:15:00 PM -99999.99 -179968 -99999.99 -99999.99 -99999.99 -99999.99
1/6/2022 7:30:00 PM -99999.99 -179968 -99999.99 -99999.99 -99999.99 -99999.99
1/6/2022 7:45:00 PM -99999.99 -179968 -99999.99 -99999.99 -99999.99 -99999.99
1/6/2022 8:00:00 PM -99999.99 -179968 -99999.99 -99999.99 -99999.99 -99999.99
1/6/2022 8:15:00 PM -99999.99 -179968 -99999.99 -99999.99 -99999.99 -99999.99
1/6/2022 8:30:00 PM -99999.99 -179968 -99999.99 -99999.99 -99999.99 -99999.99
1/6/2022 8:45:00 PM -99999.99 -179968 -99999.99 -99999.99 -99999.99 -99999.99
1/6/2022 9:00:00 PM -99999.99 -179968 -99999.99 -99999.99 -99999.99 -99999.99
1/6/2022 9:15:00 PM -99999.99 -179968 -99999.99 -99999.99 -99999.99 -99999.99
1/6/2022 9:30:00 PM -99999.99 -179968 -99999.99 -99999.99 -99999.99 -99999.99
1/6/2022 9:45:00 PM -99999.99 -179968 -99999.99 -99999.99 -99999.99 -99999.99
1/6/2022 10:00:00 PM -99999.99 -179968 -99999.99 -99999.99 -99999.99 -99999.99
1/6/2022 10:15:00 PM -99999.99 -179968 -99999.99 -99999.99 -99999.99 -99999.99
1/6/2022 10:30:00 PM -99999.99 -179968 -99999.99 -99999.99 -99999.99 -99999.99
1/6/2022 10:45:00 PM -99999.99 -179968 -99999.99 -99999.99 -99999.99 -99999.99
1/6/2022 11:00:00 PM -99999.99 -179968 -99999.99 -99999.99 -99999.99 -99999.99
1/6/2022 11:15:00 PM -99999.99 -179968 -99999.99 -99999.99 -99999.99 -99999.99
1/6/2022 11:30:00 PM -99999.99 -179968 -99999.99 -99999.99 -99999.99 -99999.99
1/6/2022 11:45:00 PM -99999.99 -179968 -99999.99 -99999.99 -99999.99 -99999.99
1/7/2022 12:00:00 AM -99999.99 -179968 -99999.99 -99999.99 -99999.99 -99999.99
1/7/2022 12:15:00 AM -99999.99 -179968 -99999.99 -99999.99 -99999.99 -99999.99
1/7/2022 12:30:00 AM -99999.99 -179968 -99999.99 -99999.99 -99999.99 -99999.99
1/7/2022 12:45:00 AM -99999.99 -179968 -99999.99 -99999.99 -99999.99 -99999.99
1/7/2022 1:00:00 AM -99999.99 -179968 -99999.99 -99999.99 -99999.99 -99999.99
1/7/2022 1:15:00 AM -99999.99 -179968 -99999.99 -99999.99 -99999.99 -99999.99
1/7/2022 1:30:00 AM -99999.99 -179968 -99999.99 -99999.99 -99999.99 -99999.99
1/7/2022 1:45:00 AM -99999.99 -179968 -99999.99 -99999.99 -99999.99 -99999.99
1/7/2022 2:00:00 AM -99999.99 -179968 -99999.99 -99999.99 -99999.99 -99999.99
1/7/2022 2:15:00 AM -99999.99 -179968 -99999.99 -99999.99 -99999.99 -99999.99
1/7/2022 2:30:00 AM -99999.99 -179968 -99999.99 -99999.99 -99999.99 -99999.99
1/7/2022 2:45:00 AM -99999.99 -179968 -99999.99 -99999.99 -99999.99 -99999.99
1/7/2022 3:00:00 AM -99999.99 -179968 -99999.99 -99999.99 -99999.99 -99999.99
1/7/2022 3:15:00 AM -99999.99 -179968 -99999.99 -99999.99 -99999.99 -99999.99
1/7/2022 3:30:00 AM -99999.99 -179968 -99999.99 -99999.99 -99999.99 -99999.99
1/7/2022 3:45:00 AM -99999.99 -179968 -99999.99 -99999.99 -99999.99 -99999.99
1/7/2022 4:00:00 AM -99999.99 -179968 -99999.99 -99999.99 -99999.99 -99999.99
1/7/2022 4:15:00 AM -99999.99 -179968 -99999.99 -99999.99 -99999.99 -99999.99
1/7/2022 4:30:00 AM -99999.99 -179968 -99999.99 -99999.99 -99999.99 -99999.99
1/7/2022 4:45:00 AM -99999.99 -179968 -99999.99 -99999.99 -99999.99 -99999.99
1/7/2022 5:00:00 AM -99999.99 -179968 -99999.99 -99999.99 -99999.99 -99999.99
1/7/2022 5:15:00 AM -99999.99 -179968 -99999.99 -99999.99 -99999.99 -99999.99
1/7/2022 5:30:00 AM -99999.99 -179968 -99999.99 -99999.99 -99999.99 -99999.99
1/7/2022 5:45:00 AM -99999.99 -179968 -99999.99 -99999.99 -99999.99 -99999.99
1/7/2022 6:00:00 AM -99999.99 -179968 -99999.99 -99999.99 -99999.99 -99999.99
1/7/2022 6:15:00 AM -99999.99 -179968 -99999.99 -99999.99 -99999.99 -99999.99
1/7/2022 6:30:00 AM -99999.99 -179968 -99999.99 -99999.99 -99999.99 -99999.99
1/7/2022 6:45:00 AM -99999.99 -179968 -99999.99 -99999.99 -99999.99 -99999.99
1/7/2022 7:00:00 AM -99999.99 -179968 -99999.99 -99999.99 -99999.99 -99999.99
1/7/2022 7:15:00 AM -99999.99 -179968 -99999.99 -99999.99 -99999.99 -99999.99
1/7/2022 7:30:00 AM -99999.99 -179968 -99999.99 -99999.99 -99999.99 -99999.99
1/7/2022 7:45:00 AM -99999.99 -179968 -99999.99 -99999.99 -99999.99 -99999.99
1/7/2022 8:00:00 AM -99999.99 -179968 -99999.99 -99999.99 -99999.99 -99999.99
1/7/2022 8:15:00 AM -99999.99 -179968 -99999.99 -99999.99 -99999.99 -99999.99
1/7/2022 8:30:00 AM -99999.99 -179968 -99999.99 -99999.99 -99999.99 -99999.99
1/7/2022 8:45:00 AM -99999.99 -179968 -99999.99 -99999.99 -99999.99 -99999.99
1/7/2022 9:00:00 AM -99999.99 -179968 -99999.99 -99999.99 -99999.99 -99999.99
1/7/2022 9:15:00 AM -99999.99 -179968 -99999.99 -99999.99 -99999.99 -99999.99
1/7/2022 9:30:00 AM -99999.99 -179968 -99999.99 -99999.99 -99999.99 -99999.99
1/7/2022 9:45:00 AM -99999.99 -179968 -99999.99 -99999.99 -99999.99 -99999.99
1/7/2022 10:00:00 AM -99999.99 -179968 -99999.99 -99999.99 -99999.99 -99999.99
1/7/2022 10:15:00 AM -99999.99 -179968 -99999.99 -99999.99 -99999.99 -99999.99
1/7/2022 10:30:00 AM -99999.99 -179968 -99999.99 -99999.99 -99999.99 -99999.99
1/7/2022 10:45:00 AM -99999.99 -179968 -99999.99 -99999.99 -99999.99 -99999.99
1/7/2022 11:00:00 AM -99999.99 -179968 -99999.99 -99999.99 -99999.99 -99999.99
1/7/2022 11:15:00 AM -99999.99 -179968 -99999.99 -99999.99 -99999.99 -99999.99
1/7/2022 11:30:00 AM -99999.99 -179968 -99999.99 -99999.99 -99999.99 -99999.99
1/7/2022 11:45:00 AM -99999.99 -179968 -99999.99 -99999.99 -99999.99 -99999.99
1/7/2022 12:00:00 PM -99999.99 -179968 -99999.99 -99999.99 -99999.99 -99999.99
1/7/2022 12:15:00 PM -99999.99 -179968 -99999.99 -99999.99 -99999.99 -99999.99
1/7/2022 12:30:00 PM -99999.99 -179968 -99999.99 -99999.99 -99999.99 -99999.99
1/7/2022 12:45:00 PM -99999.99 -179968 -99999.99 -99999.99 -99999.99 -99999.99
1/7/2022 1:00:00 PM -99999.99 -179968 -99999.99 -99999.99 -99999.99 -99999.99
1/7/2022 1:15:00 PM -99999.99 -179968 -99999.99 -99999.99 -99999.99 -99999.99
1/7/2022 1:30:00 PM -99999.99 -179968 -99999.99 -99999.99 -99999.99 -99999.99
1/7/2022 1:45:00 PM -99999.99 -179968 -99999.99 -99999.99 -99999.99 -99999.99
1/7/2022 2:00:00 PM -99999.99 -179968 -99999.99 -99999.99 -99999.99 -99999.99
1/7/2022 2:30:00 PM -99999.99 -179968 -99999.99 -99999.99 -99999.99 -99999.99
1/7/2022 3:15:00 PM -99999.99 -179968 -99999.99 -99999.99 -99999.99 -99999.99
1/7/2022 3:30:00 PM -99999.99 -179968 -99999.99 -99999.99 -99999.99 -99999.99
1/7/2022 3:45:00 PM -99999.99 -179968 -99999.99 -99999.99 -99999.99 -99999.99
1/7/2022 4:00:00 PM -99999.99 -179968 -99999.99 -99999.99 -99999.99 -99999.99
1/7/2022 4:15:00 PM -99999.99 -179968 -99999.99 -99999.99 -99999.99 -99999.99
1/7/2022 4:30:00 PM -99999.99 -179968 -99999.99 -99999.99 -99999.99 -99999.99
1/7/2022 4:45:00 PM -99999.99 -179968 -99999.99 -99999.99 -99999.99 -99999.99
1/7/2022 5:00:00 PM -99999.99 -179968 -99999.99 -99999.99 -99999.99 -99999.99
1/7/2022 5:15:00 PM -99999.99 -179968 -99999.99 -99999.99 -99999.99 -99999.99
1/7/2022 5:30:00 PM -99999.99 -179968 -99999.99 -99999.99 -99999.99 -99999.99
1/7/2022 5:45:00 PM -99999.99 -179968 -99999.99 -99999.99 -99999.99 -99999.99
1/7/2022 6:00:00 PM -99999.99 -179968 -99999.99 -99999.99 -99999.99 -99999.99
1/7/2022 6:15:00 PM -99999.99 -179968 -99999.99 -99999.99 -99999.99 -99999.99
1/7/2022 6:30:00 PM -99999.99 -179968 -99999.99 -99999.99 -99999.99 -99999.99
1/7/2022 6:45:00 PM -99999.99 -179968 -99999.99 -99999.99 -99999.99 -99999.99
1/7/2022 7:00:00 PM -99999.99 -179968 -99999.99 -99999.99 -99999.99 -99999.99
1/7/2022 7:15:00 PM -99999.99 -179968 -99999.99 -99999.99 -99999.99 -99999.99
1/7/2022 7:30:00 PM -99999.99 -179968 -99999.99 -99999.99 -99999.99 -99999.99
1/7/2022 7:45:00 PM -99999.99 -179968 -99999.99 -99999.99 -99999.99 -99999.99
1/7/2022 8:00:00 PM -99999.99 -179968 -99999.99 -99999.99 -99999.99 -99999.99
1/7/2022 8:15:00 PM -99999.99 -179968 -99999.99 -99999.99 -99999.99 -99999.99
1/7/2022 8:30:00 PM -99999.99 -179968 -99999.99 -99999.99 -99999.99 -99999.99
1/7/2022 8:45:00 PM -99999.99 -179968 -99999.99 -99999.99 -99999.99 -99999.99
1/7/2022 9:00:00 PM -99999.99 -179968 -99999.99 -99999.99 -99999.99 -99999.99
1/7/2022 9:15:00 PM -99999.99 -179968 -99999.99 -99999.99 -99999.99 -99999.99
1/7/2022 9:30:00 PM -99999.99 -179968 -99999.99 -99999.99 -99999.99 -99999.99
1/7/2022 9:45:00 PM -99999.99 -179968 -99999.99 -99999.99 -99999.99 -99999.99
1/7/2022 10:00:00 PM -99999.99 -179968 -99999.99 -99999.99 -99999.99 -99999.99
1/7/2022 10:15:00 PM -99999.99 -179968 -99999.99 -99999.99 -99999.99 -99999.99
1/7/2022 10:30:00 PM -99999.99 -179968 -99999.99 -99999.99 -99999.99 -99999.99
1/7/2022 10:45:00 PM -99999.99 -179968 -99999.99 -99999.99 -99999.99 -99999.99
1/7/2022 11:00:00 PM -99999.99 -179968 -99999.99 -99999.99 -99999.99 -99999.99
1/7/2022 11:15:00 PM -99999.99 -179968 -99999.99 -99999.99 -99999.99 -99999.99
1/7/2022 11:30:00 PM -99999.99 -179968 -99999.99 -99999.99 -99999.99 -99999.99
1/7/2022 11:45:00 PM -99999.99 -179968 -99999.99 -99999.99 -99999.99 -99999.99
1/8/2022 12:00:00 AM -99999.99 -179968 -99999.99 -99999.99 -99999.99 -99999.99
1/8/2022 12:15:00 AM -99999.99 -179968 -99999.99 -99999.99 -99999.99 -99999.99
1/8/2022 12:30:00 AM -99999.99 -179968 -99999.99 -99999.99 -99999.99 -99999.99
1/8/2022 12:45:00 AM -99999.99 -179968 -99999.99 -99999.99 -99999.99 -99999.99
1/8/2022 1:00:00 AM -99999.99 -179968 -99999.99 -99999.99 -99999.99 -99999.99
1/8/2022 1:15:00 AM -99999.99 -179968 -99999.99 -99999.99 -99999.99 -99999.99
1/8/2022 1:30:00 AM -99999.99 -179968 -99999.99 -99999.99 -99999.99 -99999.99
1/8/2022 1:45:00 AM -99999.99 -179968 -99999.99 -99999.99 -99999.99 -99999.99
1/8/2022 2:00:00 AM -99999.99 -179968 -99999.99 -99999.99 -99999.99 -99999.99
1/8/2022 2:15:00 AM -99999.99 -179968 -99999.99 -99999.99 -99999.99 -99999.99
1/8/2022 2:30:00 AM -99999.99 -179968 -99999.99 -99999.99 -99999.99 -99999.99
1/8/2022 2:45:00 AM -99999.99 -179968 -99999.99 -99999.99 -99999.99 -99999.99
1/8/2022 3:00:00 AM -99999.99 -179968 -99999.99 -99999.99 -99999.99 -99999.99
1/8/2022 3:15:00 AM -99999.99 -179968 -99999.99 -99999.99 -99999.99 -99999.99
1/8/2022 3:30:00 AM -99999.99 -179968 -99999.99 -99999.99 -99999.99 -99999.99
1/8/2022 3:45:00 AM -99999.99 -179968 -99999.99 -99999.99 -99999.99 -99999.99
1/8/2022 4:00:00 AM -99999.99 -179968 -99999.99 -99999.99 -99999.99 -99999.99
1/8/2022 4:15:00 AM -99999.99 -179968 -99999.99 -99999.99 -99999.99 -99999.99
1/8/2022 4:30:00 AM -99999.99 -179968 -99999.99 -99999.99 -99999.99 -99999.99
1/8/2022 4:45:00 AM -99999.99 -179968 -99999.99 -99999.99 -99999.99 -99999.99
1/8/2022 5:00:00 AM -99999.99 -179968 -99999.99 -99999.99 -99999.99 -99999.99
1/8/2022 5:15:00 AM -99999.99 -179968 -99999.99 -99999.99 -99999.99 -99999.99
1/8/2022 5:30:00 AM -99999.99 -179968 -99999.99 -99999.99 -99999.99 -99999.99
1/8/2022 5:45:00 AM -99999.99 -179968 -99999.99 -99999.99 -99999.99 -99999.99
1/8/2022 6:00:00 AM -99999.99 -179968 -99999.99 -99999.99 -99999.99 -99999.99
1/8/2022 6:15:00 AM -99999.99 -179968 -99999.99 -99999.99 -99999.99 -99999.99
1/8/2022 6:30:00 AM -99999.99 -179968 -99999.99 -99999.99 -99999.99 -99999.99
1/8/2022 6:45:00 AM -99999.99 -179968 -99999.99 -99999.99 -99999.99 -99999.99
1/8/2022 7:00:00 AM -99999.99 -179968 -99999.99 -99999.99 -99999.99 -99999.99
1/8/2022 7:15:00 AM -99999.99 -179968 -99999.99 -99999.99 -99999.99 -99999.99
1/8/2022 7:30:00 AM -99999.99 -179968 -99999.99 -99999.99 -99999.99 -99999.99
1/8/2022 7:45:00 AM -99999.99 -179968 -99999.99 -99999.99 -99999.99 -99999.99
1/8/2022 8:00:00 AM -99999.99 -179968 -99999.99 -99999.99 -99999.99 -99999.99
1/8/2022 8:15:00 AM -99999.99 -179968 -99999.99 -99999.99 -99999.99 -99999.99
1/8/2022 8:30:00 AM -99999.99 -179968 -99999.99 -99999.99 -99999.99 -99999.99
1/8/2022 8:45:00 AM -99999.99 -179968 -99999.99 -99999.99 -99999.99 -99999.99
1/8/2022 9:00:00 AM -99999.99 -179968 -99999.99 -99999.99 -99999.99 -99999.99
1/8/2022 9:15:00 AM -99999.99 -179968 -99999.99 -99999.99 -99999.99 -99999.99
1/8/2022 9:30:00 AM -99999.99 -179968 -99999.99 -99999.99 -99999.99 -99999.99
1/8/2022 9:45:00 AM -99999.99 -179968 -99999.99 -99999.99 -99999.99 -99999.99
1/8/2022 10:00:00 AM -99999.99 -179968 -99999.99 -99999.99 -99999.99 -99999.99
1/8/2022 10:15:00 AM -99999.99 -179968 -99999.99 -99999.99 -99999.99 -99999.99
1/8/2022 10:30:00 AM -99999.99 -179968 -99999.99 -99999.99 -99999.99 -99999.99
1/8/2022 10:45:00 AM -99999.99 -179968 -99999.99 -99999.99 -99999.99 -99999.99
1/8/2022 11:00:00 AM -99999.99 -179968 -99999.99 -99999.99 -99999.99 -99999.99
1/8/2022 11:15:00 AM -99999.99 -179968 -99999.99 -99999.99 -99999.99 -99999.99
1/8/2022 11:30:00 AM -99999.99 -179968 -99999.99 -99999.99 -99999.99 -99999.99
1/8/2022 11:45:00 AM -99999.99 -179968 -99999.99 -99999.99 -99999.99 -99999.99
1/8/2022 12:00:00 PM -99999.99 -179968 -99999.99 -99999.99 -99999.99 -99999.99
1/8/2022 12:15:00 PM -99999.99 -179968 -99999.99 -99999.99 -99999.99 -99999.99
1/8/2022 12:30:00 PM -99999.99 -179968 -99999.99 -99999.99 -99999.99 -99999.99
1/8/2022 12:45:00 PM -99999.99 -179968 -99999.99 -99999.99 -99999.99 -99999.99
1/8/2022 1:00:00 PM -99999.99 -179968 -99999.99 -99999.99 -99999.99 -99999.99
1/8/2022 1:15:00 PM -99999.99 -179968 -99999.99 -99999.99 -99999.99 -99999.99
1/8/2022 1:30:00 PM -99999.99 -179968 -99999.99 -99999.99 -99999.99 -99999.99
1/8/2022 1:45:00 PM -99999.99 -179968 -99999.99 -99999.99 -99999.99 -99999.99
1/8/2022 2:00:00 PM -99999.99 -179968 -99999.99 -99999.99 -99999.99 -99999.99
1/8/2022 2:15:00 PM -99999.99 -179968 -99999.99 -99999.99 -99999.99 -99999.99
1/8/2022 2:30:00 PM -99999.99 -179968 -99999.99 -99999.99 -99999.99 -99999.99
1/8/2022 2:45:00 PM -99999.99 -179968 -99999.99 -99999.99 -99999.99 -99999.99
1/8/2022 3:00:00 PM -99999.99 -179968 -99999.99 -99999.99 -99999.99 -99999.99
1/8/2022 3:15:00 PM -99999.99 -179968 -99999.99 -99999.99 -99999.99 -99999.99
1/8/2022 3:30:00 PM -99999.99 -179968 -99999.99 -99999.99 -99999.99 -99999.99
1/8/2022 3:45:00 PM -99999.99 -179968 -99999.99 -99999.99 -99999.99 -99999.99
1/8/2022 4:00:00 PM -99999.99 -179968 -99999.99 -99999.99 -99999.99 -99999.99
1/8/2022 4:15:00 PM -99999.99 -179968 -99999.99 -99999.99 -99999.99 -99999.99
1/8/2022 4:30:00 PM -99999.99 -179968 -99999.99 -99999.99 -99999.99 -99999.99
1/8/2022 4:45:00 PM -99999.99 -179968 -99999.99 -99999.99 -99999.99 -99999.99
1/8/2022 5:00:00 PM -99999.99 -179968 -99999.99 -99999.99 -99999.99 -99999.99
1/8/2022 5:15:00 PM -99999.99 -179968 -99999.99 -99999.99 -99999.99 -99999.99
1/8/2022 5:30:00 PM -99999.99 -179968 -99999.99 -99999.99 -99999.99 -99999.99
1/8/2022 5:45:00 PM -99999.99 -179968 -99999.99 -99999.99 -99999.99 -99999.99
1/8/2022 6:00:00 PM -99999.99 -179968 -99999.99 -99999.99 -99999.99 -99999.99
1/8/2022 6:15:00 PM -99999.99 -179968 -99999.99 -99999.99 -99999.99 -99999.99
1/8/2022 6:30:00 PM -99999.99 -179968 -99999.99 -99999.99 -99999.99 -99999.99
1/8/2022 6:45:00 PM -99999.99 -179968 -99999.99 -99999.99 -99999.99 -99999.99
1/8/2022 7:00:00 PM -99999.99 -179968 -99999.99 -99999.99 -99999.99 -99999.99
1/8/2022 7:15:00 PM -99999.99 -179968 -99999.99 -99999.99 -99999.99 -99999.99
1/8/2022 7:30:00 PM -99999.99 -179968 -99999.99 -99999.99 -99999.99 -99999.99
1/8/2022 7:45:00 PM -99999.99 -179968 -99999.99 -99999.99 -99999.99 -99999.99
1/8/2022 8:00:00 PM -99999.99 -179968 -99999.99 -99999.99 -99999.99 -99999.99
1/8/2022 8:15:00 PM -99999.99 -179968 -99999.99 -99999.99 -99999.99 -99999.99
1/8/2022 8:30:00 PM -99999.99 -179968 -99999.99 -99999.99 -99999.99 -99999.99
1/8/2022 8:45:00 PM -99999.99 -179968 -99999.99 -99999.99 -99999.99 -99999.99
1/8/2022 9:00:00 PM -99999.99 -179968 -99999.99 -99999.99 -99999.99 -99999.99
1/8/2022 9:15:00 PM -99999.99 -179968 -99999.99 -99999.99 -99999.99 -99999.99
1/8/2022 9:30:00 PM -99999.99 -179968 -99999.99 -99999.99 -99999.99 -99999.99
1/8/2022 9:45:00 PM -99999.99 -179968 -99999.99 -99999.99 -99999.99 -99999.99
1/8/2022 10:00:00 PM -99999.99 -179968 -99999.99 -99999.99 -99999.99 -99999.99
1/8/2022 10:15:00 PM -99999.99 -179968 -99999.99 -99999.99 -99999.99 -99999.99
1/8/2022 10:30:00 PM -99999.99 -179968 -99999.99 -99999.99 -99999.99 -99999.99
1/8/2022 10:45:00 PM -99999.99 -179968 -99999.99 -99999.99 -99999.99 -99999.99
1/8/2022 11:00:00 PM -99999.99 -179968 -99999.99 -99999.99 -99999.99 -99999.99
1/8/2022 11:15:00 PM -99999.99 -179968 -99999.99 -99999.99 -99999.99 -99999.99
1/8/2022 11:30:00 PM -99999.99 -179968 -99999.99 -99999.99 -99999.99 -99999.99
1/8/2022 11:45:00 PM -99999.99 -179968 -99999.99 -99999.99 -99999.99 -99999.99
1/9/2022 12:00:00 AM -99999.99 -179968 -99999.99 -99999.99 -99999.99 -99999.99
1/9/2022 12:15:00 AM -99999.99 -179968 -99999.99 -99999.99 -99999.99 -99999.99
1/9/2022 12:30:00 AM -99999.99 -179968 -99999.99 -99999.99 -99999.99 -99999.99
1/9/2022 12:45:00 AM -99999.99 -179968 -99999.99 -99999.99 -99999.99 -99999.99
1/9/2022 1:00:00 AM -99999.99 -179968 -99999.99 -99999.99 -99999.99 -99999.99
1/9/2022 1:15:00 AM -99999.99 -179968 -99999.99 -99999.99 -99999.99 -99999.99
1/9/2022 1:30:00 AM -99999.99 -179968 -99999.99 -99999.99 -99999.99 -99999.99
1/9/2022 1:45:00 AM -99999.99 -179968 -99999.99 -99999.99 -99999.99 -99999.99
1/9/2022 2:00:00 AM -99999.99 -179968 -99999.99 -99999.99 -99999.99 -99999.99
1/9/2022 2:15:00 AM -99999.99 -179968 -99999.99 -99999.99 -99999.99 -99999.99
1/9/2022 2:30:00 AM -99999.99 -179968 -99999.99 -99999.99 -99999.99 -99999.99
1/9/2022 2:45:00 AM -99999.99 -179968 -99999.99 -99999.99 -99999.99 -99999.99
1/9/2022 3:00:00 AM -99999.99 -179968 -99999.99 -99999.99 -99999.99 -99999.99
1/9/2022 3:15:00 AM -99999.99 -179968 -99999.99 -99999.99 -99999.99 -99999.99
1/9/2022 3:30:00 AM -99999.99 -179968 -99999.99 -99999.99 -99999.99 -99999.99
1/9/2022 3:45:00 AM -99999.99 -179968 -99999.99 -99999.99 -99999.99 -99999.99
1/9/2022 4:00:00 AM -99999.99 -179968 -99999.99 -99999.99 -99999.99 -99999.99
1/9/2022 4:15:00 AM -99999.99 -179968 -99999.99 -99999.99 -99999.99 -99999.99
1/9/2022 4:30:00 AM -99999.99 -179968 -99999.99 -99999.99 -99999.99 -99999.99
1/9/2022 4:45:00 AM -99999.99 -179968 -99999.99 -99999.99 -99999.99 -99999.99
1/9/2022 5:00:00 AM -99999.99 -179968 -99999.99 -99999.99 -99999.99 -99999.99
1/9/2022 5:15:00 AM -99999.99 -179968 -99999.99 -99999.99 -99999.99 -99999.99
1/9/2022 5:30:00 AM -99999.99 -179968 -99999.99 -99999.99 -99999.99 -99999.99
1/9/2022 5:45:00 AM -99999.99 -179968 -99999.99 -99999.99 -99999.99 -99999.99
1/9/2022 6:00:00 AM -99999.99 -179968 -99999.99 -99999.99 -99999.99 -99999.99
1/9/2022 6:15:00 AM -99999.99 -179968 -99999.99 -99999.99 -99999.99 -99999.99
1/9/2022 6:30:00 AM -99999.99 -179968 -99999.99 -99999.99 -99999.99 -99999.99
1/9/2022 6:45:00 AM -99999.99 -179968 -99999.99 -99999.99 -99999.99 -99999.99
1/9/2022 7:00:00 AM -99999.99 -179968 -99999.99 -99999.99 -99999.99 -99999.99
1/9/2022 7:15:00 AM -99999.99 -179968 -99999.99 -99999.99 -99999.99 -99999.99
1/9/2022 7:30:00 AM -99999.99 -179968 -99999.99 -99999.99 -99999.99 -99999.99
1/9/2022 7:45:00 AM -99999.99 -179968 -99999.99 -99999.99 -99999.99 -99999.99
1/9/2022 8:00:00 AM -99999.99 -179968 -99999.99 -99999.99 -99999.99 -99999.99
1/9/2022 8:15:00 AM -99999.99 -179968 -99999.99 -99999.99 -99999.99 -99999.99
1/9/2022 8:30:00 AM -99999.99 -179968 -99999.99 -99999.99 -99999.99 -99999.99
1/9/2022 8:45:00 AM -99999.99 -179968 -99999.99 -99999.99 -99999.99 -99999.99
1/9/2022 9:00:00 AM -99999.99 -179968 -99999.99 -99999.99 -99999.99 -99999.99
1/9/2022 9:15:00 AM -99999.99 -179968 -99999.99 -99999.99 -99999.99 -99999.99
1/9/2022 9:30:00 AM -99999.99 -179968 -99999.99 -99999.99 -99999.99 -99999.99
1/9/2022 9:45:00 AM -99999.99 -179968 -99999.99 -99999.99 -99999.99 -99999.99
1/9/2022 10:00:00 AM -99999.99 -179968 -99999.99 -99999.99 -99999.99 -99999.99
1/9/2022 10:15:00 AM -99999.99 -179968 -99999.99 -99999.99 -99999.99 -99999.99
1/9/2022 10:30:00 AM -99999.99 -179968 -99999.99 -99999.99 -99999.99 -99999.99
1/9/2022 10:45:00 AM -99999.99 -179968 -99999.99 -99999.99 -99999.99 -99999.99
1/9/2022 11:00:00 AM -99999.99 -179968 -99999.99 -99999.99 -99999.99 -99999.99
1/9/2022 11:15:00 AM -99999.99 -179968 -99999.99 -99999.99 -99999.99 -99999.99
1/9/2022 11:30:00 AM -99999.99 -179968 -99999.99 -99999.99 -99999.99 -99999.99
1/9/2022 11:45:00 AM -99999.99 -179968 -99999.99 -99999.99 -99999.99 -99999.99
1/9/2022 12:00:00 PM -99999.99 -179968 -99999.99 -99999.99 -99999.99 -99999.99
1/9/2022 12:15:00 PM -99999.99 -179968 -99999.99 -99999.99 -99999.99 -99999.99
1/9/2022 12:30:00 PM -99999.99 -179968 -99999.99 -99999.99 -99999.99 -99999.99
1/9/2022 12:45:00 PM -99999.99 -179968 -99999.99 -99999.99 -99999.99 -99999.99
1/9/2022 1:00:00 PM -99999.99 -179968 -99999.99 -99999.99 -99999.99 -99999.99
1/9/2022 1:15:00 PM -99999.99 -179968 -99999.99 -99999.99 -99999.99 -99999.99
1/9/2022 1:30:00 PM -99999.99 -179968 -99999.99 -99999.99 -99999.99 -99999.99
1/9/2022 1:45:00 PM -99999.99 -179968 -99999.99 -99999.99 -99999.99 -99999.99
1/9/2022 2:00:00 PM -99999.99 -179968 -99999.99 -99999.99 -99999.99 -99999.99
1/9/2022 2:15:00 PM -99999.99 -179968 -99999.99 -99999.99 -99999.99 -99999.99
1/9/2022 2:30:00 PM -99999.99 -179968 -99999.99 -99999.99 -99999.99 -99999.99
1/9/2022 2:45:00 PM -99999.99 -179968 -99999.99 -99999.99 -99999.99 -99999.99
1/9/2022 3:00:00 PM -99999.99 -179968 -99999.99 -99999.99 -99999.99 -99999.99
1/9/2022 3:15:00 PM -99999.99 -179968 -99999.99 -99999.99 -99999.99 -99999.99
1/9/2022 3:30:00 PM -99999.99 -179968 -99999.99 -99999.99 -99999.99 -99999.99
1/9/2022 3:45:00 PM -99999.99 -179968 -99999.99 -99999.99 -99999.99 -99999.99
1/9/2022 4:00:00 PM -99999.99 -179968 -99999.99 -99999.99 -99999.99 -99999.99
1/9/2022 4:15:00 PM -99999.99 -179968 -99999.99 -99999.99 -99999.99 -99999.99
1/9/2022 4:30:00 PM -99999.99 -179968 -99999.99 -99999.99 -99999.99 -99999.99
1/9/2022 4:45:00 PM -99999.99 -179968 -99999.99 -99999.99 -99999.99 -99999.99
1/9/2022 5:00:00 PM -99999.99 -179968 -99999.99 -99999.99 -99999.99 -99999.99
1/9/2022 5:15:00 PM -99999.99 -179968 -99999.99 -99999.99 -99999.99 -99999.99
1/9/2022 5:30:00 PM -99999.99 -179968 -99999.99 -99999.99 -99999.99 -99999.99
1/9/2022 5:45:00 PM -99999.99 -179968 -99999.99 -99999.99 -99999.99 -99999.99
1/9/2022 6:00:00 PM -99999.99 -179968 -99999.99 -99999.99 -99999.99 -99999.99
1/9/2022 6:15:00 PM -99999.99 -179968 -99999.99 -99999.99 -99999.99 -99999.99
1/9/2022 6:30:00 PM -99999.99 -179968 -99999.99 -99999.99 -99999.99 -99999.99
1/9/2022 6:45:00 PM -99999.99 -179968 -99999.99 -99999.99 -99999.99 -99999.99
1/9/2022 7:00:00 PM -99999.99 -179968 -99999.99 -99999.99 -99999.99 -99999.99
1/9/2022 7:15:00 PM -99999.99 -179968 -99999.99 -99999.99 -99999.99 -99999.99
1/9/2022 7:30:00 PM -99999.99 -179968 -99999.99 -99999.99 -99999.99 -99999.99
1/9/2022 7:45:00 PM -99999.99 -179968 -99999.99 -99999.99 -99999.99 -99999.99
1/9/2022 8:00:00 PM -99999.99 -179968 -99999.99 -99999.99 -99999.99 -99999.99
1/9/2022 8:15:00 PM -99999.99 -179968 -99999.99 -99999.99 -99999.99 -99999.99
1/9/2022 8:30:00 PM -99999.99 -179968 -99999.99 -99999.99 -99999.99 -99999.99
1/9/2022 8:45:00 PM -99999.99 -179968 -99999.99 -99999.99 -99999.99 -99999.99
1/9/2022 9:00:00 PM -99999.99 -179968 -99999.99 -99999.99 -99999.99 -99999.99
1/9/2022 9:15:00 PM -99999.99 -179968 -99999.99 -99999.99 -99999.99 -99999.99
1/9/2022 9:30:00 PM -99999.99 -179968 -99999.99 -99999.99 -99999.99 -99999.99
1/9/2022 9:45:00 PM -99999.99 -179968 -99999.99 -99999.99 -99999.99 -99999.99
1/9/2022 10:00:00 PM -99999.99 -179968 -99999.99 -99999.99 -99999.99 -99999.99
1/9/2022 10:15:00 PM -99999.99 -179968 -99999.99 -99999.99 -99999.99 -99999.99
1/9/2022 10:30:00 PM -99999.99 -179968 -99999.99 -99999.99 -99999.99 -99999.99
1/9/2022 10:45:00 PM -99999.99 -179968 -99999.99 -99999.99 -99999.99 -99999.99
1/9/2022 11:00:00 PM -99999.99 -179968 -99999.99 -99999.99 -99999.99 -99999.99
1/9/2022 11:15:00 PM -99999.99 -179968 -99999.99 -99999.99 -99999.99 -99999.99
1/9/2022 11:30:00 PM -99999.99 -179968 -99999.99 -99999.99 -99999.99 -99999.99
1/9/2022 11:45:00 PM -99999.99 -179968 -99999.99 -99999.99 -99999.99 -99999.99
1/10/2022 12:00:00 AM -99999.99 -179968 -99999.99 -99999.99 -99999.99 -99999.99
1/10/2022 12:15:00 AM -99999.99 -179968 -99999.99 -99999.99 -99999.99 -99999.99
1/10/2022 12:30:00 AM -99999.99 -179968 -99999.99 -99999.99 -99999.99 -99999.99
1/10/2022 12:45:00 AM -99999.99 -179968 -99999.99 -99999.99 -99999.99 -99999.99
1/10/2022 1:00:00 AM -99999.99 -179968 -99999.99 -99999.99 -99999.99 -99999.99
1/10/2022 1:15:00 AM -99999.99 -179968 -99999.99 -99999.99 -99999.99 -99999.99
1/10/2022 1:30:00 AM -99999.99 -179968 -99999.99 -99999.99 -99999.99 -99999.99
1/10/2022 1:45:00 AM -99999.99 -179968 -99999.99 -99999.99 -99999.99 -99999.99
1/10/2022 2:00:00 AM -99999.99 -179968 -99999.99 -99999.99 -99999.99 -99999.99
1/10/2022 2:15:00 AM -99999.99 -179968 -99999.99 -99999.99 -99999.99 -99999.99
1/10/2022 2:30:00 AM -99999.99 -179968 -99999.99 -99999.99 -99999.99 -99999.99
1/10/2022 2:45:00 AM -99999.99 -179968 -99999.99 -99999.99 -99999.99 -99999.99
1/10/2022 3:00:00 AM -99999.99 -179968 -99999.99 -99999.99 -99999.99 -99999.99
1/10/2022 3:15:00 AM -99999.99 -179968 -99999.99 -99999.99 -99999.99 -99999.99
1/10/2022 3:30:00 AM -99999.99 -179968 -99999.99 -99999.99 -99999.99 -99999.99
1/10/2022 3:45:00 AM -99999.99 -179968 -99999.99 -99999.99 -99999.99 -99999.99
1/10/2022 4:00:00 AM -99999.99 -179968 -99999.99 -99999.99 -99999.99 -99999.99
1/10/2022 4:15:00 AM -99999.99 -179968 -99999.99 -99999.99 -99999.99 -99999.99
1/10/2022 4:30:00 AM -99999.99 -179968 -99999.99 -99999.99 -99999.99 -99999.99
1/10/2022 4:45:00 AM -99999.99 -179968 -99999.99 -99999.99 -99999.99 -99999.99
1/10/2022 5:00:00 AM -99999.99 -179968 -99999.99 -99999.99 -99999.99 -99999.99
1/10/2022 5:15:00 AM -99999.99 -179968 -99999.99 -99999.99 -99999.99 -99999.99
1/10/2022 5:30:00 AM -99999.99 -179968 -99999.99 -99999.99 -99999.99 -99999.99
1/10/2022 5:45:00 AM -99999.99 -179968 -99999.99 -99999.99 -99999.99 -99999.99
1/10/2022 6:00:00 AM -99999.99 -179968 -99999.99 -99999.99 -99999.99 -99999.99
1/10/2022 6:15:00 AM -99999.99 -179968 -99999.99 -99999.99 -99999.99 -99999.99
1/10/2022 6:30:00 AM -99999.99 -179968 -99999.99 -99999.99 -99999.99 -99999.99
1/10/2022 6:45:00 AM -99999.99 -179968 -99999.99 -99999.99 -99999.99 -99999.99
1/10/2022 7:00:00 AM -99999.99 -179968 -99999.99 -99999.99 -99999.99 -99999.99
1/10/2022 7:15:00 AM -99999.99 -179968 -99999.99 -99999.99 -99999.99 -99999.99
1/10/2022 7:30:00 AM -99999.99 -179968 -99999.99 -99999.99 -99999.99 -99999.99
1/10/2022 7:45:00 AM -99999.99 -179968 -99999.99 -99999.99 -99999.99 -99999.99
1/10/2022 8:00:00 AM -99999.99 -179968 -99999.99 -99999.99 -99999.99 -99999.99
1/10/2022 8:15:00 AM -99999.99 -179968 -99999.99 -99999.99 -99999.99 -99999.99
1/10/2022 8:30:00 AM -99999.99 -179968 -99999.99 -99999.99 -99999.99 -99999.99
1/10/2022 8:45:00 AM -99999.99 -179968 -99999.99 -99999.99 -99999.99 -99999.99
1/10/2022 9:00:00 AM -99999.99 -179968 -99999.99 -99999.99 -99999.99 -99999.99
1/10/2022 9:15:00 AM -99999.99 -179968 -99999.99 -99999.99 -99999.99 -99999.99
1/10/2022 9:30:00 AM -99999.99 -179968 -99999.99 -99999.99 -99999.99 -99999.99
1/10/2022 9:45:00 AM -99999.99 -179968 -99999.99 -99999.99 -99999.99 -99999.99
1/10/2022 10:00:00 AM -99999.99 -179968 -99999.99 -99999.99 -99999.99 -99999.99
1/10/2022 10:15:00 AM -99999.99 -179968 -99999.99 -99999.99 -99999.99 -99999.99
1/10/2022 10:30:00 AM -99999.99 -179968 -99999.99 -99999.99 -99999.99 -99999.99
1/10/2022 10:45:00 AM -99999.99 -179968 -99999.99 -99999.99 -99999.99 -99999.99
1/10/2022 11:00:00 AM -99999.99 -179968 -99999.99 -99999.99 -99999.99 -99999.99
1/10/2022 11:15:00 AM -99999.99 -179968 -99999.99 -99999.99 -99999.99 -99999.99
1/10/2022 11:30:00 AM -99999.99 -179968 -99999.99 -99999.99 -99999.99 -99999.99
1/10/2022 11:45:00 AM -99999.99 -179968 -99999.99 -99999.99 -99999.99 -99999.99
1/10/2022 12:00:00 PM -99999.99 -179968 -99999.99 -99999.99 -99999.99 -99999.99
1/10/2022 12:15:00 PM 0.04 32.072 0.079 7.77 1.73 14.91
1/10/2022 12:30:00 PM 0.03 32.054 0.079 7.72 1.77 14.92
1/10/2022 12:45:00 PM -99999.99 -179968 -99999.99 -99999.99 -99999.99 -99999.99
1/10/2022 1:00:00 PM -99999.99 -179968 -99999.99 -99999.99 -99999.99 -99999.99
1/10/2022 1:15:00 PM -99999.99 -179968 -99999.99 -99999.99 -99999.99 -99999.99
1/10/2022 1:30:00 PM -99999.99 -179968 -99999.99 -99999.99 -99999.99 -99999.99
1/10/2022 1:45:00 PM -99999.99 -179968 -99999.99 -99999.99 -99999.99 -99999.99
1/10/2022 2:00:00 PM -99999.99 -179968 -99999.99 -99999.99 -99999.99 -99999.99
1/10/2022 2:15:00 PM -99999.99 -179968 -99999.99 -99999.99 -99999.99 -99999.99
1/10/2022 2:30:00 PM -99999.99 -179968 -99999.99 -99999.99 -99999.99 -99999.99
1/10/2022 2:45:00 PM -99999.99 -179968 -99999.99 -99999.99 -99999.99 -99999.99
1/10/2022 3:00:00 PM -99999.99 -179968 -99999.99 -99999.99 -99999.99 -99999.99
1/10/2022 3:15:00 PM -99999.99 -179968 -99999.99 -99999.99 -99999.99 -99999.99
1/10/2022 3:30:00 PM -99999.99 -179968 -99999.99 -99999.99 -99999.99 -99999.99
1/10/2022 3:45:00 PM -99999.99 -179968 -99999.99 -99999.99 -99999.99 -99999.99
1/10/2022 4:00:00 PM -99999.99 -179968 -99999.99 -99999.99 -99999.99 -99999.99
1/10/2022 4:15:00 PM -99999.99 -179968 -99999.99 -99999.99 -99999.99 -99999.99
1/10/2022 4:30:00 PM -99999.99 -179968 -99999.99 -99999.99 -99999.99 -99999.99
1/10/2022 4:45:00 PM -99999.99 -179968 -99999.99 -99999.99 -99999.99 -99999.99
1/10/2022 5:00:00 PM -99999.99 -179968 -99999.99 -99999.99 -99999.99 -99999.99
1/10/2022 5:15:00 PM -99999.99 -179968 -99999.99 -99999.99 -99999.99 -99999.99
1/10/2022 5:30:00 PM -99999.99 -179968 -99999.99 -99999.99 -99999.99 -99999.99
1/10/2022 5:45:00 PM -99999.99 -179968 -99999.99 -99999.99 -99999.99 -99999.99
1/10/2022 6:00:00 PM -99999.99 -179968 -99999.99 -99999.99 -99999.99 -99999.99
1/10/2022 6:15:00 PM -99999.99 -179968 -99999.99 -99999.99 -99999.99 -99999.99
1/10/2022 6:30:00 PM -99999.99 -179968 -99999.99 -99999.99 -99999.99 -99999.99
1/10/2022 6:45:00 PM -99999.99 -179968 -99999.99 -99999.99 -99999.99 -99999.99
1/10/2022 7:00:00 PM -99999.99 -179968 -99999.99 -99999.99 -99999.99 -99999.99
1/10/2022 7:15:00 PM -99999.99 -179968 -99999.99 -99999.99 -99999.99 -99999.99
1/10/2022 7:30:00 PM -99999.99 -179968 -99999.99 -99999.99 -99999.99 -99999.99
1/10/2022 7:45:00 PM -99999.99 -179968 -99999.99 -99999.99 -99999.99 -99999.99
1/10/2022 8:00:00 PM -99999.99 -179968 -99999.99 -99999.99 -99999.99 -99999.99
1/10/2022 8:15:00 PM -99999.99 -179968 -99999.99 -99999.99 -99999.99 -99999.99
1/10/2022 8:30:00 PM -99999.99 -179968 -99999.99 -99999.99 -99999.99 -99999.99
1/10/2022 8:45:00 PM -99999.99 -179968 -99999.99 -99999.99 -99999.99 -99999.99
1/10/2022 9:00:00 PM -99999.99 -179968 -99999.99 -99999.99 -99999.99 -99999.99
1/10/2022 9:15:00 PM -99999.99 -179968 -99999.99 -99999.99 -99999.99 -99999.99
1/10/2022 9:30:00 PM -99999.99 -179968 -99999.99 -99999.99 -99999.99 -99999.99
1/10/2022 9:45:00 PM -99999.99 -179968 -99999.99 -99999.99 -99999.99 -99999.99
1/10/2022 10:00:00 PM -99999.99 -179968 -99999.99 -99999.99 -99999.99 -99999.99
1/10/2022 10:15:00 PM -99999.99 -179968 -99999.99 -99999.99 -99999.99 -99999.99
1/10/2022 10:30:00 PM -99999.99 -179968 -99999.99 -99999.99 -99999.99 -99999.99
1/10/2022 10:45:00 PM -99999.99 -179968 -99999.99 -99999.99 -99999.99 -99999.99
1/10/2022 11:00:00 PM -99999.99 -179968 -99999.99 -99999.99 -99999.99 -99999.99
1/10/2022 11:15:00 PM -99999.99 -179968 -99999.99 -99999.99 -99999.99 -99999.99
1/10/2022 11:30:00 PM -99999.99 -179968 -99999.99 -99999.99 -99999.99 -99999.99
1/10/2022 11:45:00 PM -99999.99 -179968 -99999.99 -99999.99 -99999.99 -99999.99
1/11/2022 12:00:00 AM -99999.99 -179968 -99999.99 -99999.99 -99999.99 -99999.99
1/11/2022 12:15:00 AM -99999.99 -179968 -99999.99 -99999.99 -99999.99 -99999.99
1/11/2022 12:30:00 AM -99999.99 -179968 -99999.99 -99999.99 -99999.99 -99999.99
1/11/2022 12:45:00 AM -99999.99 -179968 -99999.99 -99999.99 -99999.99 -99999.99
1/11/2022 1:00:00 AM -99999.99 -179968 -99999.99 -99999.99 -99999.99 -99999.99
1/11/2022 1:15:00 AM -99999.99 -179968 -99999.99 -99999.99 -99999.99 -99999.99
1/11/2022 1:30:00 AM -99999.99 -179968 -99999.99 -99999.99 -99999.99 -99999.99
1/11/2022 1:45:00 AM -99999.99 -179968 -99999.99 -99999.99 -99999.99 -99999.99
1/11/2022 2:00:00 AM -99999.99 -179968 -99999.99 -99999.99 -99999.99 -99999.99
1/11/2022 2:15:00 AM -99999.99 -179968 -99999.99 -99999.99 -99999.99 -99999.99
1/11/2022 2:30:00 AM -99999.99 -179968 -99999.99 -99999.99 -99999.99 -99999.99
1/11/2022 2:45:00 AM -99999.99 -179968 -99999.99 -99999.99 -99999.99 -99999.99
1/11/2022 3:00:00 AM -99999.99 -179968 -99999.99 -99999.99 -99999.99 -99999.99
1/11/2022 3:15:00 AM -99999.99 -179968 -99999.99 -99999.99 -99999.99 -99999.99
1/11/2022 3:30:00 AM -99999.99 -179968 -99999.99 -99999.99 -99999.99 -99999.99
1/11/2022 3:45:00 AM -99999.99 -179968 -99999.99 -99999.99 -99999.99 -99999.99
1/11/2022 4:00:00 AM -99999.99 -179968 -99999.99 -99999.99 -99999.99 -99999.99
1/11/2022 4:15:00 AM -99999.99 -179968 -99999.99 -99999.99 -99999.99 -99999.99
1/11/2022 4:30:00 AM -99999.99 -179968 -99999.99 -99999.99 -99999.99 -99999.99
1/11/2022 4:45:00 AM -99999.99 -179968 -99999.99 -99999.99 -99999.99 -99999.99
1/11/2022 5:00:00 AM -99999.99 -179968 -99999.99 -99999.99 -99999.99 -99999.99
1/11/2022 5:15:00 AM -99999.99 -179968 -99999.99 -99999.99 -99999.99 -99999.99
1/11/2022 5:30:00 AM -99999.99 -179968 -99999.99 -99999.99 -99999.99 -99999.99
1/11/2022 5:45:00 AM -99999.99 -179968 -99999.99 -99999.99 -99999.99 -99999.99
1/11/2022 6:00:00 AM -99999.99 -179968 -99999.99 -99999.99 -99999.99 -99999.99
1/11/2022 6:15:00 AM -99999.99 -179968 -99999.99 -99999.99 -99999.99 -99999.99
1/11/2022 6:30:00 AM -99999.99 -179968 -99999.99 -99999.99 -99999.99 -99999.99
1/11/2022 6:45:00 AM -99999.99 -179968 -99999.99 -99999.99 -99999.99 -99999.99
1/11/2022 7:00:00 AM -99999.99 -179968 -99999.99 -99999.99 -99999.99 -99999.99
1/11/2022 7:15:00 AM -99999.99 -179968 -99999.99 -99999.99 -99999.99 -99999.99
1/11/2022 7:30:00 AM -99999.99 -179968 -99999.99 -99999.99 -99999.99 -99999.99
1/11/2022 7:45:00 AM -99999.99 -179968 -99999.99 -99999.99 -99999.99 -99999.99
1/11/2022 8:00:00 AM -99999.99 -179968 -99999.99 -99999.99 -99999.99 -99999.99
1/11/2022 8:15:00 AM -99999.99 -179968 -99999.99 -99999.99 -99999.99 -99999.99
1/11/2022 8:30:00 AM -99999.99 -179968 -99999.99 -99999.99 -99999.99 -99999.99
1/11/2022 8:45:00 AM -99999.99 -179968 -99999.99 -99999.99 -99999.99 -99999.99
1/11/2022 9:00:00 AM -99999.99 -179968 -99999.99 -99999.99 -99999.99 -99999.99
1/11/2022 9:15:00 AM -99999.99 -179968 -99999.99 -99999.99 -99999.99 -99999.99
1/11/2022 9:30:00 AM -99999.99 -179968 -99999.99 -99999.99 -99999.99 -99999.99
1/11/2022 9:45:00 AM -99999.99 -179968 -99999.99 -99999.99 -99999.99 -99999.99
1/11/2022 10:00:00 AM -99999.99 -179968 -99999.99 -99999.99 -99999.99 -99999.99
1/11/2022 10:15:00 AM -99999.99 -179968 -99999.99 -99999.99 -99999.99 -99999.99
1/11/2022 10:30:00 AM -99999.99 -179968 -99999.99 -99999.99 -99999.99 -99999.99
1/11/2022 10:45:00 AM -99999.99 -179968 -99999.99 -99999.99 -99999.99 -99999.99
1/11/2022 11:00:00 AM -99999.99 -179968 -99999.99 -99999.99 -99999.99 -99999.99
1/11/2022 11:15:00 AM -99999.99 -179968 -99999.99 -99999.99 -99999.99 -99999.99
1/11/2022 11:30:00 AM -99999.99 -179968 -99999.99 -99999.99 -99999.99 -99999.99
1/11/2022 11:45:00 AM -99999.99 -179968 -99999.99 -99999.99 -99999.99 -99999.99
1/11/2022 12:00:00 PM -99999.99 -179968 -99999.99 -99999.99 -99999.99 -99999.99
1/11/2022 12:15:00 PM -99999.99 -179968 -99999.99 -99999.99 -99999.99 -99999.99
1/11/2022 12:30:00 PM -99999.99 -179968 -99999.99 -99999.99 -99999.99 -99999.99
1/11/2022 12:45:00 PM -99999.99 -179968 -99999.99 -99999.99 -99999.99 -99999.99
1/11/2022 1:00:00 PM -99999.99 -179968 -99999.99 -99999.99 -99999.99 -99999.99
1/11/2022 1:15:00 PM -99999.99 -179968 -99999.99 -99999.99 -99999.99 -99999.99
1/11/2022 1:30:00 PM -99999.99 -179968 -99999.99 -99999.99 -99999.99 -99999.99
1/11/2022 1:45:00 PM -99999.99 -179968 -99999.99 -99999.99 -99999.99 -99999.99
1/11/2022 2:00:00 PM -99999.99 -179968 -99999.99 -99999.99 -99999.99 -99999.99
1/11/2022 2:15:00 PM -99999.99 -179968 -99999.99 -99999.99 -99999.99 -99999.99
1/11/2022 2:30:00 PM -99999.99 -179968 -99999.99 -99999.99 -99999.99 -99999.99
1/11/2022 2:45:00 PM -99999.99 -179968 -99999.99 -99999.99 -99999.99 -99999.99
1/11/2022 3:00:00 PM -99999.99 -179968 -99999.99 -99999.99 -99999.99 -99999.99
1/11/2022 3:15:00 PM -99999.99 -179968 -99999.99 -99999.99 -99999.99 -99999.99
1/11/2022 3:30:00 PM -99999.99 -179968 -99999.99 -99999.99 -99999.99 -99999.99
1/11/2022 3:45:00 PM -99999.99 -179968 -99999.99 -99999.99 -99999.99 -99999.99
1/11/2022 4:00:00 PM -99999.99 -179968 -99999.99 -99999.99 -99999.99 -99999.99
1/11/2022 4:15:00 PM -99999.99 -179968 -99999.99 -99999.99 -99999.99 -99999.99
1/11/2022 4:30:00 PM -99999.99 -179968 -99999.99 -99999.99 -99999.99 -99999.99
1/11/2022 4:45:00 PM -99999.99 -179968 -99999.99 -99999.99 -99999.99 -99999.99
1/11/2022 5:00:00 PM -99999.99 -179968 -99999.99 -99999.99 -99999.99 -99999.99
1/11/2022 5:15:00 PM -99999.99 -179968 -99999.99 -99999.99 -99999.99 -99999.99
1/11/2022 5:30:00 PM -99999.99 -179968 -99999.99 -99999.99 -99999.99 -99999.99
1/11/2022 5:45:00 PM -99999.99 -179968 -99999.99 -99999.99 -99999.99 -99999.99
1/11/2022 6:00:00 PM -99999.99 -179968 -99999.99 -99999.99 -99999.99 -99999.99
1/11/2022 6:15:00 PM -99999.99 -179968 -99999.99 -99999.99 -99999.99 -99999.99
1/11/2022 6:30:00 PM -99999.99 -179968 -99999.99 -99999.99 -99999.99 -99999.99
1/11/2022 6:45:00 PM -99999.99 -179968 -99999.99 -99999.99 -99999.99 -99999.99
1/11/2022 7:00:00 PM -99999.99 -179968 -99999.99 -99999.99 -99999.99 -99999.99
1/11/2022 7:15:00 PM -99999.99 -179968 -99999.99 -99999.99 -99999.99 -99999.99
1/11/2022 7:30:00 PM -99999.99 -179968 -99999.99 -99999.99 -99999.99 -99999.99
1/11/2022 7:45:00 PM -99999.99 -179968 -99999.99 -99999.99 -99999.99 -99999.99
1/11/2022 8:00:00 PM -99999.99 -179968 -99999.99 -99999.99 -99999.99 -99999.99
1/11/2022 8:15:00 PM -99999.99 -179968 -99999.99 -99999.99 -99999.99 -99999.99
1/11/2022 8:30:00 PM -99999.99 -179968 -99999.99 -99999.99 -99999.99 -99999.99
1/11/2022 8:45:00 PM -99999.99 -179968 -99999.99 -99999.99 -99999.99 -99999.99
1/11/2022 9:00:00 PM -99999.99 -179968 -99999.99 -99999.99 -99999.99 -99999.99
1/11/2022 9:15:00 PM -99999.99 -179968 -99999.99 -99999.99 -99999.99 -99999.99
1/11/2022 9:30:00 PM -99999.99 -179968 -99999.99 -99999.99 -99999.99 -99999.99
1/11/2022 9:45:00 PM -99999.99 -179968 -99999.99 -99999.99 -99999.99 -99999.99
1/11/2022 10:00:00 PM -99999.99 -179968 -99999.99 -99999.99 -99999.99 -99999.99
1/11/2022 10:15:00 PM -99999.99 -179968 -99999.99 -99999.99 -99999.99 -99999.99
1/11/2022 10:30:00 PM -99999.99 -179968 -99999.99 -99999.99 -99999.99 -99999.99
1/11/2022 10:45:00 PM -99999.99 -179968 -99999.99 -99999.99 -99999.99 -99999.99
1/11/2022 11:00:00 PM -99999.99 -179968 -99999.99 -99999.99 -99999.99 -99999.99
1/11/2022 11:15:00 PM -99999.99 -179968 -99999.99 -99999.99 -99999.99 -99999.99
1/11/2022 11:30:00 PM -99999.99 -179968 -99999.99 -99999.99 -99999.99 -99999.99
1/11/2022 11:45:00 PM -99999.99 -179968 -99999.99 -99999.99 -99999.99 -99999.99
1/12/2022 12:00:00 AM -99999.99 -179968 -99999.99 -99999.99 -99999.99 -99999.99
1/12/2022 12:15:00 AM -99999.99 -179968 -99999.99 -99999.99 -99999.99 -99999.99
1/12/2022 12:30:00 AM -99999.99 -179968 -99999.99 -99999.99 -99999.99 -99999.99
1/12/2022 12:45:00 AM -99999.99 -179968 -99999.99 -99999.99 -99999.99 -99999.99
1/12/2022 1:00:00 AM -99999.99 -179968 -99999.99 -99999.99 -99999.99 -99999.99
1/12/2022 1:15:00 AM -99999.99 -179968 -99999.99 -99999.99 -99999.99 -99999.99
1/12/2022 1:30:00 AM -99999.99 -179968 -99999.99 -99999.99 -99999.99 -99999.99
1/12/2022 1:45:00 AM -99999.99 -179968 -99999.99 -99999.99 -99999.99 -99999.99
1/12/2022 2:00:00 AM -99999.99 -179968 -99999.99 -99999.99 -99999.99 -99999.99
1/12/2022 2:15:00 AM -99999.99 -179968 -99999.99 -99999.99 -99999.99 -99999.99
1/12/2022 2:30:00 AM -99999.99 -179968 -99999.99 -99999.99 -99999.99 -99999.99
1/12/2022 2:45:00 AM -99999.99 -179968 -99999.99 -99999.99 -99999.99 -99999.99
1/12/2022 3:00:00 AM -99999.99 -179968 -99999.99 -99999.99 -99999.99 -99999.99
1/12/2022 3:15:00 AM -99999.99 -179968 -99999.99 -99999.99 -99999.99 -99999.99
1/12/2022 3:30:00 AM -99999.99 -179968 -99999.99 -99999.99 -99999.99 -99999.99
1/12/2022 3:45:00 AM -99999.99 -179968 -99999.99 -99999.99 -99999.99 -99999.99
1/12/2022 4:00:00 AM -99999.99 -179968 -99999.99 -99999.99 -99999.99 -99999.99
1/12/2022 4:15:00 AM -99999.99 -179968 -99999.99 -99999.99 -99999.99 -99999.99
1/12/2022 4:30:00 AM -99999.99 -179968 -99999.99 -99999.99 -99999.99 -99999.99
1/12/2022 4:45:00 AM -99999.99 -179968 -99999.99 -99999.99 -99999.99 -99999.99
1/12/2022 5:00:00 AM -99999.99 -179968 -99999.99 -99999.99 -99999.99 -99999.99
1/12/2022 5:15:00 AM -99999.99 -179968 -99999.99 -99999.99 -99999.99 -99999.99
1/12/2022 5:30:00 AM -99999.99 -179968 -99999.99 -99999.99 -99999.99 -99999.99
1/12/2022 5:45:00 AM -99999.99 -179968 -99999.99 -99999.99 -99999.99 -99999.99
1/12/2022 6:00:00 AM -99999.99 -179968 -99999.99 -99999.99 -99999.99 -99999.99
1/12/2022 6:15:00 AM -99999.99 -179968 -99999.99 -99999.99 -99999.99 -99999.99
1/12/2022 6:30:00 AM -99999.99 -179968 -99999.99 -99999.99 -99999.99 -99999.99
1/12/2022 6:45:00 AM -99999.99 -179968 -99999.99 -99999.99 -99999.99 -99999.99
1/12/2022 7:00:00 AM -99999.99 -179968 -99999.99 -99999.99 -99999.99 -99999.99
1/12/2022 7:15:00 AM -99999.99 -179968 -99999.99 -99999.99 -99999.99 -99999.99
1/12/2022 7:30:00 AM -99999.99 -179968 -99999.99 -99999.99 -99999.99 -99999.99
1/12/2022 7:45:00 AM -99999.99 -179968 -99999.99 -99999.99 -99999.99 -99999.99
1/12/2022 8:00:00 AM -99999.99 -179968 -99999.99 -99999.99 -99999.99 -99999.99
1/12/2022 8:15:00 AM -99999.99 -179968 -99999.99 -99999.99 -99999.99 -99999.99
1/12/2022 8:30:00 AM -99999.99 -179968 -99999.99 -99999.99 -99999.99 -99999.99
1/12/2022 8:45:00 AM -99999.99 -179968 -99999.99 -99999.99 -99999.99 -99999.99
1/12/2022 9:00:00 AM -99999.99 -179968 -99999.99 -99999.99 -99999.99 -99999.99
1/12/2022 9:15:00 AM -99999.99 -179968 -99999.99 -99999.99 -99999.99 -99999.99
1/12/2022 9:30:00 AM -99999.99 -179968 -99999.99 -99999.99 -99999.99 -99999.99
1/12/2022 9:45:00 AM -99999.99 -179968 -99999.99 -99999.99 -99999.99 -99999.99
1/12/2022 10:00:00 AM -99999.99 -179968 -99999.99 -99999.99 -99999.99 -99999.99
1/12/2022 10:15:00 AM -99999.99 -179968 -99999.99 -99999.99 -99999.99 -99999.99
1/12/2022 10:30:00 AM -99999.99 -179968 -99999.99 -99999.99 -99999.99 -99999.99
1/12/2022 10:45:00 AM -99999.99 -179968 -99999.99 -99999.99 -99999.99 -99999.99
1/12/2022 11:00:00 AM -99999.99 -179968 -99999.99 -99999.99 -99999.99 -99999.99
1/12/2022 11:15:00 AM -99999.99 -179968 -99999.99 -99999.99 -99999.99 -99999.99
1/12/2022 11:30:00 AM -99999.99 -179968 -99999.99 -99999.99 -99999.99 -99999.99
1/12/2022 11:45:00 AM -99999.99 -179968 -99999.99 -99999.99 -99999.99 -99999.99
1/12/2022 12:00:00 PM -99999.99 -179968 -99999.99 -99999.99 -99999.99 -99999.99
1/12/2022 12:15:00 PM -99999.99 -179968 -99999.99 -99999.99 -99999.99 -99999.99
1/12/2022 12:30:00 PM 0.09 32.162 0.084 7.63 1.9 14.95
1/12/2022 12:45:00 PM 0.04 32.072 0.084 7.68 1.78 14.91
1/12/2022 1:00:00 PM 0.03 32.054 0.084 7.79 1.65 14.97
1/12/2022 1:15:00 PM 0.13 32.234 0.084 7.59 1.65 14.86
1/12/2022 1:30:00 PM -99999.99 -179968 -99999.99 -99999.99 -99999.99 -99999.99
1/12/2022 1:45:00 PM 0.17 32.306 0.083 7.52 1.64 14.77
1/12/2022 2:00:00 PM 0.17 32.306 0.083 7.48 1.64 14.73
1/12/2022 2:15:00 PM 0.11 32.198 0.083 7.56 1.67 14.78
1/12/2022 2:30:00 PM -99999.99 -179968 -99999.99 -99999.99 -99999.99 -99999.99
1/12/2022 2:45:00 PM -99999.99 -179968 -99999.99 -99999.99 -99999.99 -99999.99
1/12/2022 3:00:00 PM -99999.99 -179968 -99999.99 -99999.99 -99999.99 -99999.99
1/12/2022 3:15:00 PM -99999.99 -179968 -99999.99 -99999.99 -99999.99 -99999.99
1/12/2022 3:30:00 PM -99999.99 -179968 -99999.99 -99999.99 -99999.99 -99999.99
1/12/2022 3:45:00 PM -99999.99 -179968 -99999.99 -99999.99 -99999.99 -99999.99
1/12/2022 4:00:00 PM -99999.99 -179968 -99999.99 -99999.99 -99999.99 -99999.99
1/12/2022 4:15:00 PM -99999.99 -179968 -99999.99 -99999.99 -99999.99 -99999.99
1/12/2022 4:30:00 PM -99999.99 -179968 -99999.99 -99999.99 -99999.99 -99999.99
1/12/2022 4:45:00 PM -99999.99 -179968 -99999.99 -99999.99 -99999.99 -99999.99
1/12/2022 5:00:00 PM -99999.99 -179968 -99999.99 -99999.99 -99999.99 -99999.99
1/12/2022 5:15:00 PM -99999.99 -179968 -99999.99 -99999.99 -99999.99 -99999.99
1/12/2022 5:30:00 PM -99999.99 -179968 -99999.99 -99999.99 -99999.99 -99999.99
1/12/2022 5:45:00 PM -99999.99 -179968 -99999.99 -99999.99 -99999.99 -99999.99
1/12/2022 6:00:00 PM -99999.99 -179968 -99999.99 -99999.99 -99999.99 -99999.99
1/12/2022 6:15:00 PM -99999.99 -179968 -99999.99 -99999.99 -99999.99 -99999.99
1/12/2022 6:30:00 PM -99999.99 -179968 -99999.99 -99999.99 -99999.99 -99999.99
1/12/2022 6:45:00 PM -99999.99 -179968 -99999.99 -99999.99 -99999.99 -99999.99
1/12/2022 7:00:00 PM -99999.99 -179968 -99999.99 -99999.99 -99999.99 -99999.99
1/12/2022 7:15:00 PM -99999.99 -179968 -99999.99 -99999.99 -99999.99 -99999.99
1/12/2022 7:30:00 PM -99999.99 -179968 -99999.99 -99999.99 -99999.99 -99999.99
1/12/2022 7:45:00 PM -99999.99 -179968 -99999.99 -99999.99 -99999.99 -99999.99
1/12/2022 8:00:00 PM -99999.99 -179968 -99999.99 -99999.99 -99999.99 -99999.99
1/12/2022 8:15:00 PM -99999.99 -179968 -99999.99 -99999.99 -99999.99 -99999.99
1/12/2022 8:30:00 PM -99999.99 -179968 -99999.99 -99999.99 -99999.99 -99999.99
1/12/2022 8:45:00 PM -99999.99 -179968 -99999.99 -99999.99 -99999.99 -99999.99
1/12/2022 9:00:00 PM -99999.99 -179968 -99999.99 -99999.99 -99999.99 -99999.99
1/12/2022 9:15:00 PM -99999.99 -179968 -99999.99 -99999.99 -99999.99 -99999.99
1/12/2022 9:30:00 PM -99999.99 -179968 -99999.99 -99999.99 -99999.99 -99999.99
1/12/2022 9:45:00 PM -99999.99 -179968 -99999.99 -99999.99 -99999.99 -99999.99
1/12/2022 10:00:00 PM -99999.99 -179968 -99999.99 -99999.99 -99999.99 -99999.99
1/12/2022 10:15:00 PM -99999.99 -179968 -99999.99 -99999.99 -99999.99 -99999.99
1/12/2022 10:30:00 PM -99999.99 -179968 -99999.99 -99999.99 -99999.99 -99999.99
1/12/2022 10:45:00 PM -99999.99 -179968 -99999.99 -99999.99 -99999.99 -99999.99
1/12/2022 11:00:00 PM -99999.99 -179968 -99999.99 -99999.99 -99999.99 -99999.99
1/12/2022 11:15:00 PM -99999.99 -179968 -99999.99 -99999.99 -99999.99 -99999.99
1/12/2022 11:30:00 PM -99999.99 -179968 -99999.99 -99999.99 -99999.99 -99999.99
1/12/2022 11:45:00 PM -99999.99 -179968 -99999.99 -99999.99 -99999.99 -99999.99
1/13/2022 12:00:00 AM -99999.99 -179968 -99999.99 -99999.99 -99999.99 -99999.99
1/13/2022 12:15:00 AM -99999.99 -179968 -99999.99 -99999.99 -99999.99 -99999.99
1/13/2022 12:30:00 AM -99999.99 -179968 -99999.99 -99999.99 -99999.99 -99999.99
1/13/2022 12:45:00 AM -99999.99 -179968 -99999.99 -99999.99 -99999.99 -99999.99
1/13/2022 1:00:00 AM -99999.99 -179968 -99999.99 -99999.99 -99999.99 -99999.99
1/13/2022 1:15:00 AM -99999.99 -179968 -99999.99 -99999.99 -99999.99 -99999.99
1/13/2022 1:30:00 AM -99999.99 -179968 -99999.99 -99999.99 -99999.99 -99999.99
1/13/2022 1:45:00 AM -99999.99 -179968 -99999.99 -99999.99 -99999.99 -99999.99
1/13/2022 2:00:00 AM -99999.99 -179968 -99999.99 -99999.99 -99999.99 -99999.99
1/13/2022 2:15:00 AM -99999.99 -179968 -99999.99 -99999.99 -99999.99 -99999.99
1/13/2022 2:30:00 AM -99999.99 -179968 -99999.99 -99999.99 -99999.99 -99999.99
1/13/2022 2:45:00 AM -99999.99 -179968 -99999.99 -99999.99 -99999.99 -99999.99
1/13/2022 3:00:00 AM -99999.99 -179968 -99999.99 -99999.99 -99999.99 -99999.99
1/13/2022 3:15:00 AM -99999.99 -179968 -99999.99 -99999.99 -99999.99 -99999.99
1/13/2022 3:30:00 AM -99999.99 -179968 -99999.99 -99999.99 -99999.99 -99999.99
1/13/2022 3:45:00 AM -99999.99 -179968 -99999.99 -99999.99 -99999.99 -99999.99
1/13/2022 4:00:00 AM -99999.99 -179968 -99999.99 -99999.99 -99999.99 -99999.99
1/13/2022 4:15:00 AM -99999.99 -179968 -99999.99 -99999.99 -99999.99 -99999.99
1/13/2022 4:30:00 AM -99999.99 -179968 -99999.99 -99999.99 -99999.99 -99999.99
1/13/2022 4:45:00 AM -99999.99 -179968 -99999.99 -99999.99 -99999.99 -99999.99
1/13/2022 5:00:00 AM -99999.99 -179968 -99999.99 -99999.99 -99999.99 -99999.99
1/13/2022 5:15:00 AM -99999.99 -179968 -99999.99 -99999.99 -99999.99 -99999.99
1/13/2022 5:30:00 AM -99999.99 -179968 -99999.99 -99999.99 -99999.99 -99999.99
1/13/2022 5:45:00 AM -99999.99 -179968 -99999.99 -99999.99 -99999.99 -99999.99
1/13/2022 6:00:00 AM -99999.99 -179968 -99999.99 -99999.99 -99999.99 -99999.99
1/13/2022 6:15:00 AM -99999.99 -179968 -99999.99 -99999.99 -99999.99 -99999.99
1/13/2022 6:30:00 AM -99999.99 -179968 -99999.99 -99999.99 -99999.99 -99999.99
1/13/2022 6:45:00 AM -99999.99 -179968 -99999.99 -99999.99 -99999.99 -99999.99
1/13/2022 7:00:00 AM -99999.99 -179968 -99999.99 -99999.99 -99999.99 -99999.99
1/13/2022 7:15:00 AM -99999.99 -179968 -99999.99 -99999.99 -99999.99 -99999.99
1/13/2022 7:30:00 AM -99999.99 -179968 -99999.99 -99999.99 -99999.99 -99999.99
1/13/2022 7:45:00 AM -99999.99 -179968 -99999.99 -99999.99 -99999.99 -99999.99
1/13/2022 8:00:00 AM -99999.99 -179968 -99999.99 -99999.99 -99999.99 -99999.99
1/13/2022 8:15:00 AM -99999.99 -179968 -99999.99 -99999.99 -99999.99 -99999.99
1/13/2022 8:30:00 AM -99999.99 -179968 -99999.99 -99999.99 -99999.99 -99999.99
1/13/2022 8:45:00 AM -99999.99 -179968 -99999.99 -99999.99 -99999.99 -99999.99
1/13/2022 9:00:00 AM -99999.99 -179968 -99999.99 -99999.99 -99999.99 -99999.99
1/13/2022 9:15:00 AM -99999.99 -179968 -99999.99 -99999.99 -99999.99 -99999.99
1/13/2022 9:30:00 AM -99999.99 -179968 -99999.99 -99999.99 -99999.99 -99999.99
1/13/2022 9:45:00 AM -99999.99 -179968 -99999.99 -99999.99 -99999.99 -99999.99
1/13/2022 10:00:00 AM -99999.99 -179968 -99999.99 -99999.99 -99999.99 -99999.99
1/13/2022 10:15:00 AM -99999.99 -179968 -99999.99 -99999.99 -99999.99 -99999.99
1/13/2022 10:30:00 AM -99999.99 -179968 -99999.99 -99999.99 -99999.99 -99999.99
1/13/2022 10:45:00 AM 0.16 32.288 0.079 7.47 2.32 14.62
1/13/2022 11:00:00 AM 0.14 32.252 0.079 7.49 4.36 14.72
1/13/2022 11:15:00 AM 0.12 32.216 0.079 7.53 1.85 14.81
1/13/2022 11:30:00 AM 0.14 32.252 0.079 7.54 1.91 14.84
1/13/2022 11:45:00 AM 0.12 32.216 0.078 7.6 1.83 14.88
1/13/2022 12:00:00 PM 0.12 32.216 0.078 7.65 1.96 14.92
1/13/2022 12:15:00 PM 0.08 32.144 0.078 7.72 2.1 14.92
1/13/2022 12:30:00 PM 0.06 32.108 0.078 7.79 1.89 14.94
1/13/2022 12:45:00 PM 0.04 32.072 0.078 7.85 2.01 14.96
1/13/2022 1:00:00 PM 0.06 32.108 0.078 7.87 1.99 14.98
1/13/2022 1:15:00 PM 0.03 32.054 0.078 7.95 2.2 15.01
1/13/2022 1:30:00 PM 0.04 32.072 0.078 7.98 2.03 15.02
1/13/2022 1:45:00 PM 0.04 32.072 0.077 7.97 2.01 14.98
1/13/2022 2:00:00 PM 0.04 32.072 0.077 7.94 2.04 14.95
1/13/2022 2:15:00 PM 0.04 32.072 0.077 7.92 2.02 14.93
1/13/2022 2:30:00 PM 0.05 32.09 0.077 7.87 2.05 14.88
1/13/2022 2:45:00 PM 0.03 32.054 0.077 7.87 1.98 14.87
1/13/2022 3:00:00 PM 0.02 32.036 0.077 7.85 1.98 14.82
1/13/2022 3:15:00 PM 0.03 32.054 0.077 7.78 2 14.76
1/13/2022 3:30:00 PM 0.03 32.054 0.077 7.73 2.03 14.69
1/13/2022 3:45:00 PM 0.02 32.036 0.077 7.7 2.04 14.63
1/13/2022 4:00:00 PM 0.02 32.036 0.077 7.67 1.99 14.58
1/13/2022 4:15:00 PM 0.02 32.036 0.077 7.64 1.97 14.53
1/13/2022 4:30:00 PM 0.01 32.018 0.077 7.62 2.01 14.46
1/13/2022 4:45:00 PM -99999.99 -179968 -99999.99 -99999.99 -99999.99 -99999.99
1/13/2022 5:00:00 PM -99999.99 -179968 -99999.99 -99999.99 -99999.99 -99999.99
1/13/2022 5:15:00 PM -99999.99 -179968 -99999.99 -99999.99 -99999.99 -99999.99
1/13/2022 5:30:00 PM -99999.99 -179968 -99999.99 -99999.99 -99999.99 -99999.99
1/13/2022 5:45:00 PM -99999.99 -179968 -99999.99 -99999.99 -99999.99 -99999.99
1/13/2022 6:00:00 PM -99999.99 -179968 -99999.99 -99999.99 -99999.99 -99999.99
1/13/2022 6:15:00 PM -99999.99 -179968 -99999.99 -99999.99 -99999.99 -99999.99
1/13/2022 6:30:00 PM -99999.99 -179968 -99999.99 -99999.99 -99999.99 -99999.99
1/13/2022 6:45:00 PM -99999.99 -179968 -99999.99 -99999.99 -99999.99 -99999.99
1/13/2022 7:00:00 PM -99999.99 -179968 -99999.99 -99999.99 -99999.99 -99999.99
1/13/2022 7:15:00 PM -99999.99 -179968 -99999.99 -99999.99 -99999.99 -99999.99
1/13/2022 7:30:00 PM -99999.99 -179968 -99999.99 -99999.99 -99999.99 -99999.99
1/13/2022 7:45:00 PM -99999.99 -179968 -99999.99 -99999.99 -99999.99 -99999.99
1/13/2022 8:00:00 PM -99999.99 -179968 -99999.99 -99999.99 -99999.99 -99999.99
1/13/2022 8:15:00 PM -99999.99 -179968 -99999.99 -99999.99 -99999.99 -99999.99
1/13/2022 8:30:00 PM -99999.99 -179968 -99999.99 -99999.99 -99999.99 -99999.99
1/13/2022 8:45:00 PM -99999.99 -179968 -99999.99 -99999.99 -99999.99 -99999.99
1/13/2022 9:00:00 PM -99999.99 -179968 -99999.99 -99999.99 -99999.99 -99999.99
1/13/2022 9:15:00 PM -99999.99 -179968 -99999.99 -99999.99 -99999.99 -99999.99
1/13/2022 9:30:00 PM -99999.99 -179968 -99999.99 -99999.99 -99999.99 -99999.99
1/13/2022 9:45:00 PM -99999.99 -179968 -99999.99 -99999.99 -99999.99 -99999.99
1/13/2022 10:00:00 PM -99999.99 -179968 -99999.99 -99999.99 -99999.99 -99999.99
1/13/2022 10:15:00 PM -99999.99 -179968 -99999.99 -99999.99 -99999.99 -99999.99
1/13/2022 10:30:00 PM -99999.99 -179968 -99999.99 -99999.99 -99999.99 -99999.99
1/13/2022 10:45:00 PM -99999.99 -179968 -99999.99 -99999.99 -99999.99 -99999.99
1/13/2022 11:00:00 PM -99999.99 -179968 -99999.99 -99999.99 -99999.99 -99999.99
1/13/2022 11:15:00 PM -99999.99 -179968 -99999.99 -99999.99 -99999.99 -99999.99
1/13/2022 11:30:00 PM -99999.99 -179968 -99999.99 -99999.99 -99999.99 -99999.99
1/13/2022 11:45:00 PM -99999.99 -179968 -99999.99 -99999.99 -99999.99 -99999.99
1/14/2022 12:00:00 AM -99999.99 -179968 -99999.99 -99999.99 -99999.99 -99999.99
1/14/2022 12:15:00 AM -99999.99 -179968 -99999.99 -99999.99 -99999.99 -99999.99
1/14/2022 12:30:00 AM -99999.99 -179968 -99999.99 -99999.99 -99999.99 -99999.99
1/14/2022 12:45:00 AM -99999.99 -179968 -99999.99 -99999.99 -99999.99 -99999.99
1/14/2022 1:00:00 AM -99999.99 -179968 -99999.99 -99999.99 -99999.99 -99999.99
1/14/2022 1:15:00 AM -99999.99 -179968 -99999.99 -99999.99 -99999.99 -99999.99
1/14/2022 1:30:00 AM -99999.99 -179968 -99999.99 -99999.99 -99999.99 -99999.99
1/14/2022 1:45:00 AM -99999.99 -179968 -99999.99 -99999.99 -99999.99 -99999.99
1/14/2022 2:00:00 AM -99999.99 -179968 -99999.99 -99999.99 -99999.99 -99999.99
1/14/2022 2:15:00 AM -99999.99 -179968 -99999.99 -99999.99 -99999.99 -99999.99
1/14/2022 2:30:00 AM -99999.99 -179968 -99999.99 -99999.99 -99999.99 -99999.99
1/14/2022 2:45:00 AM -99999.99 -179968 -99999.99 -99999.99 -99999.99 -99999.99
1/14/2022 3:00:00 AM -99999.99 -179968 -99999.99 -99999.99 -99999.99 -99999.99
1/14/2022 3:15:00 AM -99999.99 -179968 -99999.99 -99999.99 -99999.99 -99999.99
1/14/2022 3:30:00 AM -99999.99 -179968 -99999.99 -99999.99 -99999.99 -99999.99
1/14/2022 3:45:00 AM -99999.99 -179968 -99999.99 -99999.99 -99999.99 -99999.99
1/14/2022 4:00:00 AM -99999.99 -179968 -99999.99 -99999.99 -99999.99 -99999.99
1/14/2022 4:15:00 AM -99999.99 -179968 -99999.99 -99999.99 -99999.99 -99999.99
1/14/2022 4:30:00 AM -99999.99 -179968 -99999.99 -99999.99 -99999.99 -99999.99
1/14/2022 4:45:00 AM -99999.99 -179968 -99999.99 -99999.99 -99999.99 -99999.99
1/14/2022 5:00:00 AM -99999.99 -179968 -99999.99 -99999.99 -99999.99 -99999.99
1/14/2022 5:15:00 AM -99999.99 -179968 -99999.99 -99999.99 -99999.99 -99999.99
1/14/2022 5:30:00 AM -99999.99 -179968 -99999.99 -99999.99 -99999.99 -99999.99
1/14/2022 5:45:00 AM -99999.99 -179968 -99999.99 -99999.99 -99999.99 -99999.99
1/14/2022 6:00:00 AM -99999.99 -179968 -99999.99 -99999.99 -99999.99 -99999.99
1/14/2022 6:15:00 AM -99999.99 -179968 -99999.99 -99999.99 -99999.99 -99999.99
1/14/2022 6:30:00 AM -99999.99 -179968 -99999.99 -99999.99 -99999.99 -99999.99
1/14/2022 6:45:00 AM -99999.99 -179968 -99999.99 -99999.99 -99999.99 -99999.99
1/14/2022 7:00:00 AM -99999.99 -179968 -99999.99 -99999.99 -99999.99 -99999.99
1/14/2022 7:15:00 AM -99999.99 -179968 -99999.99 -99999.99 -99999.99 -99999.99
1/14/2022 7:30:00 AM -99999.99 -179968 -99999.99 -99999.99 -99999.99 -99999.99
1/14/2022 7:45:00 AM -99999.99 -179968 -99999.99 -99999.99 -99999.99 -99999.99
1/14/2022 8:00:00 AM -99999.99 -179968 -99999.99 -99999.99 -99999.99 -99999.99
1/14/2022 8:15:00 AM -99999.99 -179968 -99999.99 -99999.99 -99999.99 -99999.99
1/14/2022 8:30:00 AM -99999.99 -179968 -99999.99 -99999.99 -99999.99 -99999.99
1/14/2022 8:45:00 AM -99999.99 -179968 -99999.99 -99999.99 -99999.99 -99999.99
1/14/2022 9:00:00 AM -99999.99 -179968 -99999.99 -99999.99 -99999.99 -99999.99
1/14/2022 9:15:00 AM -99999.99 -179968 -99999.99 -99999.99 -99999.99 -99999.99
1/14/2022 9:30:00 AM -99999.99 -179968 -99999.99 -99999.99 -99999.99 -99999.99
1/14/2022 9:45:00 AM -99999.99 -179968 -99999.99 -99999.99 -99999.99 -99999.99
1/14/2022 10:00:00 AM -99999.99 -179968 -99999.99 -99999.99 -99999.99 -99999.99
1/14/2022 10:15:00 AM -99999.99 -179968 -99999.99 -99999.99 -99999.99 -99999.99
1/14/2022 10:30:00 AM -99999.99 -179968 -99999.99 -99999.99 -99999.99 -99999.99
1/14/2022 10:45:00 AM -99999.99 -179968 -99999.99 -99999.99 -99999.99 -99999.99
1/14/2022 11:00:00 AM -99999.99 -179968 -99999.99 -99999.99 -99999.99 -99999.99
1/14/2022 11:15:00 AM -99999.99 -179968 -99999.99 -99999.99 -99999.99 -99999.99
1/14/2022 11:30:00 AM -99999.99 -179968 -99999.99 -99999.99 -99999.99 -99999.99
1/14/2022 11:45:00 AM 0.15 32.27 0.078 7.61 2.64 14.78
1/14/2022 12:00:00 PM -99999.99 -179968 -99999.99 -99999.99 -99999.99 -99999.99
1/14/2022 12:15:00 PM 0.2 32.36 0.078 7.64 2.59 14.8
1/14/2022 12:30:00 PM 0.19 32.342 0.078 7.66 2.02 14.81
1/14/2022 12:45:00 PM 0.2 32.36 0.078 7.68 1.9 14.83
1/14/2022 1:00:00 PM 0.23 32.414 0.078 7.63 1.82 14.81
1/14/2022 1:15:00 PM 0.21 32.378 0.077 7.69 1.85 14.83
1/14/2022 1:30:00 PM 0.23 32.414 0.077 7.67 1.88 14.83
1/14/2022 1:45:00 PM 0.22 32.396 0.077 7.72 1.95 14.82
1/14/2022 2:00:00 PM 0.22 32.396 0.077 7.72 1.94 14.78
1/14/2022 2:15:00 PM 0.22 32.396 0.077 7.63 1.99 14.73
1/14/2022 2:30:00 PM 0.2 32.36 0.077 7.66 1.9 14.74
1/14/2022 2:45:00 PM 0.2 32.36 0.077 7.59 2 14.68
1/14/2022 3:00:00 PM 0.2 32.36 0.077 7.59 1.9 14.67
1/14/2022 3:15:00 PM 0.19 32.342 0.077 7.55 1.95 14.65
1/14/2022 3:30:00 PM 0.16 32.288 0.077 7.55 1.83 14.6
1/14/2022 3:45:00 PM 0.12 32.216 0.078 7.57 1.88 14.57
1/14/2022 4:00:00 PM 0.14 32.252 0.078 7.49 1.91 14.55
1/14/2022 4:15:00 PM 0.11 32.198 0.078 7.5 1.84 14.47
1/14/2022 4:30:00 PM 0.1 32.18 0.078 7.44 1.95 14.36
1/14/2022 4:45:00 PM 0.08 32.144 0.079 7.42 2.14 14.23
1/14/2022 5:00:00 PM 0.05 32.09 0.079 7.38 2.31 14.16
1/14/2022 5:15:00 PM 0.06 32.108 0.079 7.33 1.84 14.01
1/14/2022 5:30:00 PM 0.06 32.108 0.079 7.34 1.83 13.98
1/14/2022 5:45:00 PM -99999.99 -179968 -99999.99 -99999.99 -99999.99 -99999.99
1/14/2022 6:00:00 PM -99999.99 -179968 -99999.99 -99999.99 -99999.99 -99999.99
1/14/2022 6:15:00 PM -99999.99 -179968 -99999.99 -99999.99 -99999.99 -99999.99
1/14/2022 6:30:00 PM -99999.99 -179968 -99999.99 -99999.99 -99999.99 -99999.99
1/14/2022 6:45:00 PM -99999.99 -179968 -99999.99 -99999.99 -99999.99 -99999.99
1/14/2022 7:00:00 PM -99999.99 -179968 -99999.99 -99999.99 -99999.99 -99999.99
1/14/2022 7:15:00 PM -99999.99 -179968 -99999.99 -99999.99 -99999.99 -99999.99
1/14/2022 7:30:00 PM -99999.99 -179968 -99999.99 -99999.99 -99999.99 -99999.99
1/14/2022 7:45:00 PM -99999.99 -179968 -99999.99 -99999.99 -99999.99 -99999.99
1/14/2022 8:00:00 PM -99999.99 -179968 -99999.99 -99999.99 -99999.99 -99999.99
1/14/2022 8:15:00 PM -99999.99 -179968 -99999.99 -99999.99 -99999.99 -99999.99
1/14/2022 8:30:00 PM -99999.99 -179968 -99999.99 -99999.99 -99999.99 -99999.99
1/14/2022 8:45:00 PM -99999.99 -179968 -99999.99 -99999.99 -99999.99 -99999.99
1/14/2022 9:00:00 PM -99999.99 -179968 -99999.99 -99999.99 -99999.99 -99999.99
1/14/2022 9:15:00 PM -99999.99 -179968 -99999.99 -99999.99 -99999.99 -99999.99
1/14/2022 9:30:00 PM -99999.99 -179968 -99999.99 -99999.99 -99999.99 -99999.99
1/14/2022 9:45:00 PM -99999.99 -179968 -99999.99 -99999.99 -99999.99 -99999.99
1/14/2022 10:00:00 PM -99999.99 -179968 -99999.99 -99999.99 -99999.99 -99999.99
1/14/2022 10:15:00 PM -99999.99 -179968 -99999.99 -99999.99 -99999.99 -99999.99
1/14/2022 10:30:00 PM -99999.99 -179968 -99999.99 -99999.99 -99999.99 -99999.99
1/14/2022 10:45:00 PM -99999.99 -179968 -99999.99 -99999.99 -99999.99 -99999.99
1/14/2022 11:00:00 PM -99999.99 -179968 -99999.99 -99999.99 -99999.99 -99999.99
1/14/2022 11:15:00 PM -99999.99 -179968 -99999.99 -99999.99 -99999.99 -99999.99
1/14/2022 11:30:00 PM -99999.99 -179968 -99999.99 -99999.99 -99999.99 -99999.99
1/14/2022 11:45:00 PM -99999.99 -179968 -99999.99 -99999.99 -99999.99 -99999.99
1/15/2022 12:00:00 AM -99999.99 -179968 -99999.99 -99999.99 -99999.99 -99999.99
1/15/2022 12:15:00 AM -99999.99 -179968 -99999.99 -99999.99 -99999.99 -99999.99
1/15/2022 12:30:00 AM -99999.99 -179968 -99999.99 -99999.99 -99999.99 -99999.99
1/15/2022 12:45:00 AM -99999.99 -179968 -99999.99 -99999.99 -99999.99 -99999.99
1/15/2022 1:00:00 AM -99999.99 -179968 -99999.99 -99999.99 -99999.99 -99999.99
1/15/2022 1:15:00 AM -99999.99 -179968 -99999.99 -99999.99 -99999.99 -99999.99
1/15/2022 1:30:00 AM -99999.99 -179968 -99999.99 -99999.99 -99999.99 -99999.99
1/15/2022 1:45:00 AM -99999.99 -179968 -99999.99 -99999.99 -99999.99 -99999.99
1/15/2022 2:00:00 AM -99999.99 -179968 -99999.99 -99999.99 -99999.99 -99999.99
1/15/2022 2:15:00 AM -99999.99 -179968 -99999.99 -99999.99 -99999.99 -99999.99
1/15/2022 2:30:00 AM -99999.99 -179968 -99999.99 -99999.99 -99999.99 -99999.99
1/15/2022 2:45:00 AM -99999.99 -179968 -99999.99 -99999.99 -99999.99 -99999.99
1/15/2022 3:00:00 AM -99999.99 -179968 -99999.99 -99999.99 -99999.99 -99999.99
1/15/2022 3:15:00 AM -99999.99 -179968 -99999.99 -99999.99 -99999.99 -99999.99
1/15/2022 3:30:00 AM -99999.99 -179968 -99999.99 -99999.99 -99999.99 -99999.99
1/15/2022 3:45:00 AM -99999.99 -179968 -99999.99 -99999.99 -99999.99 -99999.99
1/15/2022 4:00:00 AM -99999.99 -179968 -99999.99 -99999.99 -99999.99 -99999.99
1/15/2022 4:15:00 AM -99999.99 -179968 -99999.99 -99999.99 -99999.99 -99999.99
1/15/2022 4:30:00 AM -99999.99 -179968 -99999.99 -99999.99 -99999.99 -99999.99
1/15/2022 4:45:00 AM -99999.99 -179968 -99999.99 -99999.99 -99999.99 -99999.99
1/15/2022 5:00:00 AM -99999.99 -179968 -99999.99 -99999.99 -99999.99 -99999.99
1/15/2022 5:15:00 AM -99999.99 -179968 -99999.99 -99999.99 -99999.99 -99999.99
1/15/2022 5:30:00 AM -99999.99 -179968 -99999.99 -99999.99 -99999.99 -99999.99
1/15/2022 5:45:00 AM -99999.99 -179968 -99999.99 -99999.99 -99999.99 -99999.99
1/15/2022 6:00:00 AM -99999.99 -179968 -99999.99 -99999.99 -99999.99 -99999.99
1/15/2022 6:15:00 AM -99999.99 -179968 -99999.99 -99999.99 -99999.99 -99999.99
1/15/2022 6:30:00 AM -99999.99 -179968 -99999.99 -99999.99 -99999.99 -99999.99
1/15/2022 6:45:00 AM -99999.99 -179968 -99999.99 -99999.99 -99999.99 -99999.99
1/15/2022 7:00:00 AM -99999.99 -179968 -99999.99 -99999.99 -99999.99 -99999.99
1/15/2022 7:15:00 AM -99999.99 -179968 -99999.99 -99999.99 -99999.99 -99999.99
1/15/2022 7:30:00 AM -99999.99 -179968 -99999.99 -99999.99 -99999.99 -99999.99
1/15/2022 7:45:00 AM -99999.99 -179968 -99999.99 -99999.99 -99999.99 -99999.99
1/15/2022 8:00:00 AM -99999.99 -179968 -99999.99 -99999.99 -99999.99 -99999.99
1/15/2022 8:15:00 AM -99999.99 -179968 -99999.99 -99999.99 -99999.99 -99999.99
1/15/2022 8:30:00 AM -99999.99 -179968 -99999.99 -99999.99 -99999.99 -99999.99
1/15/2022 8:45:00 AM -99999.99 -179968 -99999.99 -99999.99 -99999.99 -99999.99
1/15/2022 9:00:00 AM -99999.99 -179968 -99999.99 -99999.99 -99999.99 -99999.99
1/15/2022 9:15:00 AM -99999.99 -179968 -99999.99 -99999.99 -99999.99 -99999.99
1/15/2022 9:30:00 AM -99999.99 -179968 -99999.99 -99999.99 -99999.99 -99999.99
1/15/2022 9:45:00 AM -99999.99 -179968 -99999.99 -99999.99 -99999.99 -99999.99
1/15/2022 10:00:00 AM -99999.99 -179968 -99999.99 -99999.99 -99999.99 -99999.99
1/15/2022 10:15:00 AM -99999.99 -179968 -99999.99 -99999.99 -99999.99 -99999.99
1/15/2022 10:30:00 AM -99999.99 -179968 -99999.99 -99999.99 -99999.99 -99999.99
1/15/2022 10:45:00 AM -99999.99 -179968 -99999.99 -99999.99 -99999.99 -99999.99
1/15/2022 11:00:00 AM -99999.99 -179968 -99999.99 -99999.99 -99999.99 -99999.99
1/15/2022 11:15:00 AM -99999.99 -179968 -99999.99 -99999.99 -99999.99 -99999.99
1/15/2022 11:30:00 AM -99999.99 -179968 -99999.99 -99999.99 -99999.99 -99999.99
1/15/2022 11:45:00 AM -99999.99 -179968 -99999.99 -99999.99 -99999.99 -99999.99
1/15/2022 12:00:00 PM -99999.99 -179968 -99999.99 -99999.99 -99999.99 -99999.99
1/15/2022 12:15:00 PM -99999.99 -179968 -99999.99 -99999.99 -99999.99 -99999.99
1/15/2022 12:30:00 PM -99999.99 -179968 -99999.99 -99999.99 -99999.99 -99999.99
1/15/2022 12:45:00 PM -99999.99 -179968 -99999.99 -99999.99 -99999.99 -99999.99
1/15/2022 1:00:00 PM -99999.99 -179968 -99999.99 -99999.99 -99999.99 -99999.99
1/15/2022 1:15:00 PM -99999.99 -179968 -99999.99 -99999.99 -99999.99 -99999.99
1/15/2022 1:30:00 PM -99999.99 -179968 -99999.99 -99999.99 -99999.99 -99999.99
1/15/2022 1:45:00 PM -99999.99 -179968 -99999.99 -99999.99 -99999.99 -99999.99
1/15/2022 2:00:00 PM -99999.99 -179968 -99999.99 -99999.99 -99999.99 -99999.99
1/15/2022 2:15:00 PM -99999.99 -179968 -99999.99 -99999.99 -99999.99 -99999.99
1/15/2022 2:30:00 PM -99999.99 -179968 -99999.99 -99999.99 -99999.99 -99999.99
1/15/2022 2:45:00 PM -99999.99 -179968 -99999.99 -99999.99 -99999.99 -99999.99
1/15/2022 3:00:00 PM -99999.99 -179968 -99999.99 -99999.99 -99999.99 -99999.99
1/15/2022 3:15:00 PM -99999.99 -179968 -99999.99 -99999.99 -99999.99 -99999.99
1/15/2022 3:30:00 PM -99999.99 -179968 -99999.99 -99999.99 -99999.99 -99999.99
1/15/2022 3:45:00 PM -99999.99 -179968 -99999.99 -99999.99 -99999.99 -99999.99
1/15/2022 4:00:00 PM -99999.99 -179968 -99999.99 -99999.99 -99999.99 -99999.99
1/15/2022 4:15:00 PM -99999.99 -179968 -99999.99 -99999.99 -99999.99 -99999.99
1/15/2022 4:30:00 PM -99999.99 -179968 -99999.99 -99999.99 -99999.99 -99999.99
1/15/2022 4:45:00 PM -99999.99 -179968 -99999.99 -99999.99 -99999.99 -99999.99
1/15/2022 5:00:00 PM -99999.99 -179968 -99999.99 -99999.99 -99999.99 -99999.99
1/15/2022 5:15:00 PM -99999.99 -179968 -99999.99 -99999.99 -99999.99 -99999.99
1/15/2022 5:30:00 PM -99999.99 -179968 -99999.99 -99999.99 -99999.99 -99999.99
1/15/2022 5:45:00 PM -99999.99 -179968 -99999.99 -99999.99 -99999.99 -99999.99
1/15/2022 6:00:00 PM -99999.99 -179968 -99999.99 -99999.99 -99999.99 -99999.99
1/15/2022 9:30:00 PM -99999.99 -179968 -99999.99 -99999.99 -99999.99 -99999.99
1/15/2022 9:45:00 PM -99999.99 -179968 -99999.99 -99999.99 -99999.99 -99999.99
1/15/2022 10:00:00 PM -99999.99 -179968 -99999.99 -99999.99 -99999.99 -99999.99
1/15/2022 10:15:00 PM -99999.99 -179968 -99999.99 -99999.99 -99999.99 -99999.99
1/15/2022 10:30:00 PM -99999.99 -179968 -99999.99 -99999.99 -99999.99 -99999.99
1/15/2022 10:45:00 PM -99999.99 -179968 -99999.99 -99999.99 -99999.99 -99999.99
1/15/2022 11:00:00 PM -99999.99 -179968 -99999.99 -99999.99 -99999.99 -99999.99
1/15/2022 11:15:00 PM -99999.99 -179968 -99999.99 -99999.99 -99999.99 -99999.99
1/15/2022 11:30:00 PM -99999.99 -179968 -99999.99 -99999.99 -99999.99 -99999.99
1/15/2022 11:45:00 PM -99999.99 -179968 -99999.99 -99999.99 -99999.99 -99999.99
1/16/2022 12:00:00 AM -99999.99 -179968 -99999.99 -99999.99 -99999.99 -99999.99
1/16/2022 12:15:00 AM -99999.99 -179968 -99999.99 -99999.99 -99999.99 -99999.99
1/16/2022 12:30:00 AM -99999.99 -179968 -99999.99 -99999.99 -99999.99 -99999.99
1/16/2022 12:45:00 AM -99999.99 -179968 -99999.99 -99999.99 -99999.99 -99999.99
1/16/2022 1:00:00 AM -99999.99 -179968 -99999.99 -99999.99 -99999.99 -99999.99
1/16/2022 1:15:00 AM -99999.99 -179968 -99999.99 -99999.99 -99999.99 -99999.99
1/16/2022 1:30:00 AM -99999.99 -179968 -99999.99 -99999.99 -99999.99 -99999.99
1/16/2022 1:45:00 AM -99999.99 -179968 -99999.99 -99999.99 -99999.99 -99999.99
1/16/2022 2:00:00 AM -99999.99 -179968 -99999.99 -99999.99 -99999.99 -99999.99
1/16/2022 2:15:00 AM -99999.99 -179968 -99999.99 -99999.99 -99999.99 -99999.99
1/16/2022 2:30:00 AM -99999.99 -179968 -99999.99 -99999.99 -99999.99 -99999.99
1/16/2022 2:45:00 AM -99999.99 -179968 -99999.99 -99999.99 -99999.99 -99999.99
1/16/2022 3:00:00 AM -99999.99 -179968 -99999.99 -99999.99 -99999.99 -99999.99
1/16/2022 3:15:00 AM -99999.99 -179968 -99999.99 -99999.99 -99999.99 -99999.99
1/16/2022 3:30:00 AM -99999.99 -179968 -99999.99 -99999.99 -99999.99 -99999.99
1/16/2022 3:45:00 AM -99999.99 -179968 -99999.99 -99999.99 -99999.99 -99999.99
1/16/2022 4:00:00 AM -99999.99 -179968 -99999.99 -99999.99 -99999.99 -99999.99
1/16/2022 4:15:00 AM -99999.99 -179968 -99999.99 -99999.99 -99999.99 -99999.99
1/16/2022 4:30:00 AM -99999.99 -179968 -99999.99 -99999.99 -99999.99 -99999.99
1/16/2022 4:45:00 AM -99999.99 -179968 -99999.99 -99999.99 -99999.99 -99999.99
1/16/2022 5:00:00 AM -99999.99 -179968 -99999.99 -99999.99 -99999.99 -99999.99
1/16/2022 5:15:00 AM -99999.99 -179968 -99999.99 -99999.99 -99999.99 -99999.99
1/16/2022 5:30:00 AM -99999.99 -179968 -99999.99 -99999.99 -99999.99 -99999.99
1/16/2022 5:45:00 AM -99999.99 -179968 -99999.99 -99999.99 -99999.99 -99999.99
1/16/2022 6:00:00 AM -99999.99 -179968 -99999.99 -99999.99 -99999.99 -99999.99
1/16/2022 6:15:00 AM -99999.99 -179968 -99999.99 -99999.99 -99999.99 -99999.99
1/16/2022 6:30:00 AM -99999.99 -179968 -99999.99 -99999.99 -99999.99 -99999.99
1/16/2022 6:45:00 AM -99999.99 -179968 -99999.99 -99999.99 -99999.99 -99999.99
1/16/2022 7:00:00 AM -99999.99 -179968 -99999.99 -99999.99 -99999.99 -99999.99
1/16/2022 7:15:00 AM -99999.99 -179968 -99999.99 -99999.99 -99999.99 -99999.99
1/16/2022 7:30:00 AM -99999.99 -179968 -99999.99 -99999.99 -99999.99 -99999.99
1/16/2022 7:45:00 AM -99999.99 -179968 -99999.99 -99999.99 -99999.99 -99999.99
1/16/2022 8:00:00 AM -99999.99 -179968 -99999.99 -99999.99 -99999.99 -99999.99
1/16/2022 8:15:00 AM -99999.99 -179968 -99999.99 -99999.99 -99999.99 -99999.99
1/16/2022 8:30:00 AM -99999.99 -179968 -99999.99 -99999.99 -99999.99 -99999.99
1/16/2022 8:45:00 AM -99999.99 -179968 -99999.99 -99999.99 -99999.99 -99999.99
1/16/2022 9:00:00 AM -99999.99 -179968 -99999.99 -99999.99 -99999.99 -99999.99
1/16/2022 9:15:00 AM -99999.99 -179968 -99999.99 -99999.99 -99999.99 -99999.99
1/16/2022 9:30:00 AM -99999.99 -179968 -99999.99 -99999.99 -99999.99 -99999.99
1/16/2022 9:45:00 AM -99999.99 -179968 -99999.99 -99999.99 -99999.99 -99999.99
1/16/2022 10:00:00 AM -99999.99 -179968 -99999.99 -99999.99 -99999.99 -99999.99
1/16/2022 10:15:00 AM -99999.99 -179968 -99999.99 -99999.99 -99999.99 -99999.99
1/16/2022 10:30:00 AM -99999.99 -179968 -99999.99 -99999.99 -99999.99 -99999.99
1/16/2022 10:45:00 AM -99999.99 -179968 -99999.99 -99999.99 -99999.99 -99999.99
1/16/2022 11:00:00 AM -99999.99 -179968 -99999.99 -99999.99 -99999.99 -99999.99
1/16/2022 11:15:00 AM -99999.99 -179968 -99999.99 -99999.99 -99999.99 -99999.99
1/16/2022 11:30:00 AM -99999.99 -179968 -99999.99 -99999.99 -99999.99 -99999.99
1/16/2022 11:45:00 AM -99999.99 -179968 -99999.99 -99999.99 -99999.99 -99999.99
1/16/2022 12:00:00 PM -99999.99 -179968 -99999.99 -99999.99 -99999.99 -99999.99
1/16/2022 12:15:00 PM -99999.99 -179968 -99999.99 -99999.99 -99999.99 -99999.99
1/16/2022 12:30:00 PM -99999.99 -179968 -99999.99 -99999.99 -99999.99 -99999.99
1/16/2022 12:45:00 PM -99999.99 -179968 -99999.99 -99999.99 -99999.99 -99999.99
1/16/2022 1:00:00 PM -99999.99 -179968 -99999.99 -99999.99 -99999.99 -99999.99
1/16/2022 1:15:00 PM -99999.99 -179968 -99999.99 -99999.99 -99999.99 -99999.99
1/16/2022 1:30:00 PM -99999.99 -179968 -99999.99 -99999.99 -99999.99 -99999.99
1/16/2022 1:45:00 PM -99999.99 -179968 -99999.99 -99999.99 -99999.99 -99999.99
1/16/2022 2:00:00 PM -99999.99 -179968 -99999.99 -99999.99 -99999.99 -99999.99
1/16/2022 2:15:00 PM -99999.99 -179968 -99999.99 -99999.99 -99999.99 -99999.99
1/16/2022 2:30:00 PM -99999.99 -179968 -99999.99 -99999.99 -99999.99 -99999.99
1/16/2022 2:45:00 PM -99999.99 -179968 -99999.99 -99999.99 -99999.99 -99999.99
1/16/2022 3:00:00 PM -99999.99 -179968 -99999.99 -99999.99 -99999.99 -99999.99
1/16/2022 3:15:00 PM -99999.99 -179968 -99999.99 -99999.99 -99999.99 -99999.99
1/16/2022 3:30:00 PM -99999.99 -179968 -99999.99 -99999.99 -99999.99 -99999.99
1/16/2022 3:45:00 PM -99999.99 -179968 -99999.99 -99999.99 -99999.99 -99999.99
1/16/2022 4:00:00 PM -99999.99 -179968 -99999.99 -99999.99 -99999.99 -99999.99
1/16/2022 4:15:00 PM -99999.99 -179968 -99999.99 -99999.99 -99999.99 -99999.99
1/16/2022 4:30:00 PM -99999.99 -179968 -99999.99 -99999.99 -99999.99 -99999.99
1/16/2022 4:45:00 PM -99999.99 -179968 -99999.99 -99999.99 -99999.99 -99999.99
1/16/2022 5:00:00 PM -99999.99 -179968 -99999.99 -99999.99 -99999.99 -99999.99
1/16/2022 5:15:00 PM -99999.99 -179968 -99999.99 -99999.99 -99999.99 -99999.99
1/16/2022 5:30:00 PM -99999.99 -179968 -99999.99 -99999.99 -99999.99 -99999.99
1/16/2022 5:45:00 PM -99999.99 -179968 -99999.99 -99999.99 -99999.99 -99999.99
1/16/2022 6:00:00 PM -99999.99 -179968 -99999.99 -99999.99 -99999.99 -99999.99
1/16/2022 6:15:00 PM -99999.99 -179968 -99999.99 -99999.99 -99999.99 -99999.99
1/16/2022 6:30:00 PM -99999.99 -179968 -99999.99 -99999.99 -99999.99 -99999.99
1/16/2022 6:45:00 PM -99999.99 -179968 -99999.99 -99999.99 -99999.99 -99999.99
1/16/2022 7:00:00 PM -99999.99 -179968 -99999.99 -99999.99 -99999.99 -99999.99
1/16/2022 7:15:00 PM -99999.99 -179968 -99999.99 -99999.99 -99999.99 -99999.99
1/16/2022 7:30:00 PM -99999.99 -179968 -99999.99 -99999.99 -99999.99 -99999.99
1/16/2022 7:45:00 PM -99999.99 -179968 -99999.99 -99999.99 -99999.99 -99999.99
1/16/2022 8:00:00 PM -99999.99 -179968 -99999.99 -99999.99 -99999.99 -99999.99
1/16/2022 8:15:00 PM -99999.99 -179968 -99999.99 -99999.99 -99999.99 -99999.99
1/16/2022 8:30:00 PM -99999.99 -179968 -99999.99 -99999.99 -99999.99 -99999.99
1/16/2022 8:45:00 PM -99999.99 -179968 -99999.99 -99999.99 -99999.99 -99999.99
1/16/2022 9:00:00 PM -99999.99 -179968 -99999.99 -99999.99 -99999.99 -99999.99
1/16/2022 9:15:00 PM -99999.99 -179968 -99999.99 -99999.99 -99999.99 -99999.99
1/16/2022 9:30:00 PM -99999.99 -179968 -99999.99 -99999.99 -99999.99 -99999.99
1/16/2022 9:45:00 PM -99999.99 -179968 -99999.99 -99999.99 -99999.99 -99999.99
1/16/2022 10:00:00 PM -99999.99 -179968 -99999.99 -99999.99 -99999.99 -99999.99
1/16/2022 10:15:00 PM -99999.99 -179968 -99999.99 -99999.99 -99999.99 -99999.99
1/16/2022 10:30:00 PM -99999.99 -179968 -99999.99 -99999.99 -99999.99 -99999.99
1/16/2022 10:45:00 PM -99999.99 -179968 -99999.99 -99999.99 -99999.99 -99999.99
1/16/2022 11:00:00 PM -99999.99 -179968 -99999.99 -99999.99 -99999.99 -99999.99
1/16/2022 11:15:00 PM -99999.99 -179968 -99999.99 -99999.99 -99999.99 -99999.99
1/16/2022 11:30:00 PM -99999.99 -179968 -99999.99 -99999.99 -99999.99 -99999.99
1/16/2022 11:45:00 PM -99999.99 -179968 -99999.99 -99999.99 -99999.99 -99999.99
1/17/2022 12:00:00 AM -99999.99 -179968 -99999.99 -99999.99 -99999.99 -99999.99
1/17/2022 12:15:00 AM -99999.99 -179968 -99999.99 -99999.99 -99999.99 -99999.99
1/17/2022 12:30:00 AM -99999.99 -179968 -99999.99 -99999.99 -99999.99 -99999.99
1/17/2022 12:45:00 AM -99999.99 -179968 -99999.99 -99999.99 -99999.99 -99999.99
1/17/2022 1:00:00 AM -99999.99 -179968 -99999.99 -99999.99 -99999.99 -99999.99
1/17/2022 1:15:00 AM -99999.99 -179968 -99999.99 -99999.99 -99999.99 -99999.99
1/17/2022 1:30:00 AM -99999.99 -179968 -99999.99 -99999.99 -99999.99 -99999.99
1/17/2022 1:45:00 AM -99999.99 -179968 -99999.99 -99999.99 -99999.99 -99999.99
1/17/2022 2:00:00 AM -99999.99 -179968 -99999.99 -99999.99 -99999.99 -99999.99
1/17/2022 2:15:00 AM -99999.99 -179968 -99999.99 -99999.99 -99999.99 -99999.99
1/17/2022 2:30:00 AM -99999.99 -179968 -99999.99 -99999.99 -99999.99 -99999.99
1/17/2022 2:45:00 AM -99999.99 -179968 -99999.99 -99999.99 -99999.99 -99999.99
1/17/2022 3:00:00 AM -99999.99 -179968 -99999.99 -99999.99 -99999.99 -99999.99
1/17/2022 3:15:00 AM -99999.99 -179968 -99999.99 -99999.99 -99999.99 -99999.99
1/17/2022 3:30:00 AM -99999.99 -179968 -99999.99 -99999.99 -99999.99 -99999.99
1/17/2022 3:45:00 AM -99999.99 -179968 -99999.99 -99999.99 -99999.99 -99999.99
1/17/2022 4:00:00 AM -99999.99 -179968 -99999.99 -99999.99 -99999.99 -99999.99
1/17/2022 4:15:00 AM -99999.99 -179968 -99999.99 -99999.99 -99999.99 -99999.99
1/17/2022 4:30:00 AM -99999.99 -179968 -99999.99 -99999.99 -99999.99 -99999.99
1/17/2022 4:45:00 AM -99999.99 -179968 -99999.99 -99999.99 -99999.99 -99999.99
1/17/2022 5:00:00 AM -99999.99 -179968 -99999.99 -99999.99 -99999.99 -99999.99
1/17/2022 5:15:00 AM -99999.99 -179968 -99999.99 -99999.99 -99999.99 -99999.99
1/17/2022 5:30:00 AM -99999.99 -179968 -99999.99 -99999.99 -99999.99 -99999.99
1/17/2022 5:45:00 AM -99999.99 -179968 -99999.99 -99999.99 -99999.99 -99999.99
1/17/2022 6:00:00 AM -99999.99 -179968 -99999.99 -99999.99 -99999.99 -99999.99
1/17/2022 6:15:00 AM -99999.99 -179968 -99999.99 -99999.99 -99999.99 -99999.99
1/17/2022 6:30:00 AM -99999.99 -179968 -99999.99 -99999.99 -99999.99 -99999.99
1/17/2022 6:45:00 AM -99999.99 -179968 -99999.99 -99999.99 -99999.99 -99999.99
1/17/2022 7:00:00 AM -99999.99 -179968 -99999.99 -99999.99 -99999.99 -99999.99
1/17/2022 7:15:00 AM -99999.99 -179968 -99999.99 -99999.99 -99999.99 -99999.99
1/17/2022 7:30:00 AM -99999.99